Provisional Data: Kishacoquillas Creek near Belleville, PA


Please select a monitoring station.
Please select start date.
Please select start date.

Toggle Unit: C/F Toggle Unit: C/F
Sample Time Temperature (C) Temperature (F) Specific Conductivity (mS/cm) pH   Turbidity (NTU+) DO (mg/L)
12/11/2021 12:00:00 AM 7.82 46.076 0.498 7.77 6.82 10.32
12/11/2021 12:15:00 AM 7.83 46.094 0.498 7.77 7.92 10.28
12/11/2021 12:30:00 AM 7.84 46.112 0.498 7.77 7.14 10.25
12/11/2021 12:45:00 AM 7.84 46.112 0.498 7.76 7.51 10.22
12/11/2021 1:00:00 AM 7.85 46.13 0.498 7.76 6.71 10.19
12/11/2021 1:15:00 AM 7.85 46.13 0.498 7.75 6.83 10.16
12/11/2021 1:30:00 AM 7.86 46.148 0.498 7.74 7.59 10.13
12/11/2021 1:45:00 AM 7.87 46.166 0.498 7.74 7.07 10.11
12/11/2021 2:00:00 AM 7.87 46.166 0.498 7.73 7.92 10.09
12/11/2021 2:15:00 AM 7.88 46.184 0.498 7.73 8.53 10.04
12/11/2021 2:30:00 AM 7.89 46.202 0.498 7.73 6.71 10.05
12/11/2021 2:45:00 AM 7.89 46.202 0.498 7.73 6.79 10.03
12/11/2021 3:00:00 AM 7.89 46.202 0.498 7.73 7.99 10.01
12/11/2021 3:15:00 AM 7.89 46.202 0.498 7.73 7.39 9.99
12/11/2021 3:30:00 AM 7.89 46.202 0.498 7.73 7.43 10
12/11/2021 3:45:00 AM 7.87 46.166 0.496 7.73 8 10
12/11/2021 4:00:00 AM 7.77 45.986 0.487 7.72 15.57 10.04
12/11/2021 4:15:00 AM 7.68 45.824 0.483 7.71 30.68 10.14
12/11/2021 4:30:00 AM 7.66 45.788 0.482 7.7 31.39 10.08
12/11/2021 4:45:00 AM 7.76 45.968 0.488 7.69 15.17 10
12/11/2021 5:00:00 AM 7.8 46.04 0.49 7.69 10.91 9.96
12/11/2021 5:15:00 AM 7.82 46.076 0.492 7.69 9.32 9.92
12/11/2021 5:30:00 AM 7.83 46.094 0.493 7.69 9.05 9.9
12/11/2021 5:45:00 AM 7.84 46.112 0.493 7.69 10.01 9.92
12/11/2021 6:00:00 AM 7.85 46.13 0.493 7.69 11.12 9.91
12/11/2021 6:15:00 AM 7.85 46.13 0.481 7.69 11.04 9.9
12/11/2021 6:30:00 AM 7.86 46.148 0.492 7.68 12.06 9.89
12/11/2021 6:45:00 AM 7.85 46.13 0.491 7.68 10.61 9.87
12/11/2021 7:00:00 AM 7.85 46.13 0.492 7.68 11.13 9.88
12/11/2021 7:15:00 AM 7.85 46.13 0.492 7.67 11.88 9.86
12/11/2021 7:30:00 AM 7.85 46.13 0.491 7.67 10.17 9.85
12/11/2021 7:45:00 AM 7.85 46.13 0.489 7.66 10.13 9.83
12/11/2021 8:00:00 AM 7.85 46.13 0.487 7.66 10.08 9.82
12/11/2021 8:15:00 AM 7.86 46.148 0.484 7.66 9.56 9.82
12/11/2021 8:30:00 AM 7.85 46.13 0.481 7.65 9.68 9.82
12/11/2021 8:45:00 AM 7.85 46.13 0.478 7.65 9.29 9.83
12/11/2021 9:00:00 AM 7.86 46.148 0.476 7.64 10.28 9.84
12/11/2021 9:15:00 AM 7.86 46.148 0.474 7.65 9.92 9.87
12/11/2021 9:30:00 AM 7.87 46.166 0.473 7.64 9.64 9.92
12/11/2021 9:45:00 AM 7.88 46.184 0.473 7.63 9.91 9.96
12/11/2021 10:00:00 AM 7.9 46.22 0.472 7.64 11.5 9.96
12/11/2021 10:15:00 AM 7.91 46.238 0.473 7.63 10.84 10.02
12/11/2021 10:30:00 AM 7.93 46.274 0.473 7.63 10.21 10.06
12/11/2021 10:45:00 AM 7.95 46.31 0.475 7.63 10.02 10.1
12/11/2021 11:00:00 AM 7.98 46.364 0.477 7.65 8.69 10.21
12/11/2021 11:15:00 AM 8.01 46.418 0.479 7.65 8.81 10.32
12/11/2021 11:30:00 AM 8.04 46.472 0.481 7.66 7.56 10.4
12/11/2021 11:45:00 AM 8.08 46.544 0.483 7.67 7.15 10.49
12/11/2021 12:00:00 PM 8.11 46.598 0.484 7.68 7.15 10.53
12/11/2021 12:15:00 PM 8.13 46.634 0.485 7.68 6.73 10.58
12/11/2021 12:30:00 PM 8.16 46.688 0.486 7.69 6.7 10.62
12/11/2021 12:45:00 PM 8.18 46.724 0.486 7.7 6.31 10.61
12/11/2021 1:00:00 PM 8.19 46.742 0.485 7.7 8.72 10.59
12/11/2021 1:15:00 PM 8.21 46.778 0.484 7.7 7.3 10.64
12/11/2021 1:30:00 PM 8.23 46.814 0.482 7.7 6.14 10.68
12/11/2021 1:45:00 PM 8.26 46.868 0.48 7.71 6.29 10.78
12/11/2021 2:00:00 PM 8.28 46.904 0.478 7.71 6.81 10.83
12/11/2021 2:15:00 PM 8.31 46.958 0.476 7.73 7.2 10.96
12/11/2021 2:30:00 PM 8.33 46.994 0.475 7.72 7.21 11.02
12/11/2021 2:45:00 PM 8.35 47.03 0.473 7.73 6.84 11.1
12/11/2021 3:00:00 PM 8.35 47.03 0.471 7.73 12.73 11.06
12/11/2021 3:15:00 PM 8.36 47.048 0.47 7.73 6.34 11.03
12/11/2021 3:30:00 PM 8.36 47.048 0.469 7.72 8.26 10.96
12/11/2021 3:45:00 PM 8.39 47.102 0.469 7.73 6.35 10.92
12/11/2021 4:00:00 PM 8.44 47.192 0.469 7.73 6.28 10.88
12/11/2021 4:15:00 PM 8.49 47.282 0.469 7.72 6.93 10.8
12/11/2021 4:30:00 PM 8.53 47.354 0.469 7.72 6.63 10.76
12/11/2021 4:45:00 PM 8.6 47.48 0.469 7.72 7.09 10.7
12/11/2021 5:00:00 PM 8.67 47.606 0.47 7.72 6.71 10.62
12/11/2021 5:15:00 PM 8.72 47.696 0.472 7.72 8.1 10.53
12/11/2021 5:30:00 PM 8.8 47.84 0.473 7.72 7.15 10.45
12/11/2021 5:45:00 PM 8.86 47.948 0.474 7.7 8.66 10.36
12/11/2021 6:00:00 PM 8.91 48.038 0.475 7.7 7.15 10.28
12/11/2021 6:15:00 PM 8.96 48.128 0.476 7.7 8.11 10.23
12/11/2021 6:30:00 PM 9 48.2 0.477 7.7 8.1 10.14
12/11/2021 6:45:00 PM 9.02 48.236 0.478 7.69 9.27 10.1
12/11/2021 7:00:00 PM 9.04 48.272 0.478 7.68 8.02 10.05
12/11/2021 7:15:00 PM 9.02 48.236 0.479 7.69 8.13 10.03
12/11/2021 7:30:00 PM 8.98 48.164 0.479 7.68 9.57 9.99
12/11/2021 7:45:00 PM 8.94 48.092 0.479 7.69 11.13 9.99
12/11/2021 8:00:00 PM 8.86 47.948 0.48 7.69 8.06 9.98
12/11/2021 8:15:00 PM 8.77 47.786 0.48 7.69 8.69 9.98
12/11/2021 8:30:00 PM 8.66 47.588 0.48 7.68 8.47 10
12/11/2021 8:45:00 PM 8.57 47.426 0.48 7.69 8.35 9.98
12/11/2021 9:00:00 PM 8.48 47.264 0.481 7.69 8.42 9.98
12/11/2021 9:15:00 PM 8.41 47.138 0.481 7.69 8.18 9.99
12/11/2021 9:30:00 PM 8.35 47.03 0.481 7.69 9.63 9.98
12/11/2021 9:45:00 PM 8.29 46.922 0.482 7.69 9.47 9.97
12/11/2021 10:00:00 PM 8.22 46.796 0.482 7.69 7.77 9.97
12/11/2021 10:15:00 PM 8.15 46.67 0.483 7.69 9.69 9.99
12/11/2021 10:30:00 PM 8.09 46.562 0.483 7.69 7.99 9.96
12/11/2021 10:45:00 PM 8.02 46.436 0.483 7.69 10.46 9.97
12/11/2021 11:00:00 PM 7.96 46.328 0.484 7.69 10.32 9.97
12/11/2021 11:15:00 PM 7.9 46.22 0.485 7.69 8.8 9.96
12/11/2021 11:30:00 PM 7.84 46.112 0.487 7.69 8.49 9.97
12/11/2021 11:45:00 PM 7.78 46.004 0.491 7.68 7.88 9.98
12/12/2021 12:00:00 AM 7.74 45.932 0.494 7.68 7.64 9.99
12/12/2021 12:15:00 AM 7.7 45.86 0.495 7.68 8.2 9.98
12/12/2021 12:30:00 AM 7.67 45.806 0.496 7.68 8 9.98
12/12/2021 12:45:00 AM 7.63 45.734 0.495 7.68 9.03 10.01
12/12/2021 1:00:00 AM 7.59 45.662 0.493 7.68 8.88 10.02
12/12/2021 1:15:00 AM 7.55 45.59 0.492 7.68 6.95 10.03
12/12/2021 1:30:00 AM 7.51 45.518 0.491 7.68 7.96 10.05
12/12/2021 1:45:00 AM 7.48 45.464 0.49 7.69 9.67 10.06
12/12/2021 2:00:00 AM 7.45 45.41 0.49 7.69 7.42 10.05
12/12/2021 2:15:00 AM 7.42 45.356 0.49 7.69 7.79 10.06
12/12/2021 2:30:00 AM 7.38 45.284 0.49 7.68 9.24 10.08
12/12/2021 2:45:00 AM 7.35 45.23 0.49 7.68 6.94 10.09
12/12/2021 3:00:00 AM 7.3 45.14 0.49 7.68 6.97 10.11
12/12/2021 3:15:00 AM 7.24 45.032 0.491 7.68 7.07 10.12
12/12/2021 3:30:00 AM 7.19 44.942 0.491 7.68 8.14 10.15
12/12/2021 3:45:00 AM 7.13 44.834 0.491 7.69 7.46 10.16
12/12/2021 4:00:00 AM 7.04 44.672 0.491 7.68 6.61 10.19
12/12/2021 4:15:00 AM 6.96 44.528 0.491 7.68 7.49 10.22
12/12/2021 4:30:00 AM 6.86 44.348 0.491 7.68 7.92 10.25
12/12/2021 4:45:00 AM 6.77 44.186 0.491 7.68 7.44 10.3
12/12/2021 5:00:00 AM 6.68 44.024 0.491 7.68 7.59 10.33
12/12/2021 5:15:00 AM 6.62 43.916 0.491 7.69 10.27 10.34
12/12/2021 5:30:00 AM 6.55 43.79 0.492 7.69 7.12 10.36
12/12/2021 5:45:00 AM 6.46 43.628 0.492 7.68 7.34 10.39
12/12/2021 6:00:00 AM 6.39 43.502 0.492 7.69 7.74 10.42
12/12/2021 6:15:00 AM 6.33 43.394 0.492 7.69 7.55 10.46
12/12/2021 6:30:00 AM 6.27 43.286 0.492 7.69 7.22 10.47
12/12/2021 6:45:00 AM 6.21 43.178 0.493 7.69 7.61 10.49
12/12/2021 7:00:00 AM 6.15 43.07 0.493 7.69 7.13 10.53
12/12/2021 7:15:00 AM 6.1 42.98 0.493 7.69 7 10.55
12/12/2021 7:30:00 AM 6.05 42.89 0.494 7.69 7.46 10.59
12/12/2021 7:45:00 AM 6 42.8 0.494 7.69 7.71 10.66
12/12/2021 8:00:00 AM 5.95 42.71 0.494 7.69 7.23 10.74
12/12/2021 8:15:00 AM 5.9 42.62 0.494 7.7 7.04 10.84
12/12/2021 8:30:00 AM 5.87 42.566 0.495 7.7 7.43 10.95
12/12/2021 8:45:00 AM 5.84 42.512 0.495 7.7 6.96 11.08
12/12/2021 9:00:00 AM 5.85 42.53 0.495 7.72 7.04 11.27
12/12/2021 9:15:00 AM 5.86 42.548 0.495 7.73 7.23 11.47
12/12/2021 9:30:00 AM 5.88 42.584 0.495 7.75 6.69 11.67
12/12/2021 9:45:00 AM 5.9 42.62 0.495 7.75 7.45 11.86
12/12/2021 10:00:00 AM 5.94 42.692 0.495 7.77 6.88 12.08
12/12/2021 10:15:00 AM 5.98 42.764 0.509 7.78 6.48 12.22
12/12/2021 10:30:00 AM 6.04 42.872 0.5 7.79 8.8 12.41
12/12/2021 10:45:00 AM 6.12 43.016 0.497 7.8 6.47 12.59
12/12/2021 11:00:00 AM 6.19 43.142 0.496 7.81 6.51 12.73
12/12/2021 11:15:00 AM 6.26 43.268 0.495 7.82 6.21 12.88
12/12/2021 11:30:00 AM 6.34 43.412 0.495 7.83 6.04 13.03
12/12/2021 11:45:00 AM 6.43 43.574 0.495 7.86 6.56 13.18
12/12/2021 12:00:00 PM 6.5 43.7 0.495 7.86 6.78 13.3
12/12/2021 12:15:00 PM 6.59 43.862 0.495 7.88 6.11 13.43
12/12/2021 12:30:00 PM 6.66 43.988 0.495 7.89 6.44 13.51
12/12/2021 12:45:00 PM 6.75 44.15 0.495 7.9 7.73 13.61
12/12/2021 1:00:00 PM 6.82 44.276 0.495 7.91 6.59 13.66
12/12/2021 1:15:00 PM 6.9 44.42 0.495 7.91 6.98 13.75
12/12/2021 1:30:00 PM 6.97 44.546 0.495 7.92 6.76 13.79
12/12/2021 1:45:00 PM 7.02 44.636 0.495 7.94 6.86 13.83
12/12/2021 2:00:00 PM 7.06 44.708 0.495 7.95 6.11 13.84
12/12/2021 2:15:00 PM 7.07 44.726 0.495 7.95 8.03 13.81
12/12/2021 2:30:00 PM 7.08 44.744 0.495 7.95 7.05 13.76
12/12/2021 2:45:00 PM 7.07 44.726 0.495 7.95 7.86 13.73
12/12/2021 3:00:00 PM 7.05 44.69 0.495 7.96 7.59 13.67
12/12/2021 3:15:00 PM 7.03 44.654 0.495 7.96 7.14 13.62
12/12/2021 3:30:00 PM 7 44.6 0.495 7.95 7.07 13.53
12/12/2021 3:45:00 PM 6.96 44.528 0.495 7.96 6.26 13.43
12/12/2021 4:00:00 PM 6.92 44.456 0.495 7.95 6.35 13.33
12/12/2021 4:15:00 PM 6.88 44.384 0.495 7.94 6.13 13.19
12/12/2021 4:30:00 PM 6.84 44.312 0.495 7.94 6.57 13.05
12/12/2021 4:45:00 PM 6.8 44.24 0.495 7.94 6.66 12.89
12/12/2021 5:00:00 PM 6.76 44.168 0.496 7.93 7.56 12.74
12/12/2021 5:15:00 PM 6.72 44.096 0.496 7.92 9.43 12.59
12/12/2021 5:30:00 PM 6.67 44.006 0.496 7.91 6.62 12.49
12/12/2021 5:45:00 PM 6.63 43.934 0.496 7.91 7.14 12.37
12/12/2021 6:00:00 PM 6.58 43.844 0.496 7.9 6.54 12.25
12/12/2021 6:15:00 PM 6.54 43.772 0.496 7.89 6.81 12.16
12/12/2021 6:30:00 PM 6.5 43.7 0.496 7.88 7.14 12.1
12/12/2021 6:45:00 PM 6.46 43.628 0.497 7.88 7.2 12.03
12/12/2021 7:00:00 PM 6.42 43.556 0.497 7.88 6.64 11.94
12/12/2021 7:15:00 PM 6.38 43.484 0.497 7.87 7.65 11.87
12/12/2021 7:30:00 PM 6.34 43.412 0.497 7.86 7.13 11.82
12/12/2021 7:45:00 PM 6.3 43.34 0.497 7.85 7.71 11.76
12/12/2021 8:00:00 PM 6.28 43.304 0.497 7.85 6.67 11.69
12/12/2021 8:15:00 PM 6.25 43.25 0.497 7.85 7.47 11.63
12/12/2021 8:30:00 PM 6.22 43.196 0.497 7.84 7.53 11.57
12/12/2021 8:45:00 PM 6.2 43.16 0.497 7.83 8.81 11.51
12/12/2021 9:00:00 PM 6.19 43.142 0.497 7.83 6.16 11.47
12/12/2021 9:15:00 PM 6.17 43.106 0.497 7.82 6.71 11.42
12/12/2021 9:30:00 PM 6.16 43.088 0.497 7.82 8.64 11.39
12/12/2021 9:45:00 PM 6.14 43.052 0.497 7.81 6.7 11.35
12/12/2021 10:00:00 PM 6.12 43.016 0.497 7.81 7.13 11.32
12/12/2021 10:15:00 PM 6.1 42.98 0.497 7.8 6.42 11.29
12/12/2021 10:30:00 PM 6.09 42.962 0.497 7.8 6.52 11.24
12/12/2021 10:45:00 PM 6.06 42.908 0.497 7.81 6.73 11.21
12/12/2021 11:00:00 PM 6.04 42.872 0.497 7.8 6.54 11.17
12/12/2021 11:15:00 PM 6.01 42.818 0.497 7.79 8.2 11.15
12/12/2021 11:30:00 PM 5.99 42.782 0.497 7.78 7.89 11.12
12/12/2021 11:45:00 PM 5.95 42.71 0.497 7.78 6.09 11.09
12/13/2021 12:00:00 AM 5.92 42.656 0.497 7.78 18.03 11.05
12/13/2021 12:15:00 AM 5.89 42.602 0.496 7.77 6.16 11.05
12/13/2021 12:30:00 AM 5.86 42.548 0.497 7.77 6.71 11.03
12/13/2021 12:45:00 AM 5.82 42.476 0.496 7.76 6.92 11.02
12/13/2021 1:00:00 AM 5.79 42.422 0.496 7.76 7.4 11
12/13/2021 1:15:00 AM 5.76 42.368 0.496 7.75 7.08 10.99
12/13/2021 1:30:00 AM 5.73 42.314 0.496 7.75 6.88 10.99
12/13/2021 1:45:00 AM 5.69 42.242 0.496 7.75 6.5 11
12/13/2021 2:00:00 AM 5.66 42.188 0.496 7.75 6.02 10.97
12/13/2021 2:15:00 AM 5.62 42.116 0.496 7.76 6.28 10.99
12/13/2021 2:30:00 AM 5.59 42.062 0.496 7.74 6.59 10.98
12/13/2021 2:45:00 AM 5.56 42.008 0.496 7.75 6.11 11
12/13/2021 3:00:00 AM 5.53 41.954 0.496 7.74 6.9 10.99
12/13/2021 3:15:00 AM 5.51 41.918 0.496 7.74 6.49 11
12/13/2021 3:30:00 AM 5.49 41.882 0.497 7.74 6.56 11.01
12/13/2021 3:45:00 AM 5.46 41.828 0.497 7.74 7.72 11.02
12/13/2021 4:00:00 AM 5.45 41.81 0.497 7.74 6.82 11.01
12/13/2021 4:15:00 AM 5.43 41.774 0.497 7.74 6.98 11.01
12/13/2021 4:30:00 AM 5.4 41.72 0.497 7.74 6.6 11.02
12/13/2021 4:45:00 AM 5.38 41.684 0.497 7.74 6.72 11.03
12/13/2021 5:00:00 AM 5.36 41.648 0.498 7.73 6.87 11.04
12/13/2021 5:15:00 AM 5.34 41.612 0.498 7.73 6.51 11.04
12/13/2021 5:30:00 AM 5.32 41.576 0.498 7.72 7.38 11.04
12/13/2021 5:45:00 AM 5.29 41.522 0.498 7.73 7.29 11.05
12/13/2021 6:00:00 AM 5.27 41.486 0.498 7.72 7.38 11.06
12/13/2021 6:15:00 AM 5.24 41.432 0.499 7.72 7.14 11.07
12/13/2021 6:30:00 AM 5.22 41.396 0.499 7.72 7.34 11.06
12/13/2021 6:45:00 AM 5.18 41.324 0.499 7.71 9.29 11.09
12/13/2021 7:00:00 AM 5.14 41.252 0.5 7.71 7.52 11.08
12/13/2021 7:15:00 AM 5.1 41.18 0.5 7.71 7.24 11.1
12/13/2021 7:30:00 AM 5.06 41.108 0.5 7.71 7.24 11.14
12/13/2021 7:45:00 AM 5.02 41.036 0.5 7.71 7.9 11.18
12/13/2021 8:00:00 AM 4.99 40.982 0.5 7.71 6.76 11.24
12/13/2021 8:15:00 AM 4.96 40.928 0.501 7.71 6.91 11.31
12/13/2021 8:30:00 AM 4.93 40.874 0.501 7.72 7.73 11.41
12/13/2021 8:45:00 AM 4.91 40.838 0.501 7.71 8.01 11.52
12/13/2021 9:00:00 AM 4.92 40.856 0.501 7.72 6.97 11.69
12/13/2021 9:15:00 AM 4.93 40.874 0.501 7.73 6.82 11.88
12/13/2021 9:30:00 AM 4.97 40.946 0.501 7.74 6.8 12.06
12/13/2021 9:45:00 AM 5.03 41.054 0.501 7.75 6.65 12.24
12/13/2021 10:00:00 AM 5.12 41.216 0.501 7.76 6.91 12.43
12/13/2021 10:15:00 AM 5.21 41.378 0.501 7.77 7.15 12.61
12/13/2021 10:30:00 AM 5.32 41.576 0.5 7.78 6.51 12.78
12/13/2021 10:45:00 AM 5.44 41.792 0.5 7.79 7.14 12.92
12/13/2021 11:00:00 AM 5.56 42.008 0.5 7.81 10.1 13.08
12/13/2021 11:15:00 AM 5.69 42.242 0.5 7.82 6.9 13.2
12/13/2021 11:30:00 AM 5.81 42.458 0.5 7.83 6.72 13.33
12/13/2021 11:45:00 AM 5.94 42.692 0.5 7.84 7.37 13.45
12/13/2021 12:00:00 PM 6.07 42.926 0.5 7.85 6.55 13.55
12/13/2021 12:15:00 PM 6.2 43.16 0.499 7.86 7.36 13.65
12/13/2021 12:30:00 PM 6.33 43.394 0.499 7.87 7.51 13.73
12/13/2021 12:45:00 PM 6.46 43.628 0.499 7.87 6.33 13.8
12/13/2021 1:00:00 PM 6.58 43.844 0.499 7.89 7.11 13.87
12/13/2021 1:15:00 PM 6.7 44.06 0.498 7.9 7.01 13.91
12/13/2021 1:30:00 PM 6.81 44.258 0.498 7.91 7.24 13.95
12/13/2021 1:45:00 PM 6.9 44.42 0.498 7.91 6.77 13.99
12/13/2021 2:00:00 PM 6.97 44.546 0.498 7.92 6.92 13.95
12/13/2021 2:15:00 PM 7.03 44.654 0.498 7.92 7.49 13.94
12/13/2021 2:30:00 PM 7.07 44.726 0.498 7.93 8.35 13.88
12/13/2021 2:45:00 PM 7.09 44.762 0.498 7.93 6.59 13.81
12/13/2021 3:00:00 PM 7.11 44.798 0.498 7.93 7.23 13.73
12/13/2021 3:15:00 PM 7.11 44.798 0.497 7.93 6.53 13.67
12/13/2021 3:30:00 PM 7.1 44.78 0.498 7.93 6.63 13.55
12/13/2021 3:45:00 PM 7.08 44.744 0.498 7.93 6.32 13.42
12/13/2021 4:00:00 PM 7.06 44.708 0.498 7.92 6.81 13.3
12/13/2021 4:15:00 PM 7.05 44.69 0.498 7.92 7.32 13.15
12/13/2021 4:30:00 PM 7.01 44.618 0.498 7.91 7.08 13
12/13/2021 4:45:00 PM 6.98 44.564 0.498 7.91 6.97 12.84
12/13/2021 5:00:00 PM 6.94 44.492 0.498 7.9 6.89 12.69
12/13/2021 5:15:00 PM 6.91 44.438 0.498 7.89 7.01 12.54
12/13/2021 5:30:00 PM 6.87 44.366 0.498 7.88 7.37 12.43
12/13/2021 5:45:00 PM 6.82 44.276 0.498 7.87 7.83 12.31
12/13/2021 6:00:00 PM 6.78 44.204 0.498 7.87 8.34 12.21
12/13/2021 6:15:00 PM 6.74 44.132 0.498 7.86 6.64 12.11
12/13/2021 6:30:00 PM 6.71 44.078 0.498 7.85 11.42 12.04
12/13/2021 6:45:00 PM 6.67 44.006 0.498 7.85 8.52 11.96
12/13/2021 7:00:00 PM 6.64 43.952 0.498 7.85 8.26 11.88
12/13/2021 7:15:00 PM 6.61 43.898 0.484 7.85 7.15 11.85
12/13/2021 7:30:00 PM 6.58 43.844 0.448 7.84 6.68 11.75
12/13/2021 7:45:00 PM 6.55 43.79 0.433 7.84 7.66 11.67
12/13/2021 8:00:00 PM 6.53 43.754 0.498 7.83 7.22 11.61
12/13/2021 8:15:00 PM 6.5 43.7 0.459 7.82 8.41 11.52
12/13/2021 8:30:00 PM 6.48 43.664 0.473 7.82 8.3 11.47
12/13/2021 8:45:00 PM 6.46 43.628 0.459 7.81 8.86 11.4
12/13/2021 9:00:00 PM 6.45 43.61 0.486 7.81 8.23 11.35
12/13/2021 9:15:00 PM 6.43 43.574 0.493 7.8 9.84 11.3
12/13/2021 9:30:00 PM 6.42 43.556 0.495 7.8 10.69 11.26
12/13/2021 9:45:00 PM 6.4 43.52 0.498 7.8 10.5 11.22
12/13/2021 10:00:00 PM 6.39 43.502 0.498 7.79 9.83 11.18
12/13/2021 10:15:00 PM 6.37 43.466 0.498 7.79 9.8 11.14
12/13/2021 10:30:00 PM 6.36 43.448 0.498 7.78 9.55 11.1
12/13/2021 10:45:00 PM 6.35 43.43 0.498 7.78 11.14 11.06
12/13/2021 11:00:00 PM 6.34 43.412 0.497 7.78 12.57 11.03
12/13/2021 11:15:00 PM 6.33 43.394 0.497 7.78 10.4 10.99
12/13/2021 11:30:00 PM 6.33 43.394 0.497 7.78 10.09 10.95
12/13/2021 11:45:00 PM 6.33 43.394 0.497 7.77 10.53 10.93
12/14/2021 12:00:00 AM 6.32 43.376 0.497 7.76 11.64 10.9
12/14/2021 12:15:00 AM 6.31 43.358 0.497 7.77 9.75 10.87
12/14/2021 12:30:00 AM 6.3 43.34 0.497 7.76 11.73 10.85
12/14/2021 12:45:00 AM 6.29 43.322 0.497 7.76 12.94 10.83
12/14/2021 1:00:00 AM 6.27 43.286 0.496 7.75 14.98 10.81
12/14/2021 1:15:00 AM 6.26 43.268 0.496 7.75 14.09 10.82
12/14/2021 1:30:00 AM 6.24 43.232 0.496 7.75 10.3 10.8
12/14/2021 1:45:00 AM 6.22 43.196 0.496 7.75 14.46 10.8
12/14/2021 2:00:00 AM 6.21 43.178 0.496 7.74 10.28 10.78
12/14/2021 2:15:00 AM 6.19 43.142 0.496 7.73 15.18 10.76
12/14/2021 2:30:00 AM 6.18 43.124 0.496 7.73 9.78 10.76
12/14/2021 2:45:00 AM 6.15 43.07 0.496 7.73 12.21 10.77
12/14/2021 3:00:00 AM 6.13 43.034 0.496 7.73 13.86 10.77
12/14/2021 3:15:00 AM 6.11 42.998 0.496 7.73 10.95 10.77
12/14/2021 3:30:00 AM 6.09 42.962 0.497 7.73 12.78 10.76
12/14/2021 3:45:00 AM 6.07 42.926 0.497 7.72 17.4 10.78
12/14/2021 4:00:00 AM 6.04 42.872 0.497 7.73 11.17 10.78
12/14/2021 4:15:00 AM 6.01 42.818 0.498 7.72 11.97 10.78
12/14/2021 4:30:00 AM 5.98 42.764 0.498 7.72 15.44 10.78
12/14/2021 4:45:00 AM 5.96 42.728 0.498 7.72 12.74 10.79
12/14/2021 5:00:00 AM 5.93 42.674 0.498 7.71 10.74 10.79
12/14/2021 5:15:00 AM 5.9 42.62 0.499 7.72 12.4 10.81
12/14/2021 5:30:00 AM 5.87 42.566 0.499 7.71 17.23 10.8
12/14/2021 5:45:00 AM 5.84 42.512 0.499 7.71 11.18 10.8
12/14/2021 6:00:00 AM 5.8 42.44 0.499 7.7 14.98 10.81
12/14/2021 6:15:00 AM 5.76 42.368 0.499 7.71 12.59 10.83
12/14/2021 6:30:00 AM 5.73 42.314 0.499 7.7 15.52 10.83
12/14/2021 6:45:00 AM 5.69 42.242 0.5 7.7 13.46 10.85
12/14/2021 7:00:00 AM 5.65 42.17 0.5 7.7 13.08 10.85
12/14/2021 7:15:00 AM 5.62 42.116 0.5 7.7 15.33 10.88
12/14/2021 7:30:00 AM 5.58 42.044 0.5 7.69 18.29 10.9
12/14/2021 7:45:00 AM 5.55 41.99 0.5 7.69 15.95 10.94
12/14/2021 8:00:00 AM 5.52 41.936 0.5 7.7 15.61 11.02
12/14/2021 8:15:00 AM 5.49 41.882 0.501 7.7 19.62 11.11
12/14/2021 8:30:00 AM 5.47 41.846 0.501 7.7 16.5 11.19
12/14/2021 8:45:00 AM 5.45 41.81 0.501 7.72 9.97 11.3
12/14/2021 9:00:00 AM 5.46 41.828 0.501 7.71 12.21 11.48
12/14/2021 9:15:00 AM 5.49 41.882 0.501 7.72 13.03 11.69
12/14/2021 9:30:00 AM 5.53 41.954 0.501 7.73 12.51 11.89
12/14/2021 9:45:00 AM 5.6 42.08 0.501 7.75 11.72 12.06
12/14/2021 10:00:00 AM 5.67 42.206 0.501 7.75 12.66 12.27
12/14/2021 10:15:00 AM 5.77 42.386 0.501 7.77 19.56 12.46
12/14/2021 10:30:00 AM 5.89 42.602 0.501 7.78 22.11 12.65
12/14/2021 10:45:00 AM 6.01 42.818 0.5 7.79 18.64 12.82
12/14/2021 11:00:00 AM 6.14 43.052 0.5 7.8 20 12.96
12/14/2021 11:15:00 AM 6.27 43.286 0.5 7.81 15.47 13.12
12/14/2021 11:30:00 AM 6.4 43.52 0.5 7.83 16.3 13.25
12/14/2021 11:45:00 AM 6.53 43.754 0.5 7.84 11.49 13.37
12/14/2021 12:00:00 PM 6.67 44.006 0.5 7.86 12.9 13.49
12/14/2021 12:15:00 PM 6.79 44.222 0.5 7.86 15.52 13.58
12/14/2021 12:30:00 PM 6.92 44.456 0.5 7.87 12.87 13.69
12/14/2021 12:45:00 PM 7.05 44.69 0.5 7.89 14.19 13.77
12/14/2021 1:00:00 PM 7.17 44.906 0.5 7.89 10.86 13.83
12/14/2021 1:15:00 PM 7.29 45.122 0.5 7.9 13.24 13.9
12/14/2021 1:30:00 PM 7.39 45.302 0.5 7.91 12.58 13.94
12/14/2021 1:45:00 PM 7.48 45.464 0.5 7.92 17.44 13.95
12/14/2021 2:00:00 PM 7.57 45.626 0.499 7.93 24.25 13.97
12/14/2021 2:15:00 PM 7.62 45.716 0.499 7.94 19.42 13.94
12/14/2021 2:30:00 PM 7.66 45.788 0.499 7.94 15.69 13.85
12/14/2021 2:45:00 PM 7.68 45.824 0.499 7.95 13.53 13.81
12/14/2021 3:00:00 PM 7.69 45.842 0.499 7.94 19.55 13.71
12/14/2021 3:15:00 PM 7.69 45.842 0.499 7.94 22.1 13.63
12/14/2021 3:30:00 PM 7.68 45.824 0.499 7.94 15.34 13.52
12/14/2021 3:45:00 PM 7.66 45.788 0.499 7.93 19.07 13.41
12/14/2021 4:00:00 PM 7.65 45.77 0.499 7.94 12.56 13.3
12/14/2021 4:15:00 PM 7.62 45.716 0.499 7.93 15.08 13.16
12/14/2021 4:30:00 PM 7.59 45.662 0.499 7.92 14.11 13.01
12/14/2021 4:45:00 PM 7.55 45.59 0.498 7.91 25.2 12.85
12/14/2021 5:00:00 PM 7.51 45.518 0.499 7.91 17.67 12.66
12/14/2021 5:15:00 PM 7.46 45.428 0.499 7.9 17.26 12.51
12/14/2021 5:30:00 PM 7.42 45.356 0.499 7.89 17.65 12.37
12/14/2021 5:45:00 PM 7.37 45.266 0.499 7.89 15.95 12.23
12/14/2021 6:00:00 PM 7.34 45.212 0.499 7.87 15.73 12.11
12/14/2021 6:15:00 PM 7.3 45.14 0.499 7.87 16.31 12.02
12/14/2021 6:30:00 PM 7.27 45.086 0.499 7.87 17.25 11.94
12/14/2021 6:45:00 PM 7.24 45.032 0.499 7.86 16.22 11.85
12/14/2021 7:00:00 PM 7.21 44.978 0.498 7.85 20.28 11.8
12/14/2021 7:15:00 PM 7.18 44.924 0.498 7.85 14.55 11.72
12/14/2021 7:30:00 PM 7.14 44.852 0.498 7.85 17.14 11.64
12/14/2021 7:45:00 PM 7.11 44.798 0.498 7.84 15.29 11.57
12/14/2021 8:00:00 PM 7.08 44.744 0.498 7.83 12.96 11.49
12/14/2021 8:15:00 PM 7.04 44.672 0.498 7.83 16.55 11.45
12/14/2021 8:30:00 PM 7 44.6 0.498 7.83 15.11 11.38
12/14/2021 8:45:00 PM 6.97 44.546 0.498 7.82 11.74 11.31
12/14/2021 9:00:00 PM 6.95 44.51 0.499 7.81 13.69 11.27
12/14/2021 9:15:00 PM 6.92 44.456 0.498 7.81 17.88 11.21
12/14/2021 9:30:00 PM 6.9 44.42 0.498 7.8 18.67 11.18
12/14/2021 9:45:00 PM 6.87 44.366 0.498 7.8 14.9 11.14
12/14/2021 10:00:00 PM 6.85 44.33 0.498 7.79 19.22 11.1
12/14/2021 10:15:00 PM 6.82 44.276 0.498 7.79 20.19 11.07
12/14/2021 10:30:00 PM 6.79 44.222 0.498 7.79 20.24 11.01
12/14/2021 10:45:00 PM 6.76 44.168 0.499 7.78 20.78 11
12/14/2021 11:00:00 PM 6.73 44.114 0.498 7.78 14.59 10.97
12/14/2021 11:15:00 PM 6.7 44.06 0.498 7.77 17.04 10.91
12/14/2021 11:30:00 PM 6.67 44.006 0.498 7.77 20.03 10.91
12/14/2021 11:45:00 PM 6.63 43.934 0.498 7.77 17.38 10.86
12/15/2021 12:00:00 AM 6.6 43.88 0.499 7.76 21.05 10.86
12/15/2021 12:15:00 AM 6.56 43.808 0.499 7.75 18.15 10.83
12/15/2021 12:30:00 AM 6.52 43.736 0.499 7.75 12.69 10.8
12/15/2021 12:45:00 AM 6.48 43.664 0.499 7.75 19.45 10.79
12/15/2021 1:00:00 AM 6.44 43.592 0.499 7.75 17.67 10.77
12/15/2021 1:15:00 AM 6.4 43.52 0.498 7.74 17.98 10.77
12/15/2021 1:30:00 AM 6.37 43.466 0.498 7.74 19.93 10.74
12/15/2021 1:45:00 AM 6.33 43.394 0.498 7.74 21.05 10.74
12/15/2021 2:00:00 AM 6.29 43.322 0.498 7.73 24.14 10.74
12/15/2021 2:15:00 AM 6.25 43.25 0.498 7.73 19.3 10.74
12/15/2021 2:30:00 AM 6.21 43.178 0.498 7.73 23.56 10.75
12/15/2021 2:45:00 AM 6.17 43.106 0.498 7.73 25.5 10.75
12/15/2021 3:00:00 AM 6.14 43.052 0.498 7.73 24.99 10.76
12/15/2021 3:15:00 AM 6.1 42.98 0.498 7.72 22.09 10.77
12/15/2021 3:30:00 AM 6.07 42.926 0.499 7.72 25.14 10.77
12/15/2021 3:45:00 AM 6.02 42.836 0.499 7.72 20.99 10.79
12/15/2021 4:00:00 AM 5.98 42.764 0.499 7.72 23.95 10.79
12/15/2021 4:15:00 AM 5.94 42.692 0.499 7.72 24.88 10.8
12/15/2021 4:30:00 AM 5.89 42.602 0.499 7.71 23.05 10.78
12/15/2021 4:45:00 AM 5.85 42.53 0.499 7.72 25.95 10.81
12/15/2021 5:00:00 AM 5.8 42.44 0.5 7.72 20.34 10.82
12/15/2021 5:15:00 AM 5.75 42.35 0.5 7.71 31.15 10.82
12/15/2021 5:30:00 AM 5.71 42.278 0.5 7.71 25.27 10.85
12/15/2021 5:45:00 AM 5.66 42.188 0.5 7.71 26.24 10.87
12/15/2021 6:00:00 AM 5.62 42.116 0.5 7.71 23.38 10.87
12/15/2021 6:15:00 AM 5.58 42.044 0.501 7.71 23.59 10.89
12/15/2021 6:30:00 AM 5.54 41.972 0.501 7.71 23.58 10.91
12/15/2021 6:45:00 AM 5.51 41.918 0.501 7.7 21.47 10.93
12/15/2021 7:00:00 AM 5.47 41.846 0.501 7.7 20.17 10.95
12/15/2021 7:15:00 AM 5.44 41.792 0.501 7.7 26.03 10.94
12/15/2021 7:30:00 AM 5.42 41.756 0.502 7.7 23.2 10.99
12/15/2021 7:45:00 AM 5.4 41.72 0.502 7.7 25.66 11.05
12/15/2021 8:00:00 AM 5.39 41.702 0.502 7.7 22.17 11.15
12/15/2021 8:15:00 AM 5.39 41.702 0.502 7.7 23.06 11.28
12/15/2021 8:30:00 AM 5.4 41.72 0.502 7.71 22.75 11.43
12/15/2021 8:45:00 AM 5.42 41.756 0.502 7.71 23.19 11.64
12/15/2021 9:00:00 AM 5.47 41.846 0.502 7.72 22.49 11.84
12/15/2021 9:15:00 AM 5.53 41.954 0.502 7.74 24.52 12.06
12/15/2021 9:30:00 AM 5.56 42.008 0.502 7.75 22.66 12.21
12/15/2021 9:45:00 AM 5.62 42.116 0.502 7.76 21.62 12.4
12/15/2021 10:00:00 AM 5.74 42.332 0.501 7.77 26.14 12.66
12/15/2021 10:15:00 AM 5.82 42.476 0.501 7.79 27.71 12.85
12/15/2021 10:30:00 AM 5.92 42.656 0.501 7.8 26.45 12.98
12/15/2021 10:45:00 AM 6.01 42.818 0.501 7.8 20.96 13.11
12/15/2021 11:00:00 AM 6.1 42.98 0.501 7.82 26.59 13.26
12/15/2021 11:15:00 AM 6.22 43.196 0.501 7.83 25.19 13.45
12/15/2021 11:30:00 AM 6.33 43.394 0.501 7.84 20.47 13.52
12/15/2021 11:45:00 AM 6.42 43.556 0.501 7.85 25.5 13.63
12/15/2021 12:00:00 PM 6.51 43.718 0.5 7.88 28.92 13.75
12/15/2021 12:15:00 PM 6.62 43.916 0.5 7.88 23.6 13.86
12/15/2021 12:30:00 PM 6.7 44.06 0.5 7.89 24.53 13.9
12/15/2021 12:45:00 PM 6.79 44.222 0.5 7.89 27.85 13.98
12/15/2021 1:00:00 PM 6.87 44.366 0.5 7.9 24.16 14.04
12/15/2021 1:15:00 PM 6.96 44.528 0.5 7.92 24.45 14.1
12/15/2021 1:30:00 PM 7.03 44.654 0.5 7.92 22.51 14.11
12/15/2021 1:45:00 PM 7.1 44.78 0.499 7.93 26.35 14.12
12/15/2021 2:00:00 PM 7.16 44.888 0.499 7.93 23.72 14.07
12/15/2021 2:15:00 PM 7.22 44.996 0.499 7.94 27.53 14.07
12/15/2021 2:30:00 PM 7.25 45.05 0.499 7.94 24.46 13.95
12/15/2021 2:45:00 PM 7.27 45.086 0.499 7.94 28.43 13.82
12/15/2021 3:00:00 PM 7.3 45.14 0.499 7.93 27.47 13.65
12/15/2021 3:15:00 PM 7.3 45.14 0.5 7.94 25.32 13.49
12/15/2021 3:30:00 PM 7.31 45.158 0.5 7.93 25.9 13.31
12/15/2021 3:45:00 PM 7.31 45.158 0.5 7.92 26.64 13.1
12/15/2021 4:00:00 PM 7.32 45.176 0.5 7.91 30.17 12.92
12/15/2021 4:15:00 PM 7.32 45.176 0.5 7.9 22.88 12.77
12/15/2021 4:30:00 PM 7.33 45.194 0.5 7.89 22.08 12.6
12/15/2021 4:45:00 PM 7.34 45.212 0.5 7.88 27.54 12.47
12/15/2021 5:00:00 PM 7.36 45.248 0.5 7.88 24.81 12.33
12/15/2021 5:15:00 PM 7.38 45.284 0.5 7.87 24.69 12.18
12/15/2021 5:30:00 PM 7.4 45.32 0.5 7.86 26.12 12.08
12/15/2021 5:45:00 PM 7.42 45.356 0.5 7.86 27.74 11.97
12/15/2021 6:00:00 PM 7.45 45.41 0.5 7.85 27.09 11.85
12/15/2021 6:15:00 PM 7.47 45.446 0.5 7.84 28.67 11.76
12/15/2021 6:30:00 PM 7.49 45.482 0.5 7.84 27 11.69
12/15/2021 6:45:00 PM 7.52 45.536 0.5 7.82 27.43 11.59
12/15/2021 7:00:00 PM 7.54 45.572 0.5 7.82 25.05 11.49
12/15/2021 7:15:00 PM 7.56 45.608 0.5 7.82 31.15 11.41
12/15/2021 7:30:00 PM 7.58 45.644 0.5 7.81 28.5 11.35
12/15/2021 7:45:00 PM 7.59 45.662 0.5 7.8 30.59 11.26
12/15/2021 8:00:00 PM 7.61 45.698 0.5 7.8 27.59 11.2
12/15/2021 8:15:00 PM 7.63 45.734 0.5 7.8 25.78 11.14
12/15/2021 8:30:00 PM 7.66 45.788 0.5 7.79 30.95 11.07
12/15/2021 8:45:00 PM 7.68 45.824 0.5 7.79 29.62 11
12/15/2021 9:00:00 PM 7.69 45.842 0.5 7.79 25.41 10.95
12/15/2021 9:15:00 PM 7.71 45.878 0.5 7.78 28.28 10.9
12/15/2021 9:30:00 PM 7.73 45.914 0.5 7.78 25.78 10.83
12/15/2021 9:45:00 PM 7.74 45.932 0.5 7.77 23.22 10.78
12/15/2021 10:00:00 PM 7.76 45.968 0.5 7.77 22.28 10.73
12/15/2021 10:15:00 PM 7.77 45.986 0.5 7.77 25.79 10.66
12/15/2021 10:30:00 PM 7.78 46.004 0.5 7.76 27.99 10.62
12/15/2021 10:45:00 PM 7.79 46.022 0.5 7.76 26.23 10.56
12/15/2021 11:00:00 PM 7.79 46.022 0.499 7.75 32.67 10.52
12/15/2021 11:15:00 PM 7.79 46.022 0.499 7.74 27.75 10.46
12/15/2021 11:30:00 PM 7.79 46.022 0.499 7.74 26.33 10.43
12/15/2021 11:45:00 PM 7.78 46.004 0.499 7.74 30.28 10.38
12/16/2021 12:00:00 AM 7.78 46.004 0.499 7.73 28.88 10.35
12/16/2021 12:15:00 AM 7.79 46.022 0.499 7.73 25.29 10.32
12/16/2021 12:30:00 AM 7.8 46.04 0.498 7.72 24.85 10.28
12/16/2021 12:45:00 AM 7.81 46.058 0.498 7.72 22.33 10.26
12/16/2021 1:00:00 AM 7.82 46.076 0.498 7.72 28.05 10.23
12/16/2021 1:15:00 AM 7.83 46.094 0.497 7.71 24.15 10.21
12/16/2021 1:30:00 AM 7.84 46.112 0.497 7.71 24.7 10.17
12/16/2021 1:45:00 AM 7.84 46.112 0.497 7.7 23.14 10.16
12/16/2021 2:00:00 AM 7.84 46.112 0.497 7.71 21.49 10.13
12/16/2021 2:15:00 AM 7.84 46.112 0.496 7.7 23.82 10.13
12/16/2021 2:30:00 AM 7.85 46.13 0.496 7.7 23.73 10.1
12/16/2021 2:45:00 AM 7.85 46.13 0.496 7.7 24.78 10.1
12/16/2021 3:00:00 AM 7.84 46.112 0.496 7.69 23.77 10.07
12/16/2021 3:15:00 AM 7.84 46.112 0.496 7.7 23.99 10.07
12/16/2021 3:30:00 AM 7.84 46.112 0.497 7.7 27.35 10.06
12/16/2021 3:45:00 AM 7.84 46.112 0.497 7.69 24.17 10.05
12/16/2021 4:00:00 AM 7.84 46.112 0.497 7.68 34.26 10.05
12/16/2021 4:15:00 AM 7.84 46.112 0.498 7.68 24.65 10.04
12/16/2021 4:30:00 AM 7.83 46.094 0.498 7.69 23.57 10.03
12/16/2021 4:45:00 AM 7.82 46.076 0.498 7.69 25.47 10.02
12/16/2021 5:00:00 AM 7.8 46.04 0.499 7.68 24.54 10
12/16/2021 5:15:00 AM 7.76 45.968 0.499 7.68 22.87 10.01
12/16/2021 5:30:00 AM 7.73 45.914 0.499 7.68 30.03 10.02
12/16/2021 5:45:00 AM 7.71 45.878 0.499 7.68 26.3 10.02
12/16/2021 6:00:00 AM 7.69 45.842 0.499 7.67 25.85 10.02
12/16/2021 6:15:00 AM 7.66 45.788 0.499 7.67 30.44 10.02
12/16/2021 6:30:00 AM 7.64 45.752 0.499 7.67 30.36 10.02
12/16/2021 6:45:00 AM 7.62 45.716 0.499 7.67 28.1 10.01
12/16/2021 7:00:00 AM 7.58 45.644 0.5 7.67 30.16 10.03
12/16/2021 7:15:00 AM 7.55 45.59 0.5 7.66 29.3 10.02
12/16/2021 7:30:00 AM 7.51 45.518 0.5 7.67 29 10.05
12/16/2021 7:45:00 AM 7.48 45.464 0.5 7.67 28.68 10.09
12/16/2021 8:00:00 AM 7.46 45.428 0.501 7.68 26.78 10.15
12/16/2021 8:15:00 AM 7.44 45.392 0.501 7.67 29.59 10.25
12/16/2021 8:30:00 AM 7.43 45.374 0.501 7.68 27.34 10.41
12/16/2021 8:45:00 AM 7.43 45.374 0.502 7.69 29.44 10.57
12/16/2021 9:00:00 AM 7.45 45.41 0.502 7.69 28.09 10.78
12/16/2021 9:15:00 AM 7.49 45.482 0.502 7.71 28.81 11
12/16/2021 9:30:00 AM 7.53 45.554 0.502 7.71 28.94 11.21
12/16/2021 9:45:00 AM 7.59 45.662 0.502 7.73 29.39 11.45
12/16/2021 10:00:00 AM 7.66 45.788 0.502 7.74 26.7 11.63
12/16/2021 10:15:00 AM 7.75 45.95 0.502 7.76 29.13 11.86
12/16/2021 10:30:00 AM 7.85 46.13 0.502 7.77 32.85 12.04
12/16/2021 10:45:00 AM 7.95 46.31 0.502 7.78 29.53 12.2
12/16/2021 11:00:00 AM 8.07 46.526 0.501 7.8 32.14 12.4
12/16/2021 11:15:00 AM 8.22 46.796 0.501 7.81 32.79 12.6
12/16/2021 11:30:00 AM 8.35 47.03 0.501 7.83 33.92 12.72
12/16/2021 11:45:00 AM 8.47 47.246 0.501 7.84 31.46 12.91
12/16/2021 12:00:00 PM 8.68 47.624 0.5 7.85 31.69 13.15
12/16/2021 12:15:00 PM 8.82 47.876 0.5 7.87 32.47 13.3
12/16/2021 12:30:00 PM 8.95 48.11 0.5 7.89 28.66 13.41
12/16/2021 12:45:00 PM 9.09 48.362 0.499 7.9 29.63 13.52
12/16/2021 1:00:00 PM 9.21 48.578 0.499 7.91 30.36 13.56
12/16/2021 1:15:00 PM 9.33 48.794 0.499 7.92 28.53 13.58
12/16/2021 1:30:00 PM 9.45 49.01 0.498 7.94 30.52 13.62
12/16/2021 1:45:00 PM 9.53 49.154 0.498 7.94 30.28 13.58
12/16/2021 2:00:00 PM 9.6 49.28 0.498 7.95 28.03 13.51
12/16/2021 2:15:00 PM 9.7 49.46 0.498 7.95 35.13 13.5
12/16/2021 2:30:00 PM 9.76 49.568 0.498 7.95 34.23 13.4
12/16/2021 2:45:00 PM 9.83 49.694 0.498 7.95 31.82 13.28
12/16/2021 3:00:00 PM 9.87 49.766 0.498 7.95 32.47 13.22
12/16/2021 3:15:00 PM 9.91 49.838 0.499 7.95 31.57 12.98
12/16/2021 3:30:00 PM 9.93 49.874 0.499 7.94 33.06 12.82
12/16/2021 3:45:00 PM 9.94 49.892 0.498 7.93 36.67 12.69
12/16/2021 4:00:00 PM 9.95 49.91 0.498 7.92 33.45 12.55
12/16/2021 4:15:00 PM 9.96 49.928 0.499 7.92 32.41 12.35
12/16/2021 4:30:00 PM 9.97 49.946 0.498 7.92 31.83 12.14
12/16/2021 4:45:00 PM 9.98 49.964 0.498 7.91 29.94 11.95
12/16/2021 5:00:00 PM 10 50 0.498 7.9 31.08 11.74
12/16/2021 5:15:00 PM 10.01 50.018 0.498 7.88 35.41 11.53
12/16/2021 5:30:00 PM 10.02 50.036 0.498 7.88 31.76 11.36
12/16/2021 5:45:00 PM 10.04 50.072 0.498 7.87 32.23 11.2
12/16/2021 6:00:00 PM 10.05 50.09 0.498 7.86 37.86 11.08
12/16/2021 6:15:00 PM 10.06 50.108 0.498 7.85 32.5 10.94
12/16/2021 6:30:00 PM 10.07 50.126 0.498 7.84 33.74 10.86
12/16/2021 6:45:00 PM 10.08 50.144 0.498 7.84 35.1 10.74
12/16/2021 7:00:00 PM 10.09 50.162 0.497 7.83 34.47 10.64
12/16/2021 7:15:00 PM 10.09 50.162 0.497 7.83 38.54 10.58
12/16/2021 7:30:00 PM 10.1 50.18 0.497 7.82 30.86 10.48
12/16/2021 7:45:00 PM 10.11 50.198 0.497 7.81 34.58 10.4
12/16/2021 8:00:00 PM 10.12 50.216 0.497 7.8 31.86 10.3
12/16/2021 8:15:00 PM 10.14 50.252 0.497 7.8 36.92 10.23
12/16/2021 8:30:00 PM 10.17 50.306 0.497 7.79 39.56 10.13
12/16/2021 8:45:00 PM 10.2 50.36 0.497 7.79 36.58 10.06
12/16/2021 9:00:00 PM 10.24 50.432 0.496 7.78 35.38 9.99
12/16/2021 9:15:00 PM 10.3 50.54 0.496 7.77 34.14 9.91
12/16/2021 9:30:00 PM 10.36 50.648 0.497 7.77 34.09 9.85
12/16/2021 9:45:00 PM 10.43 50.774 0.497 7.76 39.69 9.8
12/16/2021 10:00:00 PM 10.49 50.882 0.496 7.77 43.61 9.73
12/16/2021 10:15:00 PM 10.55 50.99 0.497 7.75 39.21 9.67
12/16/2021 10:30:00 PM 10.61 51.098 0.497 7.75 41.1 9.61
12/16/2021 10:45:00 PM 10.66 51.188 0.497 7.74 44.53 9.55
12/16/2021 11:00:00 PM 10.71 51.278 0.497 7.74 42.61 9.47
12/16/2021 11:15:00 PM 10.75 51.35 0.497 7.74 36.9 9.43
12/16/2021 11:30:00 PM 10.79 51.422 0.497 7.73 50.67 9.35
12/16/2021 11:45:00 PM 10.83 51.494 0.497 7.72 40.52 9.31
12/17/2021 12:00:00 AM 10.87 51.566 0.497 7.71 44.37 9.25
12/17/2021 12:15:00 AM 10.9 51.62 0.497 7.71 40.26 9.21
12/17/2021 12:30:00 AM 10.93 51.674 0.497 7.71 47.08 9.16
12/17/2021 12:45:00 AM 10.95 51.71 0.496 7.7 41.58 9.12
12/17/2021 1:00:00 AM 10.93 51.674 0.496 7.7 46.21 9.08
12/17/2021 1:15:00 AM 10.9 51.62 0.496 7.7 43.45 9.06
12/17/2021 1:30:00 AM 10.86 51.548 0.496 7.7 46.67 9.03
12/17/2021 1:45:00 AM 10.79 51.422 0.496 7.69 38.69 9.04
12/17/2021 2:00:00 AM 10.7 51.26 0.496 7.69 44.21 9.03
12/17/2021 2:15:00 AM 10.62 51.116 0.496 7.69 46 9.03
12/17/2021 2:30:00 AM 10.55 50.99 0.496 7.69 58.32 9
12/17/2021 2:45:00 AM 10.48 50.864 0.496 7.69 45.69 9.01
12/17/2021 3:00:00 AM 10.42 50.756 0.496 7.69 47 9.01
12/17/2021 3:15:00 AM 10.36 50.648 0.496 7.69 53.56 9.03
12/17/2021 3:30:00 AM 10.29 50.522 0.496 7.68 47.76 9.03
12/17/2021 3:45:00 AM 10.24 50.432 0.496 7.69 51.44 9.04
12/17/2021 4:00:00 AM 10.17 50.306 0.497 7.69 49.02 9.05
12/17/2021 4:15:00 AM 10.11 50.198 0.497 7.68 49.46 9.05
12/17/2021 4:30:00 AM 10.04 50.072 0.497 7.69 50.1 9.08
12/17/2021 4:45:00 AM 9.97 49.946 0.497 7.68 46.36 9.07
12/17/2021 5:00:00 AM 9.9 49.82 0.497 7.68 41.61 9.09
12/17/2021 5:15:00 AM 9.83 49.694 0.498 7.68 53.41 9.09
12/17/2021 5:30:00 AM 9.75 49.55 0.498 7.68 52.33 9.09
12/17/2021 5:45:00 AM 9.68 49.424 0.498 7.68 52.22 9.13
12/17/2021 6:00:00 AM 9.61 49.298 0.498 7.68 47.49 9.13
12/17/2021 6:15:00 AM 9.54 49.172 0.499 7.68 54.36 9.15
12/17/2021 6:30:00 AM 9.48 49.064 0.499 7.68 48.84 9.17
12/17/2021 6:45:00 AM 9.4 48.92 0.499 7.67 49.59 9.2
12/17/2021 7:00:00 AM 9.33 48.794 0.499 7.67 58 9.21
12/17/2021 7:15:00 AM 9.27 48.686 0.5 7.68 52.75 9.23
12/17/2021 7:30:00 AM 9.2 48.56 0.5 7.67 48.82 9.27
12/17/2021 7:45:00 AM 9.14 48.452 0.5 7.67 45.85 9.32
12/17/2021 8:00:00 AM 9.08 48.344 0.5 7.68 50.64 9.4
12/17/2021 8:15:00 AM 9.03 48.254 0.5 7.68 59.24 9.51
12/17/2021 8:30:00 AM 8.99 48.182 0.501 7.69 51.17 9.64
12/17/2021 8:45:00 AM 8.94 48.092 0.501 7.69 50.53 9.8
12/17/2021 9:00:00 AM 8.91 48.038 0.501 7.7 57.65 9.96
12/17/2021 9:15:00 AM 8.88 47.984 0.501 7.71 56.09 10.16
12/17/2021 9:30:00 AM 8.85 47.93 0.501 7.72 55.33 10.32
12/17/2021 9:45:00 AM 8.82 47.876 0.501 7.72 56.91 10.55
12/17/2021 10:00:00 AM 8.82 47.876 0.501 7.74 53.75 10.84
12/17/2021 10:15:00 AM 8.85 47.93 0.501 7.76 53.66 11.11
12/17/2021 10:30:00 AM 8.87 47.966 0.501 7.78 53.79 11.37
12/17/2021 10:45:00 AM 8.88 47.984 0.501 7.79 54.82 11.56
12/17/2021 11:00:00 AM 8.89 48.002 0.501 7.8 56.48 11.77
12/17/2021 11:15:00 AM 8.9 48.02 0.501 7.82 37.82 11.84
12/17/2021 11:30:00 AM 8.92 48.056 0.502 7.82 49.69 11.77
12/17/2021 11:45:00 AM 8.95 48.11 0.502 7.82 51.38 11.86
12/17/2021 12:00:00 PM 8.98 48.164 0.501 7.83 62.93 12.01
12/17/2021 12:15:00 PM 9 48.2 0.501 7.84 59.48 12.16
12/17/2021 12:30:00 PM 9.02 48.236 0.501 7.85 55.23 12.32
12/17/2021 12:45:00 PM 9.06 48.308 0.501 7.86 49.95 12.49
12/17/2021 1:00:00 PM 9.08 48.344 0.5 7.88 55.05 12.6
12/17/2021 1:15:00 PM 9.1 48.38 0.5 7.89 59 12.72
12/17/2021 1:30:00 PM 9.15 48.47 0.5 7.9 61.4 12.88
12/17/2021 1:45:00 PM 9.16 48.488 0.5 7.92 56.71 12.98
12/17/2021 2:00:00 PM 9.18 48.524 0.499 7.93 55.91 13.09
12/17/2021 2:15:00 PM 9.19 48.542 0.499 7.93 52.71 13.15
12/17/2021 2:30:00 PM 9.2 48.56 0.499 7.95 54.55 13.15
12/17/2021 2:45:00 PM 9.18 48.524 0.499 7.95 61.1 13.02
12/17/2021 3:00:00 PM 9.15 48.47 0.499 7.95 58.28 12.98
12/17/2021 3:15:00 PM 9.12 48.416 0.499 7.95 68.63 12.91
12/17/2021 3:30:00 PM 9.08 48.344 0.499 7.95 58.71 12.85
12/17/2021 3:45:00 PM 9.03 48.254 0.499 7.95 52.62 12.73
12/17/2021 4:00:00 PM 8.97 48.146 0.499 7.95 47.16 12.59
12/17/2021 4:15:00 PM 8.91 48.038 0.499 7.94 60.78 12.45
12/17/2021 4:30:00 PM 8.86 47.948 0.499 7.93 56.43 12.27
12/17/2021 4:45:00 PM 8.8 47.84 0.5 7.92 57.9 12.12
12/17/2021 5:00:00 PM 8.76 47.768 0.5 7.91 64.67 11.95
12/17/2021 5:15:00 PM 8.71 47.678 0.5 7.89 66.03 11.8
12/17/2021 5:30:00 PM 8.66 47.588 0.5 7.89 67.85 11.66
12/17/2021 5:45:00 PM 8.62 47.516 0.5 7.88 78.23 11.54
12/17/2021 6:00:00 PM 8.58 47.444 0.5 7.87 78.53 11.43
12/17/2021 6:15:00 PM 8.54 47.372 0.5 7.86 65.2 11.32
12/17/2021 6:30:00 PM 8.5 47.3 0.5 7.85 62.06 11.24
12/17/2021 6:45:00 PM 8.46 47.228 0.5 7.85 70.52 11.19
12/17/2021 7:00:00 PM 8.43 47.174 0.5 7.84 80.51 11.1
12/17/2021 7:15:00 PM 8.39 47.102 0.5 7.83 77.09 11.04
12/17/2021 7:30:00 PM 8.36 47.048 0.5 7.82 68.3 10.97
12/17/2021 7:45:00 PM 8.34 47.012 0.5 7.82 68.02 10.93
12/17/2021 8:00:00 PM 8.31 46.958 0.5 7.82 71.21 10.86
12/17/2021 8:15:00 PM 8.29 46.922 0.501 7.81 64.6 10.8
12/17/2021 8:30:00 PM 8.27 46.886 0.501 7.81 74.27 10.74
12/17/2021 8:45:00 PM 8.24 46.832 0.501 7.81 72.67 10.69
12/17/2021 9:00:00 PM 8.22 46.796 0.501 7.8 75.76 10.67
12/17/2021 9:15:00 PM 8.2 46.76 0.501 7.8 80.82 10.62
12/17/2021 9:30:00 PM 8.19 46.742 0.501 7.8 75.46 10.59
12/17/2021 9:45:00 PM 8.18 46.724 0.501 7.79 78.87 10.56
12/17/2021 10:00:00 PM 8.17 46.706 0.501 7.79 77.61 10.52
12/17/2021 10:15:00 PM 8.16 46.688 0.501 7.79 81.45 10.49
12/17/2021 10:30:00 PM 8.15 46.67 0.501 7.78 80.12 10.46
12/17/2021 10:45:00 PM 8.14 46.652 0.501 7.77 81.7 10.43
12/17/2021 11:00:00 PM 8.14 46.652 0.501 7.77 71.34 10.39
12/17/2021 11:15:00 PM 8.13 46.634 0.501 7.77 72.76 10.36
12/17/2021 11:30:00 PM 8.13 46.634 0.501 7.77 69.01 10.33
12/17/2021 11:45:00 PM 8.12 46.616 0.501 7.76 77.46 10.3
12/18/2021 12:00:00 AM 8.1 46.58 0.501 7.76 67.54 10.27
12/18/2021 12:15:00 AM 8.09 46.562 0.501 7.75 69.71 10.24
12/18/2021 12:30:00 AM 8.08 46.544 0.501 7.75 78.58 10.22
12/18/2021 12:45:00 AM 8.06 46.508 0.501 7.75 75.34 10.2
12/18/2021 1:00:00 AM 8.05 46.49 0.501 7.74 76.89 10.17
12/18/2021 1:15:00 AM 8.03 46.454 0.501 7.74 75.92 10.13
12/18/2021 1:30:00 AM 8.02 46.436 0.501 7.73 74.27 10.11
12/18/2021 1:45:00 AM 8.01 46.418 0.501 7.73 76.98 10.12
12/18/2021 2:00:00 AM 8 46.4 0.501 7.73 70.82 10.1
12/18/2021 2:15:00 AM 7.99 46.382 0.501 7.72 78.32 10.09
12/18/2021 2:30:00 AM 7.98 46.364 0.5 7.72 78.67 10.08
12/18/2021 2:45:00 AM 7.96 46.328 0.5 7.72 88.85 10.07
12/18/2021 3:00:00 AM 7.95 46.31 0.5 7.72 56.82 10.06
12/18/2021 3:15:00 AM 7.93 46.274 0.5 7.71 77.8 10.05
12/18/2021 3:30:00 AM 7.91 46.238 0.499 7.71 80.57 10.04
12/18/2021 3:45:00 AM 7.9 46.22 0.499 7.71 81.79 10.03
12/18/2021 4:00:00 AM 7.89 46.202 0.498 7.7 82.23 10.03
12/18/2021 4:15:00 AM 7.88 46.184 0.498 7.7 86.08 10.02
12/18/2021 4:30:00 AM 7.87 46.166 0.498 7.7 86.6 10.01
12/18/2021 4:45:00 AM 7.86 46.148 0.498 7.7 86.97 10.01
12/18/2021 5:00:00 AM 7.84 46.112 0.498 7.7 80.37 9.98
12/18/2021 5:15:00 AM 7.82 46.076 0.498 7.7 92.9 10
12/18/2021 5:30:00 AM 7.79 46.022 0.498 7.69 74.46 9.99
12/18/2021 5:45:00 AM 7.77 45.986 0.497 7.69 87.66 10
12/18/2021 6:00:00 AM 7.75 45.95 0.498 7.69 83.55 9.99
12/18/2021 6:15:00 AM 7.74 45.932 0.498 7.69 92.7 10
12/18/2021 6:30:00 AM 7.72 45.896 0.498 7.69 80.29 9.99
12/18/2021 6:45:00 AM 7.7 45.86 0.498 7.69 87.35 10
12/18/2021 7:00:00 AM 7.67 45.806 0.497 7.68 87.72 9.99
12/18/2021 7:15:00 AM 7.63 45.734 0.498 7.69 85.64 10.01
12/18/2021 7:30:00 AM 7.6 45.68 0.497 7.68 85.95 9.99
12/18/2021 7:45:00 AM 7.58 45.644 0.497 7.68 89.11 10
12/18/2021 8:00:00 AM 7.57 45.626 0.497 7.67 84.09 9.99
12/18/2021 8:15:00 AM 7.56 45.608 0.497 7.67 83.55 9.99
12/18/2021 8:30:00 AM 7.54 45.572 0.496 7.67 86.22 10.02
12/18/2021 8:45:00 AM 7.46 45.428 0.493 7.66 77.21 10.06
12/18/2021 9:00:00 AM 7.39 45.302 0.49 7.66 84.6 10.1
12/18/2021 9:15:00 AM 7.41 45.338 0.49 7.66 88.68 10.13
12/18/2021 9:30:00 AM 7.43 45.374 0.49 7.66 86.64 10.15
12/18/2021 9:45:00 AM 7.46 45.428 0.491 7.66 83.06 10.2
12/18/2021 10:00:00 AM 7.47 45.446 0.491 7.67 88.05 10.25
12/18/2021 10:15:00 AM 7.49 45.482 0.491 7.67 76.24 10.34
12/18/2021 10:30:00 AM 7.5 45.5 0.491 7.67 80.03 10.42
12/18/2021 10:45:00 AM 7.52 45.536 0.491 7.67 78.32 10.48
12/18/2021 11:00:00 AM 7.53 45.554 0.49 7.68 78.7 10.54
12/18/2021 11:15:00 AM 7.54 45.572 0.489 7.69 78.77 10.58
12/18/2021 11:30:00 AM 7.55 45.59 0.489 7.68 75.97 10.61
12/18/2021 11:45:00 AM 7.56 45.608 0.488 7.68 79.55 10.64
12/18/2021 12:00:00 PM 7.58 45.644 0.487 7.69 83.4 10.7
12/18/2021 12:15:00 PM 7.59 45.662 0.49 7.69 81.62 10.74
12/18/2021 12:30:00 PM 7.6 45.68 0.486 7.69 81.94 10.8
12/18/2021 12:45:00 PM 7.62 45.716 0.484 7.7 80.02 10.89
12/18/2021 1:00:00 PM 7.63 45.734 0.482 7.7 80.1 10.93
12/18/2021 1:15:00 PM 7.63 45.734 0.479 7.7 95.88 10.98
12/18/2021 1:30:00 PM 7.64 45.752 0.477 7.7 81.08 10.98
12/18/2021 1:45:00 PM 7.64 45.752 0.475 7.7 75.25 10.97
12/18/2021 2:00:00 PM 7.65 45.77 0.473 7.7 85.54 10.97
12/18/2021 2:15:00 PM 7.65 45.77 0.471 7.7 85.44 10.95
12/18/2021 2:30:00 PM 7.66 45.788 0.469 7.7 78.93 10.97
12/18/2021 2:45:00 PM 7.67 45.806 0.467 7.69 84.42 11.02
12/18/2021 3:00:00 PM 7.68 45.824 0.466 7.7 77.61 11.09
12/18/2021 3:15:00 PM 7.7 45.86 0.464 7.71 73.37 11.11
12/18/2021 3:30:00 PM 7.71 45.878 0.464 7.71 68.57 11.15
12/18/2021 3:45:00 PM 7.72 45.896 0.463 7.71 73.4 11.16
12/18/2021 4:00:00 PM 7.72 45.896 0.464 7.71 69.41 11.11
12/18/2021 4:15:00 PM 7.72 45.896 0.465 7.71 87.05 11.06
12/18/2021 4:30:00 PM 7.72 45.896 0.465 7.71 76.29 10.98
12/18/2021 4:45:00 PM 7.72 45.896 0.466 7.7 72.56 10.9
12/18/2021 5:00:00 PM 7.72 45.896 0.466 7.71 74.57 10.83
12/18/2021 5:15:00 PM 7.71 45.878 0.466 7.7 87.13 10.78
12/18/2021 5:30:00 PM 7.71 45.878 0.466 7.7 77.89 10.76
12/18/2021 5:45:00 PM 7.71 45.878 0.465 7.7 89.68 10.71
12/18/2021 6:00:00 PM 7.7 45.86 0.464 7.7 77.49 10.69
12/18/2021 6:15:00 PM 7.69 45.842 0.462 7.7 75.54 10.66
12/18/2021 6:30:00 PM 7.69 45.842 0.46 7.69 84.88 10.64
12/18/2021 6:45:00 PM 7.68 45.824 0.458 7.69 66.95 10.58
12/18/2021 7:00:00 PM 7.67 45.806 0.456 7.69 67.55 10.56
12/18/2021 7:15:00 PM 7.65 45.77 0.455 7.68 84.93 10.54
12/18/2021 7:30:00 PM 7.64 45.752 0.453 7.68 90.76 10.5
12/18/2021 7:45:00 PM 7.63 45.734 0.452 7.67 88.98 10.48
12/18/2021 8:00:00 PM 7.62 45.716 0.451 7.67 82.98 10.44
12/18/2021 8:15:00 PM 7.62 45.716 0.45 7.66 86.73 10.42
12/18/2021 8:30:00 PM 7.61 45.698 0.433 7.66 91.52 10.39
12/18/2021 8:45:00 PM 7.61 45.698 0.45 7.66 89.2 10.35
12/18/2021 9:00:00 PM 7.61 45.698 0.451 7.67 87.09 10.31
12/18/2021 9:15:00 PM 7.6 45.68 0.452 7.66 81.5 10.26
12/18/2021 9:30:00 PM 7.61 45.698 0.453 7.66 89.88 10.23
12/18/2021 9:45:00 PM 7.61 45.698 0.454 7.65 88.59 10.17
12/18/2021 10:00:00 PM 7.62 45.716 0.455 7.65 96.09 10.12
12/18/2021 10:15:00 PM 7.62 45.716 0.456 7.65 88.27 10.07
12/18/2021 10:30:00 PM 7.63 45.734 0.458 7.65 92.53 10.06
12/18/2021 10:45:00 PM 7.63 45.734 0.458 7.65 88.6 10.04
12/18/2021 11:00:00 PM 7.64 45.752 0.459 7.65 88.67 10
12/18/2021 11:15:00 PM 7.65 45.77 0.46 7.64 92.74 9.97
12/18/2021 11:30:00 PM 7.67 45.806 0.46 7.64 84.21 9.96
12/18/2021 11:45:00 PM 7.68 45.824 0.461 7.64 92.83 9.95
12/19/2021 12:00:00 AM 7.7 45.86 0.462 7.64 89.55 9.92
12/19/2021 12:15:00 AM 7.71 45.878 0.462 7.63 89.07 9.91
12/19/2021 12:30:00 AM 7.71 45.878 0.463 7.64 61.36 9.93
12/19/2021 12:45:00 AM 7.71 45.878 0.463 7.64 88.46 9.91
12/19/2021 1:00:00 AM 7.7 45.86 0.464 7.63 96.59 9.92
12/19/2021 1:15:00 AM 7.69 45.842 0.465 7.63 73.37 9.93
12/19/2021 1:30:00 AM 7.68 45.824 0.465 7.63 104 9.92
12/19/2021 1:45:00 AM 7.65 45.77 0.466 7.63 97.83 9.93
12/19/2021 2:00:00 AM 7.63 45.734 0.467 7.64 100.1 9.94
12/19/2021 2:15:00 AM 7.6 45.68 0.468 7.63 94.64 9.95
12/19/2021 2:30:00 AM 7.58 45.644 0.469 7.63 97.86 9.97
12/19/2021 2:45:00 AM 7.55 45.59 0.47 7.64 102 9.97
12/19/2021 3:00:00 AM 7.53 45.554 0.471 7.63 94.92 9.97
12/19/2021 3:15:00 AM 7.5 45.5 0.471 7.64 96.38 9.97
12/19/2021 3:30:00 AM 7.47 45.446 0.472 7.63 93.11 9.97
12/19/2021 3:45:00 AM 7.44 45.392 0.472 7.63 92.71 9.99
12/19/2021 4:00:00 AM 7.42 45.356 0.473 7.63 103.4 10
12/19/2021 4:15:00 AM 7.38 45.284 0.473 7.63 98.96 10
12/19/2021 4:30:00 AM 7.34 45.212 0.473 7.63 94.71 10.02
12/19/2021 4:45:00 AM 7.31 45.158 0.474 7.63 87.33 10.02
12/19/2021 5:00:00 AM 7.29 45.122 0.474 7.63 92.96 10.04
12/19/2021 5:15:00 AM 7.26 45.068 0.474 7.63 78.09 10.06
12/19/2021 5:30:00 AM 7.23 45.014 0.474 7.63 91.79 10.07
12/19/2021 5:45:00 AM 7.2 44.96 0.475 7.63 94.76 10.09
12/19/2021 6:00:00 AM 7.16 44.888 0.475 7.63 96.75 10.1
12/19/2021 6:15:00 AM 7.12 44.816 0.475 7.63 93.97 10.13
12/19/2021 6:30:00 AM 7.08 44.744 0.475 7.64 101.8 10.12
12/19/2021 6:45:00 AM 7.04 44.672 0.475 7.64 92.23 10.14
12/19/2021 7:00:00 AM 7.02 44.636 0.475 7.64 101.3 10.17
12/19/2021 7:15:00 AM 7 44.6 0.464 7.64 95.29 10.18
12/19/2021 7:30:00 AM 6.98 44.564 0.476 7.64 92.44 10.18
12/19/2021 7:45:00 AM 6.96 44.528 0.476 7.64 100.6 10.22
12/19/2021 8:00:00 AM 6.93 44.474 0.476 7.64 86.91 10.24
12/19/2021 8:15:00 AM 6.9 44.42 0.476 7.64 97.16 10.29
12/19/2021 8:30:00 AM 6.87 44.366 0.476 7.65 92.89 10.33
12/19/2021 8:45:00 AM 6.84 44.312 0.477 7.65 94.46 10.37
12/19/2021 9:00:00 AM 6.81 44.258 0.477 7.65 69.59 10.45
12/19/2021 9:15:00 AM 6.78 44.204 0.477 7.65 95.89 10.52
12/19/2021 9:30:00 AM 6.75 44.15 0.477 7.66 100.7 10.62
12/19/2021 9:45:00 AM 6.73 44.114 0.477 7.67 93.46 10.77
12/19/2021 10:00:00 AM 6.72 44.096 0.477 7.67 97.28 10.94
12/19/2021 10:15:00 AM 6.72 44.096 0.477 7.69 94.9 11.1
12/19/2021 10:30:00 AM 6.73 44.114 0.477 7.69 82.85 11.31
12/19/2021 10:45:00 AM 6.73 44.114 0.477 7.71 86.86 11.47
12/19/2021 11:00:00 AM 6.72 44.096 0.477 7.72 86.65 11.63
12/19/2021 11:15:00 AM 6.74 44.132 0.477 7.74 90.42 11.81
12/19/2021 11:30:00 AM 6.76 44.168 0.477 7.75 100.3 11.97
12/19/2021 11:45:00 AM 6.79 44.222 0.477 7.76 77.24 12.14
12/19/2021 12:00:00 PM 6.83 44.294 0.477 7.78 66.59 12.33
12/19/2021 12:15:00 PM 6.87 44.366 0.477 7.79 87.18 12.51
12/19/2021 12:30:00 PM 6.96 44.528 0.477 7.8 87.89 12.66
12/19/2021 12:45:00 PM 7.05 44.69 0.477 7.82 94.57 12.84
12/19/2021 1:00:00 PM 7.09 44.762 0.477 7.83 88.78 12.98
12/19/2021 1:15:00 PM 7.19 44.942 0.477 7.85 67.38 13.12
12/19/2021 1:30:00 PM 7.23 45.014 0.478 7.86 73.51 13.18
12/19/2021 1:45:00 PM 7.26 45.068 0.478 7.87 84.88 13.24
12/19/2021 2:00:00 PM 7.27 45.086 0.478 7.88 83.79 13.26
12/19/2021 2:15:00 PM 7.27 45.086 0.478 7.89 83.88 13.24
12/19/2021 2:30:00 PM 7.26 45.068 0.478 7.89 60.62 13.24
12/19/2021 2:45:00 PM 7.24 45.032 0.478 7.89 62.13 13.2
12/19/2021 3:00:00 PM 7.2 44.96 0.479 7.9 83.93 13.15
12/19/2021 3:15:00 PM 7.16 44.888 0.479 7.89 83.08 13.11
12/19/2021 3:30:00 PM 7.11 44.798 0.479 7.89 74.35 13.05
12/19/2021 3:45:00 PM 7.05 44.69 0.479 7.89 64.45 12.94
12/19/2021 4:00:00 PM 7.01 44.618 0.48 7.89 60.61 12.86
12/19/2021 4:15:00 PM 6.97 44.546 0.48 7.88 70.01 12.73
12/19/2021 4:30:00 PM 6.92 44.456 0.48 7.88 76.11 12.61
12/19/2021 4:45:00 PM 6.87 44.366 0.48 7.87 74.93 12.45
12/19/2021 5:00:00 PM 6.81 44.258 0.481 7.86 79.28 12.29
12/19/2021 5:15:00 PM 6.76 44.168 0.482 7.85 70.38 12.16
12/19/2021 5:30:00 PM 6.7 44.06 0.482 7.84 73.9 12.05
12/19/2021 5:45:00 PM 6.64 43.952 0.483 7.83 74.85 11.95
12/19/2021 6:00:00 PM 6.57 43.826 0.483 7.83 67.02 11.88
12/19/2021 6:15:00 PM 6.51 43.718 0.484 7.82 73.66 11.81
12/19/2021 6:30:00 PM 6.44 43.592 0.484 7.81 76.75 11.74
12/19/2021 6:45:00 PM 6.37 43.466 0.484 7.81 71.38 11.71
12/19/2021 7:00:00 PM 6.3 43.34 0.484 7.8 72.2 11.67
12/19/2021 7:15:00 PM 6.23 43.214 0.485 7.8 84.18 11.64
12/19/2021 7:30:00 PM 6.17 43.106 0.485 7.8 67.99 11.6
12/19/2021 7:45:00 PM 6.12 43.016 0.485 7.79 68.82 11.56
12/19/2021 8:00:00 PM 6.07 42.926 0.485 7.79 70.07 11.52
12/19/2021 8:15:00 PM 6.01 42.818 0.486 7.78 68.45 11.49
12/19/2021 8:30:00 PM 5.96 42.728 0.486 7.79 67.59 11.43
12/19/2021 8:45:00 PM 5.93 42.674 0.486 7.78 68.86 11.43
12/19/2021 9:00:00 PM 5.88 42.584 0.486 7.78 69.65 11.42
12/19/2021 9:15:00 PM 5.83 42.494 0.486 7.78 71.03 11.4
12/19/2021 9:30:00 PM 5.78 42.404 0.486 7.78 69.22 11.38
12/19/2021 9:45:00 PM 5.73 42.314 0.486 7.78 65.36 11.38
12/19/2021 10:00:00 PM 5.69 42.242 0.486 7.77 66.16 11.37
12/19/2021 10:15:00 PM 5.63 42.134 0.486 7.77 60.29 11.36
12/19/2021 10:30:00 PM 5.58 42.044 0.486 7.78 68.4 11.35
12/19/2021 10:45:00 PM 5.54 41.972 0.486 7.76 60.46 11.33
12/19/2021 11:00:00 PM 5.48 41.864 0.487 7.76 66.1 11.33
12/19/2021 11:15:00 PM 5.43 41.774 0.448 7.75 67.12 11.31
12/19/2021 11:30:00 PM 5.38 41.684 0.444 7.75 65.65 11.28
12/19/2021 11:45:00 PM 5.34 41.612 0.474 7.75 66.54 11.29
12/20/2021 12:00:00 AM 5.29 41.522 0.468 7.75 69.84 11.26
12/20/2021 12:15:00 AM 5.24 41.432 0.485 7.74 70.58 11.26
12/20/2021 12:30:00 AM 5.19 41.342 0.475 7.74 75.68 11.26
12/20/2021 12:45:00 AM 5.14 41.252 0.472 7.74 68.58 11.26
12/20/2021 1:00:00 AM 5.1 41.18 0.421 7.74 71.55 11.25
12/20/2021 1:15:00 AM 5.05 41.09 0.468 7.74 66.17 11.26
12/20/2021 1:30:00 AM 5 41 0.474 7.73 70.06 11.25
12/20/2021 1:45:00 AM 4.95 40.91 0.478 7.73 73.6 11.26
12/20/2021 2:00:00 AM 4.9 40.82 0.463 7.73 73.09 11.27
12/20/2021 2:15:00 AM 4.85 40.73 0.481 7.73 73.07 11.28
12/20/2021 2:30:00 AM 4.8 40.64 0.437 7.73 78.29 11.29
12/20/2021 2:45:00 AM 4.75 40.55 0.485 7.73 73.27 11.3
12/20/2021 3:00:00 AM 4.7 40.46 0.482 7.73 73.3 11.31
12/20/2021 3:15:00 AM 4.65 40.37 0.465 7.73 73.96 11.33
12/20/2021 3:30:00 AM 4.59 40.262 0.438 7.73 76.11 11.33
12/20/2021 3:45:00 AM 4.54 40.172 0.48 7.73 74.88 11.36
12/20/2021 4:00:00 AM 4.49 40.082 0.483 7.72 77.52 11.38
12/20/2021 4:15:00 AM 4.44 39.992 0.415 7.72 73.66 11.39
12/20/2021 4:30:00 AM 4.39 39.902 0.466 7.72 76.12 11.38
12/20/2021 4:45:00 AM 4.33 39.794 0.471 7.72 73.85 11.41
12/20/2021 5:00:00 AM 4.28 39.704 0.469 7.72 73.51 11.43
12/20/2021 5:15:00 AM 4.23 39.614 0.472 7.72 70.76 11.45
12/20/2021 5:30:00 AM 4.18 39.524 0.481 7.72 75.23 11.47
12/20/2021 5:45:00 AM 4.13 39.434 0.483 7.72 79.08 11.49
12/20/2021 6:00:00 AM 4.09 39.362 0.485 7.72 75.74 11.48
12/20/2021 6:15:00 AM 4.04 39.272 0.486 7.72 70.11 11.52
12/20/2021 6:30:00 AM 4 39.2 0.487 7.72 76.1 11.54
12/20/2021 6:45:00 AM 3.94 39.092 0.486 7.71 73.87 11.55
12/20/2021 7:00:00 AM 3.9 39.02 0.487 7.72 74.7 11.58
12/20/2021 7:15:00 AM 3.85 38.93 0.479 7.72 75.79 11.59
12/20/2021 7:30:00 AM 3.8 38.84 0.489 7.72 73.74 11.64
12/20/2021 7:45:00 AM 3.76 38.768 0.481 7.72 77.26 11.7
12/20/2021 8:00:00 AM 3.72 38.696 0.458 7.73 73.23 11.76
12/20/2021 8:15:00 AM 3.69 38.642 0.445 7.72 75.89 11.84
12/20/2021 8:30:00 AM 3.66 38.588 0.49 7.73 75.47 11.95
12/20/2021 8:45:00 AM 3.64 38.552 0.491 7.74 75.72 12.06
12/20/2021 9:00:00 AM 3.64 38.552 0.487 7.74 78.66 12.22
12/20/2021 9:15:00 AM 3.65 38.57 0.49 7.74 71.6 12.43
12/20/2021 9:30:00 AM 3.68 38.624 0.489 7.75 75.65 12.61
12/20/2021 9:45:00 AM 3.72 38.696 0.488 7.76 72.33 12.8
12/20/2021 10:00:00 AM 3.78 38.804 0.487 7.77 69.38 12.97
12/20/2021 10:15:00 AM 3.85 38.93 0.49 7.79 71.56 13.14
12/20/2021 10:30:00 AM 3.95 39.11 0.487 7.79 72.98 13.29
12/20/2021 10:45:00 AM 4.05 39.29 0.488 7.8 71.91 13.43
12/20/2021 11:00:00 AM 4.16 39.488 0.484 7.82 74.49 13.58
12/20/2021 11:15:00 AM 4.27 39.686 0.473 7.83 73.55 13.64
12/20/2021 11:30:00 AM 4.39 39.902 0.482 7.83 75.53 13.75
12/20/2021 11:45:00 AM 4.5 40.1 0.485 7.84 76.21 13.84
12/20/2021 12:00:00 PM 4.61 40.298 0.492 7.85 75.25 13.96
12/20/2021 12:15:00 PM 4.73 40.514 0.479 7.85 75.62 14.03
12/20/2021 12:30:00 PM 4.84 40.712 0.483 7.86 77.62 14.1
12/20/2021 12:45:00 PM 4.95 40.91 0.466 7.87 76.79 14.17
12/20/2021 1:00:00 PM 5.05 41.09 0.465 7.89 76.57 14.2
12/20/2021 1:15:00 PM 5.17 41.306 0.47 7.89 76.02 14.25
12/20/2021 1:30:00 PM 5.26 41.468 0.445 7.89 73.54 14.28
12/20/2021 1:45:00 PM 5.35 41.63 0.45 7.9 74.82 14.29
12/20/2021 2:00:00 PM 5.4 41.72 0.437 7.91 75.6 14.29
12/20/2021 2:15:00 PM 5.44 41.792 0.436 7.91 74.51 14.24
12/20/2021 2:30:00 PM 5.47 41.846 0.435 7.91 79.4 14.17
12/20/2021 2:45:00 PM 5.47 41.846 0.432 7.91 75.59 14.14
12/20/2021 3:00:00 PM 5.5 41.9 0.462 7.9 77.87 13.97
12/20/2021 3:15:00 PM 5.49 41.882 0.5 7.9 69.98 13.84
12/20/2021 3:30:00 PM 5.47 41.846 0.481 7.89 71.6 13.79
12/20/2021 3:45:00 PM 5.45 41.81 0.459 7.9 75.82 13.71
12/20/2021 4:00:00 PM 5.42 41.756 0.491 7.9 74.71 13.62
12/20/2021 4:15:00 PM 5.39 41.702 0.49 7.9 78.62 13.51
12/20/2021 4:30:00 PM 5.35 41.63 0.491 7.89 79.35 13.38
12/20/2021 4:45:00 PM 5.31 41.558 0.481 7.88 78.49 13.21
12/20/2021 5:00:00 PM 5.27 41.486 0.48 7.87 74.49 13.06
12/20/2021 5:15:00 PM 5.23 41.414 0.491 7.87 78.79 12.93
12/20/2021 5:30:00 PM 5.2 41.36 0.497 7.86 75.83 12.82
12/20/2021 5:45:00 PM 5.16 41.288 0.498 7.85 82.36 12.7
12/20/2021 6:00:00 PM 5.12 41.216 0.493 7.84 79.48 12.6
12/20/2021 6:15:00 PM 5.08 41.144 0.445 7.84 80.51 12.52
12/20/2021 6:30:00 PM 5.04 41.072 0.471 7.83 79.28 12.47
12/20/2021 6:45:00 PM 5.01 41.018 0.46 7.83 86.07 12.41
12/20/2021 7:00:00 PM 4.97 40.946 0.497 7.82 82.98 12.34
12/20/2021 7:15:00 PM 4.95 40.91 0.498 7.82 81.13 12.29
12/20/2021 7:30:00 PM 4.92 40.856 0.483 7.82 86.18 12.21
12/20/2021 7:45:00 PM 4.89 40.802 0.482 7.81 82.04 12.15
12/20/2021 8:00:00 PM 4.85 40.73 0.495 7.8 83.19 12.1
12/20/2021 8:15:00 PM 4.82 40.676 0.478 7.8 85.52 12.04
12/20/2021 8:30:00 PM 4.8 40.64 0.5 7.8 83.75 11.99
12/20/2021 8:45:00 PM 4.77 40.586 0.496 7.79 79.72 11.96
12/20/2021 9:00:00 PM 4.75 40.55 0.499 7.79 84.76 11.91
12/20/2021 9:15:00 PM 4.73 40.514 0.499 7.79 83.7 11.87
12/20/2021 9:30:00 PM 4.72 40.496 0.499 7.79 85.01 11.83
12/20/2021 9:45:00 PM 4.7 40.46 0.499 7.78 82.33 11.81
12/20/2021 10:00:00 PM 4.68 40.424 0.499 7.77 88.14 11.76
12/20/2021 10:15:00 PM 4.67 40.406 0.499 7.77 84.02 11.74
12/20/2021 10:30:00 PM 4.65 40.37 0.499 7.77 86.02 11.71
12/20/2021 10:45:00 PM 4.63 40.334 0.499 7.77 86.65 11.69
12/20/2021 11:00:00 PM 4.6 40.28 0.499 7.76 84.28 11.67
12/20/2021 11:15:00 PM 4.57 40.226 0.498 7.76 83.69 11.63
12/20/2021 11:30:00 PM 4.54 40.172 0.499 7.75 84.29 11.61
12/20/2021 11:45:00 PM 4.51 40.118 0.499 7.75 81.43 11.6
12/21/2021 12:00:00 AM 4.48 40.064 0.498 7.75 83.9 11.57
12/21/2021 12:15:00 AM 4.44 39.992 0.498 7.75 83.07 11.55
12/21/2021 12:30:00 AM 4.41 39.938 0.498 7.75 79.78 11.53
12/21/2021 12:45:00 AM 4.37 39.866 0.497 7.74 86.1 11.52
12/21/2021 1:00:00 AM 4.33 39.794 0.497 7.74 83.55 11.51
12/21/2021 1:15:00 AM 4.29 39.722 0.497 7.73 84.58 11.53
12/21/2021 1:30:00 AM 4.25 39.65 0.497 7.73 77.86 11.52
12/21/2021 1:45:00 AM 4.21 39.578 0.497 7.73 81.29 11.51
12/21/2021 2:00:00 AM 4.16 39.488 0.496 7.73 81.28 11.52
12/21/2021 2:15:00 AM 4.12 39.416 0.496 7.73 83.82 11.52
12/21/2021 2:30:00 AM 4.08 39.344 0.497 7.73 85.85 11.52
12/21/2021 2:45:00 AM 4.04 39.272 0.497 7.72 81.24 11.54
12/21/2021 3:00:00 AM 4 39.2 0.496 7.73 83.86 11.53
12/21/2021 3:15:00 AM 3.96 39.128 0.497 7.73 87.91 11.53
12/21/2021 3:30:00 AM 3.92 39.056 0.497 7.73 87.86 11.56
12/21/2021 3:45:00 AM 3.88 38.984 0.497 7.72 90.81 11.57
12/21/2021 4:00:00 AM 3.86 38.948 0.497 7.72 90.47 11.58
12/21/2021 4:15:00 AM 3.83 38.894 0.497 7.72 87.77 11.57
12/21/2021 4:30:00 AM 3.81 38.858 0.497 7.72 90.61 11.58
12/21/2021 4:45:00 AM 3.78 38.804 0.497 7.72 85.86 11.59
12/21/2021 5:00:00 AM 3.76 38.768 0.497 7.73 84.82 11.6
12/21/2021 5:15:00 AM 3.73 38.714 0.497 7.72 88.08 11.6
12/21/2021 5:30:00 AM 3.71 38.678 0.497 7.71 79.55 11.6
12/21/2021 5:45:00 AM 3.69 38.642 0.497 7.71 90.72 11.62
12/21/2021 6:00:00 AM 3.66 38.588 0.497 7.71 86.18 11.63
12/21/2021 6:15:00 AM 3.64 38.552 0.497 7.71 85 11.63
12/21/2021 6:30:00 AM 3.62 38.516 0.497 7.71 93.34 11.63
12/21/2021 6:45:00 AM 3.59 38.462 0.497 7.71 95.36 11.64
12/21/2021 7:00:00 AM 3.57 38.426 0.497 7.71 91.39 11.66
12/21/2021 7:15:00 AM 3.54 38.372 0.497 7.7 86.48 11.65
12/21/2021 7:30:00 AM 3.51 38.318 0.498 7.7 94.84 11.69
12/21/2021 7:45:00 AM 3.48 38.264 0.498 7.7 90.95 11.71
12/21/2021 8:00:00 AM 3.46 38.228 0.498 7.7 94.81 11.77
12/21/2021 8:15:00 AM 3.45 38.21 0.498 7.71 93.17 11.88
12/21/2021 8:30:00 AM 3.43 38.174 0.498 7.7 96.88 11.97
12/21/2021 8:45:00 AM 3.42 38.156 0.499 7.71 96.91 12.06
12/21/2021 9:00:00 AM 3.41 38.138 0.499 7.72 94.72 12.16
12/21/2021 9:15:00 AM 3.41 38.138 0.499 7.72 97.17 12.3
12/21/2021 9:30:00 AM 3.42 38.156 0.499 7.73 101.1 12.46
12/21/2021 9:45:00 AM 3.44 38.192 0.499 7.73 95.65 12.62
12/21/2021 10:00:00 AM 3.48 38.264 0.5 7.76 100.7 12.78
12/21/2021 10:15:00 AM 3.53 38.354 0.5 7.75 92.12 12.93
12/21/2021 10:30:00 AM 3.58 38.444 0.5 7.76 88.35 13.09
12/21/2021 10:45:00 AM 3.66 38.588 0.5 7.78 99 13.25
12/21/2021 11:00:00 AM 3.73 38.714 0.5 7.79 90.45 13.4
12/21/2021 11:15:00 AM 3.8 38.84 0.5 7.79 104.6 13.49
12/21/2021 11:30:00 AM 3.87 38.966 0.5 7.8 100.3 13.61
12/21/2021 11:45:00 AM 3.96 39.128 0.5 7.81 97 13.73
12/21/2021 12:00:00 PM 4.02 39.236 0.5 7.82 90.86 13.8
12/21/2021 12:15:00 PM 4.1 39.38 0.5 7.83 92.85 13.88
12/21/2021 12:30:00 PM 4.16 39.488 0.5 7.84 100.2 13.91
12/21/2021 12:45:00 PM 4.2 39.56 0.5 7.84 90.67 13.82
12/21/2021 1:00:00 PM 4.29 39.722 0.5 7.84 82 13.81
12/21/2021 1:15:00 PM 4.43 39.974 0.5 7.84 94.74 13.84
12/21/2021 1:30:00 PM 4.52 40.136 0.5 7.84 100.5 13.89
12/21/2021 1:45:00 PM 4.59 40.262 0.5 7.85 97.34 13.93
12/21/2021 2:00:00 PM 4.65 40.37 0.5 7.86 98.25 13.83
12/21/2021 2:15:00 PM 4.71 40.478 0.501 7.85 90.43 13.78
12/21/2021 2:30:00 PM 4.76 40.568 0.501 7.85 87.18 13.76
12/21/2021 2:45:00 PM 4.79 40.622 0.501 7.85 95.01 13.71
12/21/2021 3:00:00 PM 4.82 40.676 0.5 7.85 94.23 13.72
12/21/2021 3:15:00 PM 4.83 40.694 0.5 7.86 95.6 13.7
12/21/2021 3:30:00 PM 4.84 40.712 0.5 7.87 96.48 13.68
12/21/2021 3:45:00 PM 4.84 40.712 0.489 7.86 98.08 13.63
12/21/2021 4:00:00 PM 4.83 40.694 0.49 7.87 105 13.57
12/21/2021 4:15:00 PM 4.82 40.676 0.497 7.87 102 13.51
12/21/2021 4:30:00 PM 4.8 40.64 0.5 7.88 96.61 13.38
12/21/2021 4:45:00 PM 4.78 40.604 0.5 7.86 94.13 13.29
12/21/2021 5:00:00 PM 4.76 40.568 0.5 7.86 96.13 13.15
12/21/2021 5:15:00 PM 4.75 40.55 0.5 7.85 98.6 13.01
12/21/2021 5:30:00 PM 4.73 40.514 0.5 7.85 103.7 12.87
12/21/2021 5:45:00 PM 4.71 40.478 0.5 7.84 96.61 12.75
12/21/2021 6:00:00 PM 4.68 40.424 0.5 7.83 98.97 12.64
12/21/2021 6:15:00 PM 4.65 40.37 0.5 7.83 101.9 12.56
12/21/2021 6:30:00 PM 4.62 40.316 0.499 7.83 98.46 12.47
12/21/2021 6:45:00 PM 4.6 40.28 0.44 7.82 101.6 12.41
12/21/2021 7:00:00 PM 4.58 40.244 0.449 7.82 98.79 12.35
12/21/2021 7:15:00 PM 4.56 40.208 0.435 7.82 103.3 12.29
12/21/2021 7:30:00 PM 4.54 40.172 0.464 7.81 100.9 12.23
12/21/2021 7:45:00 PM 4.52 40.136 0.488 7.81 103.6 12.17
12/21/2021 8:00:00 PM 4.5 40.1 0.493 7.79 99.53 12.13
12/21/2021 8:15:00 PM 4.48 40.064 0.484 7.79 101 12.06
12/21/2021 8:30:00 PM 4.46 40.028 0.497 7.79 104.5 12.01
12/21/2021 8:45:00 PM 4.45 40.01 0.448 7.8 103.6 11.98
12/21/2021 9:00:00 PM 4.42 39.956 0.468 7.78 104.9 11.93
12/21/2021 9:15:00 PM 4.4 39.92 0.499 7.77 105.2 11.89
12/21/2021 9:30:00 PM 4.39 39.902 0.499 7.77 107.9 11.87
12/21/2021 9:45:00 PM 4.38 39.884 0.499 7.77 105.8 11.83
12/21/2021 10:00:00 PM 4.36 39.848 0.499 7.76 102.6 11.8
12/21/2021 10:15:00 PM 4.35 39.83 0.499 7.76 101.8 11.78
12/21/2021 10:30:00 PM 4.34 39.812 0.499 7.76 109.1 11.75
12/21/2021 10:45:00 PM 4.31 39.758 0.499 7.77 100.7 11.71
12/21/2021 11:00:00 PM 4.29 39.722 0.499 7.76 99.3 11.69
12/21/2021 11:15:00 PM 4.27 39.686 0.499 7.76 96.02 11.68
12/21/2021 11:30:00 PM 4.24 39.632 0.499 7.76 102.3 11.64
12/21/2021 11:45:00 PM 4.21 39.578 0.498 7.75 100 11.63
12/22/2021 12:00:00 AM 4.18 39.524 0.498 7.75 103.8 11.6
12/22/2021 12:15:00 AM 4.15 39.47 0.498 7.75 96.97 11.58
12/22/2021 12:30:00 AM 4.11 39.398 0.498 7.74 99.47 11.57
12/22/2021 12:45:00 AM 4.07 39.326 0.498 7.74 98 11.55
12/22/2021 1:00:00 AM 4.04 39.272 0.497 7.74 109 11.53
12/22/2021 1:15:00 AM 4 39.2 0.497 7.73 110.3 11.54
12/22/2021 1:30:00 AM 3.96 39.128 0.497 7.73 96.76 11.53
12/22/2021 1:45:00 AM 3.91 39.038 0.497 7.73 100.7 11.52
12/22/2021 2:00:00 AM 3.87 38.966 0.496 7.73 104.4 11.53
12/22/2021 2:15:00 AM 3.83 38.894 0.496 7.73 101.8 11.53
12/22/2021 2:30:00 AM 3.79 38.822 0.496 7.72 101.4 11.52
12/22/2021 2:45:00 AM 3.75 38.75 0.496 7.72 107.3 11.53
12/22/2021 3:00:00 AM 3.72 38.696 0.495 7.72 106.8 11.54
12/22/2021 3:15:00 AM 3.68 38.624 0.495 7.71 105.6 11.53
12/22/2021 3:30:00 AM 3.65 38.57 0.495 7.72 101 11.53
12/22/2021 3:45:00 AM 3.61 38.498 0.495 7.72 106 11.55
12/22/2021 4:00:00 AM 3.57 38.426 0.495 7.71 110.1 11.55
12/22/2021 4:15:00 AM 3.54 38.372 0.495 7.72 102 11.56
12/22/2021 4:30:00 AM 3.51 38.318 0.495 7.72 99 11.56
12/22/2021 4:45:00 AM 3.5 38.3 0.495 7.71 98.45 11.58
12/22/2021 5:00:00 AM 3.48 38.264 0.495 7.71 103.7 11.57
12/22/2021 5:15:00 AM 3.48 38.264 0.495 7.72 102.3 11.58
12/22/2021 5:30:00 AM 3.49 38.282 0.495 7.71 105.8 11.58
12/22/2021 5:45:00 AM 3.49 38.282 0.495 7.71 105.3 11.57
12/22/2021 6:00:00 AM 3.5 38.3 0.495 7.72 104.8 11.57
12/22/2021 6:15:00 AM 3.51 38.318 0.495 7.71 100.5 11.57
12/22/2021 6:30:00 AM 3.52 38.336 0.495 7.71 100.2 11.58
12/22/2021 6:45:00 AM 3.53 38.354 0.496 7.71 107.9 11.57
12/22/2021 7:00:00 AM 3.53 38.354 0.496 7.7 109.6 11.58
12/22/2021 7:15:00 AM 3.54 38.372 0.496 7.7 101 11.58
12/22/2021 7:30:00 AM 3.55 38.39 0.496 7.7 108.5 11.57
12/22/2021 7:45:00 AM 3.55 38.39 0.496 7.71 106.5 11.61
12/22/2021 8:00:00 AM 3.56 38.408 0.496 7.7 105.2 11.63
12/22/2021 8:15:00 AM 3.59 38.462 0.497 7.7 106.3 11.66
12/22/2021 8:30:00 AM 3.61 38.498 0.497 7.7 108.5 11.69
12/22/2021 8:45:00 AM 3.64 38.552 0.497 7.7 105 11.71
12/22/2021 9:00:00 AM 3.68 38.624 0.497 7.7 113.3 11.73
12/22/2021 9:15:00 AM 3.7 38.66 0.498 7.7 116.5 11.75
12/22/2021 9:30:00 AM 3.73 38.714 0.498 7.71 111 11.8
12/22/2021 9:45:00 AM 3.79 38.822 0.498 7.72 109.1 12.06
12/22/2021 10:00:00 AM 3.87 38.966 0.498 7.72 117 12.19
12/22/2021 10:15:00 AM 3.87 38.966 0.498 7.72 107.6 12.16
12/22/2021 10:30:00 AM 3.91 39.038 0.499 7.73 103.1 12.29
12/22/2021 10:45:00 AM 3.94 39.092 0.499 7.74 108.2 12.4
12/22/2021 11:00:00 AM 3.98 39.164 0.499 7.75 111.6 12.53
12/22/2021 11:15:00 AM 4.02 39.236 0.499 7.75 108.9 12.68
12/22/2021 11:30:00 AM 4.05 39.29 0.499 7.77 118.3 12.73
12/22/2021 11:45:00 AM 4.07 39.326 0.499 7.77 107.5 12.84
12/22/2021 12:00:00 PM 4.07 39.326 0.5 7.79 109.8 12.87
12/22/2021 12:15:00 PM 4.18 39.524 0.5 7.79 109.4 13.08
12/22/2021 12:30:00 PM 4.18 39.524 0.5 7.82 107.4 13.18
12/22/2021 12:45:00 PM 4.22 39.596 0.5 7.82 108.1 13.24
12/22/2021 1:00:00 PM 4.26 39.668 0.5 7.82 105.6 13.34
12/22/2021 1:15:00 PM 4.29 39.722 0.5 7.83 108.3 13.39
12/22/2021 1:30:00 PM 4.36 39.848 0.501 7.84 107.1 13.49
12/22/2021 1:45:00 PM 4.34 39.812 0.501 7.84 108.5 13.4
12/22/2021 2:00:00 PM 4.38 39.884 0.501 7.86 107.8 13.48
12/22/2021 2:15:00 PM 4.39 39.902 0.501 7.86 93.52 13.46
12/22/2021 2:30:00 PM 4.4 39.92 0.501 7.86 115.8 13.42
12/22/2021 2:45:00 PM 4.38 39.884 0.501 7.86 108.2 13.38
12/22/2021 3:00:00 PM 4.37 39.866 0.502 7.87 111.6 13.28
12/22/2021 3:15:00 PM 4.35 39.83 0.502 7.87 118.7 13.31
12/22/2021 3:30:00 PM 4.33 39.794 0.502 7.86 112.5 13.26
12/22/2021 3:45:00 PM 4.31 39.758 0.502 7.87 119 13.24
12/22/2021 4:00:00 PM 4.29 39.722 0.502 7.86 115.3 13.15
12/22/2021 4:15:00 PM 4.27 39.686 0.502 7.85 103.3 13.09
12/22/2021 4:30:00 PM 4.26 39.668 0.501 7.86 96.53 13.04
12/22/2021 4:45:00 PM 4.22 39.596 0.501 7.85 99.7 12.94
12/22/2021 5:00:00 PM 4.17 39.506 0.501 7.84 99.55 12.82
12/22/2021 5:15:00 PM 4.15 39.47 0.501 7.84 103.9 12.71
12/22/2021 5:30:00 PM 4.12 39.416 0.5 7.83 104.1 12.62
12/22/2021 5:45:00 PM 4.07 39.326 0.501 7.83 104.6 12.53
12/22/2021 6:00:00 PM 4.02 39.236 0.5 7.82 104.9 12.46
12/22/2021 6:15:00 PM 4.01 39.218 0.5 7.82 107.1 12.41
12/22/2021 6:30:00 PM 3.97 39.146 0.5 7.81 110.9 12.36
12/22/2021 6:45:00 PM 3.9 39.02 0.5 7.8 95.13 12.32
12/22/2021 7:00:00 PM 3.86 38.948 0.5 7.8 107.9 12.3
12/22/2021 7:15:00 PM 3.84 38.912 0.5 7.8 105.8 12.28
12/22/2021 7:30:00 PM 3.8 38.84 0.499 7.79 105.3 12.26
12/22/2021 7:45:00 PM 3.79 38.822 0.437 7.8 101.9 12.25
12/22/2021 8:00:00 PM 3.78 38.804 0.49 7.8 102.2 12.22
12/22/2021 8:15:00 PM 3.76 38.768 0.5 7.79 105.8 12.19
12/22/2021 8:30:00 PM 3.74 38.732 0.48 7.78 101.8 12.17
12/22/2021 8:45:00 PM 3.72 38.696 0.45 7.78 99.51 12.14
12/22/2021 9:00:00 PM 3.7 38.66 0.456 7.78 106.4 12.11
12/22/2021 9:15:00 PM 3.67 38.606 0.488 7.78 104.6 12.1
12/22/2021 9:30:00 PM 3.64 38.552 0.491 7.78 110.4 12.07
12/22/2021 9:45:00 PM 3.62 38.516 0.497 7.78 111.4 12.07
12/22/2021 10:00:00 PM 3.59 38.462 0.499 7.78 108.9 12.05
12/22/2021 10:15:00 PM 3.55 38.39 0.5 7.77 101.5 12.05
12/22/2021 10:30:00 PM 3.51 38.318 0.5 7.77 108.4 12.06
12/22/2021 10:45:00 PM 3.47 38.246 0.5 7.76 100.6 12.06
12/22/2021 11:00:00 PM 3.44 38.192 0.5 7.77 103 12.03
12/22/2021 11:15:00 PM 3.4 38.12 0.5 7.77 97.43 12.03
12/22/2021 11:30:00 PM 3.37 38.066 0.5 7.78 110 12.02
12/22/2021 11:45:00 PM 3.33 37.994 0.5 7.76 102.2 12.02
12/23/2021 12:00:00 AM 3.3 37.94 0.5 7.76 104.1 11.99
12/23/2021 12:15:00 AM 3.26 37.868 0.5 7.76 104.1 12.01
12/23/2021 12:30:00 AM 3.22 37.796 0.5 7.75 103.6 12
12/23/2021 12:45:00 AM 3.2 37.76 0.499 7.75 110.4 12
12/23/2021 1:00:00 AM 3.19 37.742 0.499 7.75 113.1 12.01
12/23/2021 1:15:00 AM 3.16 37.688 0.499 7.74 113.9 12.02
12/23/2021 1:30:00 AM 3.14 37.652 0.499 7.74 112.8 12
12/23/2021 1:45:00 AM 3.13 37.634 0.499 7.75 113.7 12
12/23/2021 2:00:00 AM 3.13 37.634 0.499 7.74 98.31 12
12/23/2021 2:15:00 AM 3.12 37.616 0.499 7.74 115.6 12.01
12/23/2021 2:30:00 AM 3.1 37.58 0.499 7.74 109.5 12.02
12/23/2021 2:45:00 AM 3.09 37.562 0.498 7.73 98.35 12.01
12/23/2021 3:00:00 AM 3.08 37.544 0.498 7.74 99.78 12.02
12/23/2021 3:15:00 AM 3.07 37.526 0.498 7.73 103.6 12.02
12/23/2021 3:30:00 AM 3.05 37.49 0.498 7.74 92.49 12.02
12/23/2021 3:45:00 AM 3.04 37.472 0.498 7.73 85.41 12.04
12/23/2021 4:00:00 AM 3.02 37.436 0.496 7.74 99.17 12.04
12/23/2021 4:15:00 AM 3.02 37.436 0.446 7.73 101.1 12.04
12/23/2021 4:30:00 AM 3.01 37.418 0.479 7.73 101.5 12.04
12/23/2021 4:45:00 AM 3 37.4 0.484 7.73 102.9 12.05
12/23/2021 5:00:00 AM 2.99 37.382 0.499 7.73 101.6 12.04
12/23/2021 5:15:00 AM 2.98 37.364 0.45 7.72 98.1 12.05
12/23/2021 5:30:00 AM 2.98 37.364 0.499 7.72 99.67 12.05
12/23/2021 5:45:00 AM 2.96 37.328 0.5 7.72 102.6 12.06
12/23/2021 6:00:00 AM 2.96 37.328 0.496 7.72 102.5 12.05
12/23/2021 6:15:00 AM 2.94 37.292 0.5 7.72 99.93 12.05
12/23/2021 6:30:00 AM 2.93 37.274 0.46 7.72 105.7 12.08
12/23/2021 6:45:00 AM 2.92 37.256 0.47 7.72 96.37 12.08
12/23/2021 7:00:00 AM 2.9 37.22 0.477 7.71 110 12.08
12/23/2021 7:15:00 AM 2.89 37.202 0.473 7.73 97.1 12.09
12/23/2021 7:30:00 AM 2.88 37.184 0.501 7.72 105.6 12.11
12/23/2021 7:45:00 AM 2.88 37.184 0.485 7.72 109.5 12.13
12/23/2021 8:00:00 AM 2.87 37.166 0.48 7.72 90.65 12.15
12/23/2021 8:15:00 AM 2.87 37.166 0.5 7.71 99.7 12.2
12/23/2021 8:30:00 AM 2.88 37.184 0.504 7.72 83.03 12.27
12/23/2021 8:45:00 AM 2.89 37.202 0.505 7.73 95.59 12.39
12/23/2021 9:00:00 AM 2.92 37.256 0.505 7.73 95.35 12.56
12/23/2021 9:15:00 AM 2.95 37.31 0.506 7.74 100.3 12.7
12/23/2021 9:30:00 AM 2.98 37.364 0.507 7.75 103.1 12.86
12/23/2021 9:45:00 AM 3.02 37.436 0.508 7.76 104.5 12.99
12/23/2021 10:00:00 AM 3.06 37.508 0.509 7.77 103.2 13.15
12/23/2021 10:15:00 AM 3.11 37.598 0.51 7.78 96.7 13.31
12/23/2021 10:30:00 AM 3.17 37.706 0.51 7.79 100 13.45
12/23/2021 10:45:00 AM 3.23 37.814 0.511 7.8 93.75 13.57
12/23/2021 11:00:00 AM 3.3 37.94 0.511 7.82 97.44 13.72
12/23/2021 11:15:00 AM 3.49 38.282 0.511 7.82 106 13.93
12/23/2021 11:30:00 AM 3.55 38.39 0.511 7.83 104.4 14.01
12/23/2021 11:45:00 AM 3.64 38.552 0.511 7.84 102.5 14.12
12/23/2021 12:00:00 PM 3.74 38.732 0.511 7.85 99.57 14.19
12/23/2021 12:15:00 PM 3.85 38.93 0.51 7.87 106 14.27
12/23/2021 12:30:00 PM 3.91 39.038 0.509 7.87 98.83 14.3
12/23/2021 12:45:00 PM 3.96 39.128 0.509 7.88 108.1 14.3
12/23/2021 1:00:00 PM 4.02 39.236 0.508 7.89 110.5 14.32
12/23/2021 1:15:00 PM 4.08 39.344 0.507 7.9 98.4 14.35
12/23/2021 1:30:00 PM 4.14 39.452 0.503 7.9 111.9 14.36
12/23/2021 1:45:00 PM 4.2 39.56 0.499 7.9 114.9 14.42
12/23/2021 2:00:00 PM 4.25 39.65 0.498 7.9 112.6 14.44
12/23/2021 2:15:00 PM 4.28 39.704 0.502 7.91 114.7 14.44
12/23/2021 2:30:00 PM 4.33 39.794 0.502 7.91 108.7 14.47
12/23/2021 2:45:00 PM 4.37 39.866 0.501 7.92 119.9 14.49
12/23/2021 3:00:00 PM 4.38 39.884 0.5 7.92 121.2 14.41
12/23/2021 3:15:00 PM 4.4 39.92 0.499 7.93 116.1 14.38
12/23/2021 3:30:00 PM 4.4 39.92 0.499 7.92 115.6 14.31
12/23/2021 3:45:00 PM 4.39 39.902 0.498 7.92 116.6 14.18
12/23/2021 4:00:00 PM 4.37 39.866 0.498 7.94 125 14.06
12/23/2021 4:15:00 PM 4.35 39.83 0.498 7.92 119.9 13.93
12/23/2021 4:30:00 PM 4.33 39.794 0.498 7.91 125.6 13.77
12/23/2021 4:45:00 PM 4.29 39.722 0.498 7.9 117 13.58
12/23/2021 5:00:00 PM 4.26 39.668 0.498 7.89 118.8 13.42
12/23/2021 5:15:00 PM 4.24 39.632 0.498 7.88 124.4 13.24
12/23/2021 5:30:00 PM 4.23 39.614 0.492 7.88 122.1 13.12
12/23/2021 5:45:00 PM 4.21 39.578 0.497 7.86 131.9 12.99
12/23/2021 6:00:00 PM 4.2 39.56 0.497 7.85 119.8 12.89
12/23/2021 6:15:00 PM 4.19 39.542 0.497 7.84 109.8 12.8
12/23/2021 6:30:00 PM 4.19 39.542 0.497 7.83 121 12.72
12/23/2021 6:45:00 PM 4.2 39.56 0.497 7.83 123.7 12.67
12/23/2021 7:00:00 PM 4.2 39.56 0.496 7.82 135 12.62
12/23/2021 7:15:00 PM 4.2 39.56 0.496 7.82 126.1 12.55
12/23/2021 7:30:00 PM 4.21 39.578 0.496 7.81 118 12.49
12/23/2021 7:45:00 PM 4.21 39.578 0.496 7.81 117.4 12.41
12/23/2021 8:00:00 PM 4.22 39.596 0.495 7.81 114.3 12.38
12/23/2021 8:15:00 PM 4.22 39.596 0.495 7.8 117.3 12.3
12/23/2021 8:30:00 PM 4.22 39.596 0.495 7.8 114.4 12.26
12/23/2021 8:45:00 PM 4.23 39.614 0.495 7.8 113 12.2
12/23/2021 9:00:00 PM 4.24 39.632 0.495 7.79 116.6 12.16
12/23/2021 9:15:00 PM 4.26 39.668 0.495 7.77 125.1 12.12
12/23/2021 9:30:00 PM 4.27 39.686 0.496 7.77 110 12.07
12/23/2021 9:45:00 PM 4.29 39.722 0.496 7.78 114.6 12.03
12/23/2021 10:00:00 PM 4.31 39.758 0.496 7.78 115.3 11.99
12/23/2021 10:15:00 PM 4.33 39.794 0.496 7.78 123.1 11.96
12/23/2021 10:30:00 PM 4.34 39.812 0.46 7.78 117.9 11.93
12/23/2021 10:45:00 PM 4.37 39.866 0.497 7.78 131.4 11.89
12/23/2021 11:00:00 PM 4.38 39.884 0.497 7.77 120.2 11.85
12/23/2021 11:15:00 PM 4.39 39.902 0.497 7.76 119 11.82
12/23/2021 11:30:00 PM 4.38 39.884 0.456 7.77 118.9 11.77
12/23/2021 11:45:00 PM 4.38 39.884 0.499 7.76 111.2 11.76
12/24/2021 12:00:00 AM 4.39 39.902 0.501 7.75 119.2 11.72
12/24/2021 12:15:00 AM 4.39 39.902 0.504 7.76 132.2 11.68
12/24/2021 12:30:00 AM 4.39 39.902 0.505 7.75 117.6 11.65
12/24/2021 12:45:00 AM 4.39 39.902 0.477 7.74 122.3 11.63
12/24/2021 1:00:00 AM 4.39 39.902 0.472 7.75 132.3 11.61
12/24/2021 1:15:00 AM 4.39 39.902 0.475 7.74 122.8 11.6
12/24/2021 1:30:00 AM 4.39 39.902 0.457 7.74 119 11.59
12/24/2021 1:45:00 AM 4.39 39.902 0.489 7.74 123.8 11.54
12/24/2021 2:00:00 AM 4.39 39.902 0.485 7.74 124.6 11.54
12/24/2021 2:15:00 AM 4.39 39.902 0.479 7.74 119.8 11.52
12/24/2021 2:30:00 AM 4.39 39.902 0.496 7.74 123.7 11.52
12/24/2021 2:45:00 AM 4.38 39.884 0.497 7.74 121.8 11.51
12/24/2021 3:00:00 AM 4.38 39.884 0.47 7.73 124.6 11.5
12/24/2021 3:15:00 AM 4.39 39.902 0.497 7.73 115.6 11.48
12/24/2021 3:30:00 AM 4.39 39.902 0.496 7.73 120.8 11.49
12/24/2021 3:45:00 AM 4.39 39.902 0.496 7.73 118.6 11.48
12/24/2021 4:00:00 AM 4.4 39.92 0.496 7.73 125.9 11.45
12/24/2021 4:15:00 AM 4.41 39.938 0.495 7.72 129.2 11.46
12/24/2021 4:30:00 AM 4.42 39.956 0.495 7.72 124 11.45
12/24/2021 4:45:00 AM 4.42 39.956 0.495 7.72 121.8 11.43
12/24/2021 5:00:00 AM 4.43 39.974 0.495 7.73 122.9 11.42
12/24/2021 5:15:00 AM 4.44 39.992 0.495 7.73 125.2 11.4
12/24/2021 5:30:00 AM 4.44 39.992 0.495 7.72 115.7 11.41
12/24/2021 5:45:00 AM 4.43 39.974 0.496 7.72 125.1 11.41
12/24/2021 6:00:00 AM 4.42 39.956 0.496 7.71 126.5 11.4
12/24/2021 6:15:00 AM 4.39 39.902 0.496 7.71 126.8 11.4
12/24/2021 6:30:00 AM 4.37 39.866 0.496 7.71 124.7 11.39
12/24/2021 6:45:00 AM 4.33 39.794 0.445 7.72 127.6 11.4
12/24/2021 7:00:00 AM 4.32 39.776 0.497 7.71 128.7 11.39
12/24/2021 7:15:00 AM 4.3 39.74 0.497 7.72 127 11.41
12/24/2021 7:30:00 AM 4.27 39.686 0.484 7.71 112.5 11.42
12/24/2021 7:45:00 AM 4.26 39.668 0.497 7.71 124.9 11.44
12/24/2021 8:00:00 AM 4.25 39.65 0.497 7.71 126.6 11.5
12/24/2021 8:15:00 AM 4.24 39.632 0.497 7.72 121.7 11.57
12/24/2021 8:30:00 AM 4.24 39.632 0.497 7.73 123.8 11.67
12/24/2021 8:45:00 AM 4.23 39.614 0.497 7.72 127.6 11.79
12/24/2021 9:00:00 AM 4.23 39.614 0.497 7.73 122 11.92
12/24/2021 9:15:00 AM 4.26 39.668 0.497 7.74 129 12.11
12/24/2021 9:30:00 AM 4.3 39.74 0.497 7.75 131.1 12.29
12/24/2021 9:45:00 AM 4.35 39.83 0.496 7.76 124.6 12.46
12/24/2021 10:00:00 AM 4.41 39.938 0.496 7.77 128.5 12.64
12/24/2021 10:15:00 AM 4.49 40.082 0.496 7.78 131.1 12.8
12/24/2021 10:30:00 AM 4.58 40.244 0.496 7.8 129.5 12.94
12/24/2021 10:45:00 AM 4.68 40.424 0.496 7.81 116.3 13.09
12/24/2021 11:00:00 AM 4.79 40.622 0.495 7.83 126.9 13.2
12/24/2021 11:15:00 AM 4.91 40.838 0.495 7.84 134.8 13.32
12/24/2021 11:30:00 AM 5 41 0.495 7.84 136.9 13.4
12/24/2021 11:45:00 AM 5.13 41.234 0.495 7.85 141.4 13.52
12/24/2021 12:00:00 PM 5.28 41.504 0.494 7.88 130.2 13.64
12/24/2021 12:15:00 PM 5.4 41.72 0.494 7.88 136.4 13.72
12/24/2021 12:30:00 PM 5.51 41.918 0.494 7.89 139.5 13.78
12/24/2021 12:45:00 PM 5.63 42.134 0.494 7.9 135.6 13.81
12/24/2021 1:00:00 PM 5.72 42.296 0.494 7.91 138.2 13.89
12/24/2021 1:15:00 PM 5.83 42.494 0.494 7.91 135.6 13.93
12/24/2021 1:30:00 PM 5.93 42.674 0.494 7.92 132.9 13.95
12/24/2021 1:45:00 PM 5.98 42.764 0.494 7.92 137.9 13.95
12/24/2021 2:00:00 PM 6.06 42.908 0.494 7.92 127.5 13.96
12/24/2021 2:15:00 PM 6.14 43.052 0.494 7.92 128.9 13.98
12/24/2021 2:30:00 PM 6.18 43.124 0.494 7.93 138.4 13.93
12/24/2021 2:45:00 PM 6.2 43.16 0.494 7.92 129 13.81
12/24/2021 3:00:00 PM 6.24 43.232 0.493 7.92 138.9 13.8
12/24/2021 3:15:00 PM 6.24 43.232 0.493 7.92 141 13.63
12/24/2021 3:30:00 PM 6.25 43.25 0.473 7.91 128.5 13.52
12/24/2021 3:45:00 PM 6.25 43.25 0.458 7.91 126.5 13.41
12/24/2021 4:00:00 PM 6.24 43.232 0.462 7.9 141.2 13.19
12/24/2021 4:15:00 PM 6.22 43.196 0.459 7.9 131.6 13.03
12/24/2021 4:30:00 PM 6.21 43.178 0.485 7.88 133.8 12.83
12/24/2021 4:45:00 PM 6.18 43.124 0.495 7.87 140.8 12.69
12/24/2021 5:00:00 PM 6.16 43.088 0.473 7.85 145.2 12.54
12/24/2021 5:15:00 PM 6.15 43.07 0.435 7.84 135.5 12.37
12/24/2021 5:30:00 PM 6.13 43.034 0.495 7.83 142.9 12.25
12/24/2021 5:45:00 PM 6.11 42.998 0.495 7.83 135.8 12.14
12/24/2021 6:00:00 PM 6.11 42.998 0.495 7.81 137.6 12.03
12/24/2021 6:15:00 PM 6.09 42.962 0.495 7.82 131.9 11.94
12/24/2021 6:30:00 PM 6.08 42.944 0.495 7.81 137.4 11.88
12/24/2021 6:45:00 PM 6.08 42.944 0.495 7.81 141.1 11.78
12/24/2021 7:00:00 PM 6.07 42.926 0.495 7.82 133.5 11.73
12/24/2021 7:15:00 PM 6.05 42.89 0.495 7.8 126.2 11.65
12/24/2021 7:30:00 PM 6.05 42.89 0.495 7.8 127.1 11.59
12/24/2021 7:45:00 PM 6.04 42.872 0.495 7.79 136.7 11.52
12/24/2021 8:00:00 PM 6.05 42.89 0.495 7.78 132.7 11.46
12/24/2021 8:15:00 PM 6.06 42.908 0.495 7.78 123.8 11.41
12/24/2021 8:30:00 PM 6.08 42.944 0.496 7.78 124.9 11.35
12/24/2021 8:45:00 PM 6.09 42.962 0.496 7.77 140.6 11.29
12/24/2021 9:00:00 PM 6.11 42.998 0.496 7.76 140.5 11.24
12/24/2021 9:15:00 PM 6.14 43.052 0.496 7.76 133.5 11.18
12/24/2021 9:30:00 PM 6.16 43.088 0.495 7.76 135.3 11.15
12/24/2021 9:45:00 PM 6.19 43.142 0.495 7.76 132.8 11.11
12/24/2021 10:00:00 PM 6.21 43.178 0.495 7.75 139.8 11.05
12/24/2021 10:15:00 PM 6.23 43.214 0.495 7.75 135.8 11.02
12/24/2021 10:30:00 PM 6.26 43.268 0.495 7.74 130 10.98
12/24/2021 10:45:00 PM 6.28 43.304 0.495 7.74 133.9 10.94
12/24/2021 11:00:00 PM 6.29 43.322 0.495 7.74 128.9 10.89
12/24/2021 11:15:00 PM 6.31 43.358 0.495 7.74 140.5 10.87
12/24/2021 11:30:00 PM 6.33 43.394 0.495 7.74 129.1 10.84
12/24/2021 11:45:00 PM 6.35 43.43 0.494 7.74 132.6 10.8
12/25/2021 12:00:00 AM 6.37 43.466 0.494 7.73 130.4 10.76
12/25/2021 12:15:00 AM 6.38 43.484 0.494 7.73 125.6 10.73
12/25/2021 12:30:00 AM 6.39 43.502 0.494 7.73 125.7 10.7
12/25/2021 12:45:00 AM 6.41 43.538 0.494 7.73 134.5 10.67
12/25/2021 1:00:00 AM 6.42 43.556 0.493 7.72 126.1 10.65
12/25/2021 1:15:00 AM 6.43 43.574 0.493 7.72 127.4 10.62
12/25/2021 1:30:00 AM 6.43 43.574 0.493 7.71 130.7 10.59
12/25/2021 1:45:00 AM 6.43 43.574 0.493 7.71 131.8 10.58
12/25/2021 2:00:00 AM 6.43 43.574 0.492 7.71 133.4 10.56
12/25/2021 2:15:00 AM 6.43 43.574 0.492 7.7 131.1 10.53
12/25/2021 2:30:00 AM 6.43 43.574 0.492 7.7 127.8 10.52
12/25/2021 2:45:00 AM 6.43 43.574 0.492 7.7 132.8 10.51
12/25/2021 3:00:00 AM 6.43 43.574 0.491 7.7 133 10.49
12/25/2021 3:15:00 AM 6.43 43.574 0.491 7.7 128 10.49
12/25/2021 3:30:00 AM 6.44 43.592 0.491 7.71 137.1 10.47
12/25/2021 3:45:00 AM 6.45 43.61 0.491 7.7 140.8 10.46
12/25/2021 4:00:00 AM 6.45 43.61 0.491 7.71 137.6 10.42
12/25/2021 4:15:00 AM 6.46 43.628 0.491 7.7 134.8 10.43
12/25/2021 4:30:00 AM 6.47 43.646 0.491 7.71 126.2 10.42
12/25/2021 4:45:00 AM 6.47 43.646 0.491 7.7 134.7 10.41
12/25/2021 5:00:00 AM 6.48 43.664 0.491 7.7 130.4 10.41
12/25/2021 5:15:00 AM 6.49 43.682 0.491 7.69 137.8 10.39
12/25/2021 5:30:00 AM 6.49 43.682 0.491 7.69 141.3 10.37
12/25/2021 5:45:00 AM 6.5 43.7 0.491 7.69 135.2 10.37
12/25/2021 6:00:00 AM 6.51 43.718 0.491 7.69 139.1 10.36
12/25/2021 6:15:00 AM 6.51 43.718 0.491 7.69 140.5 10.36
12/25/2021 6:30:00 AM 6.52 43.736 0.491 7.69 136.9 10.35
12/25/2021 6:45:00 AM 6.53 43.754 0.491 7.69 133 10.34
12/25/2021 7:00:00 AM 6.53 43.754 0.491 7.68 114.1 10.34
12/25/2021 7:15:00 AM 6.54 43.772 0.491 7.69 136.6 10.32
12/25/2021 7:30:00 AM 6.54 43.772 0.491 7.68 125.9 10.34
12/25/2021 7:45:00 AM 6.55 43.79 0.497 7.68 137.4 10.31
12/25/2021 8:00:00 AM 6.55 43.79 0.495 7.69 135.9 10.31
12/25/2021 8:15:00 AM 6.56 43.808 0.493 7.68 137 10.32
12/25/2021 8:30:00 AM 6.57 43.826 0.493 7.69 123 10.35
12/25/2021 8:45:00 AM 6.58 43.844 0.494 7.68 127.2 10.43
12/25/2021 9:00:00 AM 6.6 43.88 0.494 7.68 134.5 10.5
12/25/2021 9:15:00 AM 6.63 43.934 0.493 7.69 132.1 10.55
12/25/2021 9:30:00 AM 6.65 43.97 0.493 7.69 146.6 10.57
12/25/2021 9:45:00 AM 6.67 44.006 0.494 7.7 131.5 10.68
12/25/2021 10:00:00 AM 6.71 44.078 0.494 7.7 136.7 10.79
12/25/2021 10:15:00 AM 6.77 44.186 0.494 7.71 131.4 11
12/25/2021 10:30:00 AM 6.8 44.24 0.493 7.72 138.7 11.01
12/25/2021 10:45:00 AM 6.83 44.294 0.493 7.73 132.9 11.05
12/25/2021 11:00:00 AM 6.86 44.348 0.494 7.73 131.6 11.11
12/25/2021 11:15:00 AM 6.88 44.384 0.49 7.73 130.2 11.16
12/25/2021 11:30:00 AM 6.93 44.474 0.492 7.75 143.3 11.28
12/25/2021 11:45:00 AM 7 44.6 0.493 7.75 139.6 11.32
12/25/2021 12:00:00 PM 7.09 44.762 0.494 7.75 131.1 11.48
12/25/2021 12:15:00 PM 7.17 44.906 0.493 7.76 128.6 11.65
12/25/2021 12:30:00 PM 7.24 45.032 0.493 7.77 135.8 11.85
12/25/2021 12:45:00 PM 7.43 45.374 0.472 7.79 133.7 12.11
12/25/2021 1:00:00 PM 7.46 45.428 0.482 7.8 134.2 12.18
12/25/2021 1:15:00 PM 7.51 45.518 0.492 7.82 131.1 12.24
12/25/2021 1:30:00 PM 7.59 45.662 0.456 7.83 115 12.33
12/25/2021 1:45:00 PM 7.67 45.806 0.467 7.83 128.2 12.36
12/25/2021 2:00:00 PM 7.75 45.95 0.478 7.83 132.6 12.41
12/25/2021 2:15:00 PM 7.86 46.148 0.481 7.85 128.8 12.49
12/25/2021 2:30:00 PM 7.92 46.256 0.487 7.85 124.8 12.51
12/25/2021 2:45:00 PM 7.99 46.382 0.491 7.86 129.2 12.54
12/25/2021 3:00:00 PM 8.03 46.454 0.492 7.85 123.4 12.45
12/25/2021 3:15:00 PM 8.08 46.544 0.487 7.86 126.7 12.41
12/25/2021 3:30:00 PM 8.13 46.634 0.496 7.85 125.7 12.36
12/25/2021 3:45:00 PM 8.16 46.688 0.494 7.85 120 12.25
12/25/2021 4:00:00 PM 8.18 46.724 0.496 7.85 125.5 12.04
12/25/2021 4:15:00 PM 8.2 46.76 0.491 7.84 122.8 11.9
12/25/2021 4:30:00 PM 8.21 46.778 0.494 7.82 113.4 11.73
12/25/2021 4:45:00 PM 8.23 46.814 0.493 7.81 123.7 11.55
12/25/2021 5:00:00 PM 8.24 46.832 0.491 7.81 138.3 11.38
12/25/2021 5:15:00 PM 8.25 46.85 0.491 7.8 127.8 11.23
12/25/2021 5:30:00 PM 8.26 46.868 0.489 7.78 129.9 11.09
12/25/2021 5:45:00 PM 8.28 46.904 0.488 7.77 128.6 10.98
12/25/2021 6:00:00 PM 8.29 46.922 0.487 7.76 126.1 10.89
12/25/2021 6:15:00 PM 8.31 46.958 0.487 7.75 129 10.81
12/25/2021 6:30:00 PM 8.32 46.976 0.488 7.74 117.6 10.73
12/25/2021 6:45:00 PM 8.34 47.012 0.488 7.74 129.1 10.65
12/25/2021 7:00:00 PM 8.36 47.048 0.487 7.73 128.7 10.58
12/25/2021 7:15:00 PM 8.38 47.084 0.487 7.74 126.9 10.52
12/25/2021 7:30:00 PM 8.39 47.102 0.488 7.73 121.2 10.46
12/25/2021 7:45:00 PM 8.41 47.138 0.488 7.73 136.2 10.39
12/25/2021 8:00:00 PM 8.43 47.174 0.487 7.72 121.4 10.35
12/25/2021 8:15:00 PM 8.45 47.21 0.487 7.72 146.7 10.31
12/25/2021 8:30:00 PM 8.48 47.264 0.486 7.72 132.8 10.26
12/25/2021 8:45:00 PM 8.51 47.318 0.485 7.71 137.8 10.22
12/25/2021 9:00:00 PM 8.54 47.372 0.485 7.72 147.6 10.18
12/25/2021 9:15:00 PM 8.58 47.444 0.484 7.71 135.2 10.15
12/25/2021 9:30:00 PM 8.6 47.48 0.483 7.71 131.4 10.1
12/25/2021 9:45:00 PM 8.62 47.516 0.483 7.71 137.1 10.08
12/25/2021 10:00:00 PM 8.65 47.57 0.482 7.71 137.3 10.05
12/25/2021 10:15:00 PM 8.67 47.606 0.482 7.7 121.6 10.01
12/25/2021 10:30:00 PM 8.68 47.624 0.481 7.7 141.4 9.98
12/25/2021 10:45:00 PM 8.67 47.606 0.48 7.7 146 9.96
12/25/2021 11:00:00 PM 8.66 47.588 0.48 7.7 119.1 9.92
12/25/2021 11:15:00 PM 8.64 47.552 0.479 7.7 130.1 9.88
12/25/2021 11:30:00 PM 8.63 47.534 0.479 7.69 124.7 9.85
12/25/2021 11:45:00 PM 8.61 47.498 0.478 7.69 125.7 9.83
12/26/2021 12:00:00 AM 8.59 47.462 0.478 7.68 135.3 9.81
12/26/2021 12:15:00 AM 8.57 47.426 0.478 7.68 120.2 9.78
12/26/2021 12:30:00 AM 8.54 47.372 0.477 7.68 126.9 9.75
12/26/2021 12:45:00 AM 8.52 47.336 0.477 7.68 140.1 9.75
12/26/2021 1:00:00 AM 8.49 47.282 0.477 7.68 140 9.73
12/26/2021 1:15:00 AM 8.49 47.282 0.471 7.68 138.8 9.7
12/26/2021 1:30:00 AM 8.46 47.228 0.477 7.68 139.9 9.71
12/26/2021 1:45:00 AM 8.42 47.156 0.401 7.68 121.8 9.7
12/26/2021 2:00:00 AM 8.4 47.12 0.473 7.68 140.9 9.69
12/26/2021 2:15:00 AM 8.38 47.084 0.407 7.67 143.5 9.7
12/26/2021 2:30:00 AM 8.33 46.994 0.476 7.67 132.3 9.69
12/26/2021 2:45:00 AM 8.31 46.958 0.455 7.67 129.8 9.7
12/26/2021 3:00:00 AM 8.31 46.958 0.463 7.67 145.3 9.68
12/26/2021 3:15:00 AM 8.28 46.904 0.476 7.67 141.9 9.69
12/26/2021 3:30:00 AM 8.23 46.814 0.477 7.67 125.4 9.7
12/26/2021 3:45:00 AM 8.19 46.742 0.445 7.67 127.3 9.7
12/26/2021 4:00:00 AM 8.17 46.706 0.477 7.67 128.5 9.71
12/26/2021 4:15:00 AM 8.13 46.634 0.477 7.67 122.2 9.71
12/26/2021 4:30:00 AM 8.09 46.562 0.455 7.67 147.6 9.73
12/26/2021 4:45:00 AM 8.06 46.508 0.475 7.67 125.1 9.73
12/26/2021 5:00:00 AM 8.03 46.454 0.466 7.67 123.1 9.74
12/26/2021 5:15:00 AM 8.01 46.418 0.478 7.66 126.7 9.74
12/26/2021 5:30:00 AM 7.98 46.364 0.42 7.67 150.6 9.76
12/26/2021 5:45:00 AM 7.96 46.328 0.478 7.67 120.4 9.76
12/26/2021 6:00:00 AM 7.96 46.328 0.467 7.67 137.8 9.78
12/26/2021 6:15:00 AM 7.94 46.292 0.477 7.67 127.5 9.79
12/26/2021 6:30:00 AM 7.92 46.256 0.477 7.67 127 9.79
12/26/2021 6:45:00 AM 7.89 46.202 0.478 7.66 126 9.8
12/26/2021 7:00:00 AM 7.86 46.148 0.479 7.66 135 9.81
12/26/2021 7:15:00 AM 7.83 46.094 0.445 7.67 125.9 9.82
12/26/2021 7:30:00 AM 7.8 46.04 0.479 7.66 137.1 9.86
12/26/2021 7:45:00 AM 7.75 45.95 0.48 7.67 122.5 9.91
12/26/2021 8:00:00 AM 7.71 45.878 0.48 7.67 124.5 9.99
12/26/2021 8:15:00 AM 7.69 45.842 0.48 7.67 128.7 10.1
12/26/2021 8:30:00 AM 7.66 45.788 0.48 7.69 131.1 10.21
12/26/2021 8:45:00 AM 7.62 45.716 0.481 7.69 128.2 10.33
12/26/2021 9:00:00 AM 7.59 45.662 0.481 7.69 130.4 10.5
12/26/2021 9:15:00 AM 7.58 45.644 0.481 7.71 126.3 10.74
12/26/2021 9:30:00 AM 7.57 45.626 0.481 7.72 131.6 10.92
12/26/2021 9:45:00 AM 7.55 45.59 0.481 7.73 125.7 11.06
12/26/2021 10:00:00 AM 7.52 45.536 0.481 7.74 127.7 11.19
12/26/2021 10:15:00 AM 7.51 45.518 0.482 7.76 119.2 11.32
12/26/2021 10:30:00 AM 7.56 45.608 0.482 7.77 120.2 11.56
12/26/2021 10:45:00 AM 7.64 45.752 0.482 7.79 124.1 11.76
12/26/2021 11:00:00 AM 7.7 45.86 0.482 7.82 139.9 11.95
12/26/2021 11:15:00 AM 7.77 45.986 0.482 7.82 131.2 12.11
12/26/2021 11:30:00 AM 7.83 46.094 0.482 7.84 133 12.26
12/26/2021 11:45:00 AM 7.92 46.256 0.482 7.86 132.8 12.44
12/26/2021 12:00:00 PM 8.03 46.454 0.482 7.87 130.3 12.62
12/26/2021 12:15:00 PM 8.13 46.634 0.482 7.88 130.2 12.75
12/26/2021 12:30:00 PM 8.22 46.796 0.483 7.9 141.6 12.85
12/26/2021 12:45:00 PM 8.31 46.958 0.483 7.91 140.2 12.94
12/26/2021 1:00:00 PM 8.4 47.12 0.483 7.92 134.7 13.02
12/26/2021 1:15:00 PM 8.48 47.264 0.468 7.93 126.7 13.09
12/26/2021 1:30:00 PM 8.57 47.426 0.484 7.94 127.1 13.15
12/26/2021 1:45:00 PM 8.62 47.516 0.484 7.95 134 13.18
12/26/2021 2:00:00 PM 8.67 47.606 0.484 7.96 137.1 13.16
12/26/2021 2:15:00 PM 8.69 47.642 0.484 7.96 124.8 13.14
12/26/2021 2:30:00 PM 8.69 47.642 0.484 7.95 148.9 13.06
12/26/2021 2:45:00 PM 8.68 47.624 0.485 7.95 130.7 13
12/26/2021 3:00:00 PM 8.65 47.57 0.485 7.95 125.9 12.93
12/26/2021 3:15:00 PM 8.61 47.498 0.485 7.95 124.6 12.83
12/26/2021 3:30:00 PM 8.54 47.372 0.486 7.95 134.2 12.67
12/26/2021 3:45:00 PM 8.48 47.264 0.486 7.93 125.3 12.57
12/26/2021 4:00:00 PM 8.42 47.156 0.489 7.94 130.7 12.46
12/26/2021 4:15:00 PM 8.37 47.066 0.487 7.92 122.1 12.36
12/26/2021 4:30:00 PM 8.3 46.94 0.487 7.92 133.8 12.24
12/26/2021 4:45:00 PM 8.23 46.814 0.488 7.91 127.7 12.11
12/26/2021 5:00:00 PM 8.18 46.724 0.487 7.9 126.9 11.96
12/26/2021 5:15:00 PM 8.11 46.598 0.488 7.88 120.8 11.82
12/26/2021 5:30:00 PM 8.05 46.49 0.488 7.87 137.9 11.69
12/26/2021 5:45:00 PM 7.98 46.364 0.488 7.86 138.9 11.56
12/26/2021 6:00:00 PM 7.93 46.274 0.489 7.85 130.8 11.42
12/26/2021 6:15:00 PM 7.87 46.166 0.489 7.84 137.6 11.31
12/26/2021 6:30:00 PM 7.8 46.04 0.489 7.83 138.3 11.23
12/26/2021 6:45:00 PM 7.74 45.932 0.466 7.83 133 11.14
12/26/2021 7:00:00 PM 7.68 45.824 0.49 7.82 136.8 11.09
12/26/2021 7:15:00 PM 7.62 45.716 0.49 7.81 122.4 11.03
12/26/2021 7:30:00 PM 7.56 45.608 0.49 7.81 142.2 10.98
12/26/2021 7:45:00 PM 7.51 45.518 0.49 7.8 134.3 10.93
12/26/2021 8:00:00 PM 7.45 45.41 0.49 7.8 133.7 10.88
12/26/2021 8:15:00 PM 7.41 45.338 0.49 7.8 139.1 10.84
12/26/2021 8:30:00 PM 7.36 45.248 0.49 7.79 140.6 10.79
12/26/2021 8:45:00 PM 7.31 45.158 0.49 7.79 132.6 10.76
12/26/2021 9:00:00 PM 7.26 45.068 0.491 7.79 122.2 10.73
12/26/2021 9:15:00 PM 7.21 44.978 0.491 7.79 124.5 10.69
12/26/2021 9:30:00 PM 7.16 44.888 0.491 7.78 112.8 10.66
12/26/2021 9:45:00 PM 7.11 44.798 0.491 7.78 134.7 10.64
12/26/2021 10:00:00 PM 7.06 44.708 0.491 7.78 147.5 10.63
12/26/2021 10:15:00 PM 7.01 44.618 0.491 7.78 145.2 10.62
12/26/2021 10:30:00 PM 6.96 44.528 0.469 7.77 123 10.61
12/26/2021 10:45:00 PM 6.91 44.438 0.478 7.77 144.9 10.6
12/26/2021 11:00:00 PM 6.85 44.33 0.49 7.77 147.5 10.6
12/26/2021 11:15:00 PM 6.8 44.24 0.49 7.76 137.3 10.6
12/26/2021 11:30:00 PM 6.75 44.15 0.491 7.76 143.8 10.58
12/26/2021 11:45:00 PM 6.69 44.042 0.446 7.76 146.4 10.57
12/27/2021 12:00:00 AM 6.64 43.952 0.491 7.76 143.7 10.58
12/27/2021 12:15:00 AM 6.58 43.844 0.491 7.75 170.4 10.58
12/27/2021 12:30:00 AM 6.53 43.754 0.491 7.76 142.6 10.57
12/27/2021 12:45:00 AM 6.48 43.664 0.491 7.76 144.1 10.56
12/27/2021 1:00:00 AM 6.43 43.574 0.491 7.75 142.4 10.57
12/27/2021 1:15:00 AM 6.39 43.502 0.491 7.74 138.1 10.56
12/27/2021 1:30:00 AM 6.33 43.394 0.491 7.74 132.5 10.57
12/27/2021 1:45:00 AM 6.28 43.304 0.476 7.74 131.4 10.58
12/27/2021 2:00:00 AM 6.24 43.232 0.491 7.73 137.8 10.58
12/27/2021 2:15:00 AM 6.2 43.16 0.49 7.73 127.5 10.57
12/27/2021 2:30:00 AM 6.16 43.088 0.49 7.73 129.6 10.6
12/27/2021 2:45:00 AM 6.13 43.034 0.49 7.73 127.1 10.59
12/27/2021 3:00:00 AM 6.1 42.98 0.49 7.73 143 10.59
12/27/2021 3:15:00 AM 6.08 42.944 0.49 7.73 131.2 10.61
12/27/2021 3:30:00 AM 6.04 42.872 0.49 7.73 127.9 10.63
12/27/2021 3:45:00 AM 6.02 42.836 0.49 7.73 137.7 10.63
12/27/2021 4:00:00 AM 5.99 42.782 0.49 7.73 133.4 10.63
12/27/2021 4:15:00 AM 5.97 42.746 0.49 7.73 144.9 10.65
12/27/2021 4:30:00 AM 5.95 42.71 0.49 7.73 129.9 10.64
12/27/2021 4:45:00 AM 5.93 42.674 0.49 7.73 127.7 10.67
12/27/2021 5:00:00 AM 5.91 42.638 0.49 7.74 134.8 10.66
12/27/2021 5:15:00 AM 5.88 42.584 0.49 7.73 128.1 10.68
12/27/2021 5:30:00 AM 5.86 42.548 0.49 7.73 131.6 10.69
12/27/2021 5:45:00 AM 5.84 42.512 0.49 7.72 144.3 10.7
12/27/2021 6:00:00 AM 5.82 42.476 0.491 7.72 142.9 10.7
12/27/2021 6:15:00 AM 5.8 42.44 0.491 7.72 141.1 10.7
12/27/2021 6:30:00 AM 5.78 42.404 0.491 7.72 133.4 10.72
12/27/2021 6:45:00 AM 5.76 42.368 0.491 7.73 134.2 10.73
12/27/2021 7:00:00 AM 5.75 42.35 0.491 7.72 121.6 10.73
12/27/2021 7:15:00 AM 5.73 42.314 0.491 7.72 134.3 10.74
12/27/2021 7:30:00 AM 5.7 42.26 0.491 7.72 131.5 10.76
12/27/2021 7:45:00 AM 5.66 42.188 0.492 7.72 136.5 10.77
12/27/2021 8:00:00 AM 5.66 42.188 0.492 7.72 134.3 10.79
12/27/2021 8:15:00 AM 5.64 42.152 0.492 7.72 138.8 10.83
12/27/2021 8:30:00 AM 5.64 42.152 0.492 7.72 124.5 10.91
12/27/2021 8:45:00 AM 5.63 42.134 0.492 7.72 123.7 10.89
12/27/2021 9:00:00 AM 5.62 42.116 0.492 7.73 140 10.93
12/27/2021 9:15:00 AM 5.62 42.116 0.492 7.73 139.5 10.97
12/27/2021 9:30:00 AM 5.61 42.098 0.493 7.73 140.5 11
12/27/2021 9:45:00 AM 5.5 41.9 0.492 7.73 145.8 11.08
12/27/2021 10:00:00 AM 5.11 41.198 0.491 7.74 139.9 11.21
12/27/2021 10:15:00 AM 4.94 40.892 0.49 7.75 138 11.42
12/27/2021 10:30:00 AM 4.78 40.604 0.489 7.76 137.2 11.57
12/27/2021 10:45:00 AM 4.62 40.316 0.488 7.78 136.4 11.82
12/27/2021 11:00:00 AM 4.52 40.136 0.487 7.79 141.9 12.05
12/27/2021 11:15:00 AM 4.42 39.956 0.486 7.81 139.1 12.26
12/27/2021 11:30:00 AM 4.42 39.956 0.486 7.83 132.4 12.48
12/27/2021 11:45:00 AM 4.51 40.118 0.486 7.85 134.8 12.65
12/27/2021 12:00:00 PM 4.6 40.28 0.486 7.86 141.3 12.71
12/27/2021 12:15:00 PM 4.69 40.442 0.486 7.86 133.8 12.86
12/27/2021 12:30:00 PM 4.78 40.604 0.486 7.87 133.9 12.92
12/27/2021 12:45:00 PM 4.86 40.748 0.487 7.87 135.3 12.94
12/27/2021 1:00:00 PM 4.93 40.874 0.487 7.88 136.5 12.99
12/27/2021 1:15:00 PM 5 41 0.487 7.88 136.5 13.09
12/27/2021 1:30:00 PM 5.04 41.072 0.487 7.89 138 13.1
12/27/2021 1:45:00 PM 5.07 41.126 0.486 7.9 134.4 13.17
12/27/2021 2:00:00 PM 5.11 41.198 0.486 7.9 136.3 13.22
12/27/2021 2:15:00 PM 5.14 41.252 0.486 7.91 136.3 13.26
12/27/2021 2:30:00 PM 5.18 41.324 0.486 7.9 134.2 13.26
12/27/2021 2:45:00 PM 5.2 41.36 0.486 7.91 133.5 13.21
12/27/2021 3:00:00 PM 5.23 41.414 0.486 7.91 135.9 13.15
12/27/2021 3:15:00 PM 5.26 41.468 0.477 7.9 126 13.11
12/27/2021 3:30:00 PM 5.29 41.522 0.487 7.89 133.5 12.99
12/27/2021 3:45:00 PM 5.3 41.54 0.487 7.88 129 12.85
12/27/2021 4:00:00 PM 5.31 41.558 0.47 7.87 133.1 12.76
12/27/2021 4:15:00 PM 5.31 41.558 0.45 7.87 131.2 12.63
12/27/2021 4:30:00 PM 5.29 41.522 0.489 7.85 127.7 12.48
12/27/2021 4:45:00 PM 5.27 41.486 0.488 7.85 128.1 12.4
12/27/2021 5:00:00 PM 5.25 41.45 0.462 7.84 141.6 12.28
12/27/2021 5:15:00 PM 5.22 41.396 0.488 7.83 127.3 12.19
12/27/2021 5:30:00 PM 5.2 41.36 0.487 7.83 132.8 12.11
12/27/2021 5:45:00 PM 5.18 41.324 0.486 7.81 133.5 12.04
12/27/2021 6:00:00 PM 5.15 41.27 0.485 7.8 123.7 11.98
12/27/2021 6:15:00 PM 5.13 41.234 0.486 7.79 126.1 11.93
12/27/2021 6:30:00 PM 5.1 41.18 0.485 7.79 124.9 11.88
12/27/2021 6:45:00 PM 5.11 41.198 0.485 7.78 127.6 11.82
12/27/2021 7:00:00 PM 5.1 41.18 0.485 7.78 130 11.79
12/27/2021 7:15:00 PM 5.1 41.18 0.486 7.77 130 11.74
12/27/2021 7:30:00 PM 5.08 41.144 0.486 7.78 138.8 11.72
12/27/2021 7:45:00 PM 5.06 41.108 0.486 7.77 132.2 11.69
12/27/2021 8:00:00 PM 5.04 41.072 0.487 7.76 138.5 11.65
12/27/2021 8:15:00 PM 5.02 41.036 0.489 7.75 133.2 11.6
12/27/2021 8:30:00 PM 5.05 41.09 0.492 7.75 131.3 11.55
12/27/2021 8:45:00 PM 5.07 41.126 0.493 7.74 132.5 11.51
12/27/2021 9:00:00 PM 5.09 41.162 0.488 7.74 140 11.48
12/27/2021 9:15:00 PM 5.11 41.198 0.494 7.73 138.8 11.46
12/27/2021 9:30:00 PM 5.09 41.162 0.475 7.74 141 11.44
12/27/2021 9:45:00 PM 5.1 41.18 0.467 7.73 141.4 11.4
12/27/2021 10:00:00 PM 5.11 41.198 0.494 7.73 139.4 11.37
12/27/2021 10:15:00 PM 5.14 41.252 0.495 7.72 142.5 11.35
12/27/2021 10:30:00 PM 5.15 41.27 0.495 7.73 140.2 11.33
12/27/2021 10:45:00 PM 5.16 41.288 0.496 7.72 139.5 11.3
12/27/2021 11:00:00 PM 5.17 41.306 0.498 7.72 142.1 11.27
12/27/2021 11:15:00 PM 5.18 41.324 0.499 7.71 135.1 11.25
12/27/2021 11:30:00 PM 5.19 41.342 0.5 7.72 142.5 11.23
12/27/2021 11:45:00 PM 5.21 41.378 0.501 7.71 135.3 11.17
12/28/2021 12:00:00 AM 5.22 41.396 0.502 7.71 143.2 11.16
12/28/2021 12:15:00 AM 5.23 41.414 0.501 7.7 147.4 11.12
12/28/2021 12:30:00 AM 5.24 41.432 0.5 7.7 141 11.09
12/28/2021 12:45:00 AM 5.25 41.45 0.499 7.7 137.8 11.09
12/28/2021 1:00:00 AM 5.26 41.468 0.497 7.69 139.1 11.06
12/28/2021 1:15:00 AM 5.27 41.486 0.496 7.69 141.2 11.02
12/28/2021 1:30:00 AM 5.27 41.486 0.496 7.69 142.2 11.03
12/28/2021 1:45:00 AM 5.28 41.504 0.495 7.69 141.1 10.99
12/28/2021 2:00:00 AM 5.28 41.504 0.495 7.69 141.7 10.98
12/28/2021 2:15:00 AM 5.27 41.486 0.494 7.68 145.9 10.95
12/28/2021 2:30:00 AM 5.24 41.432 0.494 7.68 143.3 10.95
12/28/2021 2:45:00 AM 5.21 41.378 0.493 7.68 148.8 10.95
12/28/2021 3:00:00 AM 5.18 41.324 0.492 7.68 145.7 10.95
12/28/2021 3:15:00 AM 5.14 41.252 0.491 7.69 144.8 10.93
12/28/2021 3:30:00 AM 5.11 41.198 0.489 7.7 142.6 10.93
12/28/2021 3:45:00 AM 5.09 41.162 0.487 7.71 140.3 10.94
12/28/2021 4:00:00 AM 5.06 41.108 0.486 7.71 139.5 10.94
12/28/2021 4:15:00 AM 5.03 41.054 0.485 7.72 148.9 10.95
12/28/2021 4:30:00 AM 5.01 41.018 0.483 7.71 142.6 10.96
12/28/2021 4:45:00 AM 4.99 40.982 0.482 7.72 146.3 10.97
12/28/2021 5:00:00 AM 4.98 40.964 0.481 7.71 141.3 10.98
12/28/2021 5:15:00 AM 4.96 40.928 0.48 7.72 143.3 10.97
12/28/2021 5:30:00 AM 4.95 40.91 0.479 7.72 146.8 10.99
12/28/2021 5:45:00 AM 4.94 40.892 0.478 7.72 142.6 10.99
12/28/2021 6:00:00 AM 4.93 40.874 0.477 7.72 141.1 11.01
12/28/2021 6:15:00 AM 4.92 40.856 0.475 7.72 141.5 11.01
12/28/2021 6:30:00 AM 4.91 40.838 0.474 7.73 142.9 11.01
12/28/2021 6:45:00 AM 4.89 40.802 0.472 7.74 147.2 11
12/28/2021 7:00:00 AM 4.88 40.784 0.471 7.73 140.6 11.02
12/28/2021 7:15:00 AM 4.86 40.748 0.469 7.74 142.6 11.04
12/28/2021 7:30:00 AM 4.83 40.694 0.468 7.74 134.6 11.06
12/28/2021 7:45:00 AM 4.81 40.658 0.467 7.73 138.2 11.09
12/28/2021 8:00:00 AM 4.8 40.64 0.466 7.73 140 11.15
12/28/2021 8:15:00 AM 4.78 40.604 0.464 7.73 145.1 11.2
12/28/2021 8:30:00 AM 4.76 40.568 0.464 7.74 142.8 11.28
12/28/2021 8:45:00 AM 4.75 40.55 0.463 7.74 151.5 11.37
12/28/2021 9:00:00 AM 4.75 40.55 0.462 7.74 145.7 11.49
12/28/2021 9:15:00 AM 4.77 40.586 0.462 7.75 148.8 11.65
12/28/2021 9:30:00 AM 4.81 40.658 0.461 7.76 143.8 11.83
12/28/2021 9:45:00 AM 4.86 40.748 0.461 7.76 143.9 11.98
12/28/2021 10:00:00 AM 4.92 40.856 0.46 7.77 145.1 12.14
12/28/2021 10:15:00 AM 4.94 40.892 0.461 7.77 150.8 12.19
12/28/2021 10:30:00 AM 5.01 41.018 0.443 7.77 144.9 12.33
12/28/2021 10:45:00 AM 5.1 41.18 0.43 7.77 150.5 12.4
12/28/2021 11:00:00 AM 5.18 41.324 0.407 7.8 142.7 12.5
12/28/2021 11:15:00 AM 5.25 41.45 0.457 7.81 144.6 12.52
12/28/2021 11:30:00 AM 5.33 41.594 0.467 7.81 145.1 12.59
12/28/2021 11:45:00 AM 5.4 41.72 0.469 7.81 148.1 12.62
12/28/2021 12:00:00 PM 5.44 41.792 0.471 7.81 143 12.55
12/28/2021 12:15:00 PM 5.5 41.9 0.472 7.8 139.8 12.55
12/28/2021 12:30:00 PM 5.54 41.972 0.473 7.8 148.8 12.48
12/28/2021 12:45:00 PM 5.59 42.062 0.474 7.81 143.6 12.54
12/28/2021 1:00:00 PM 5.63 42.134 0.475 7.81 146.1 12.51
12/28/2021 1:15:00 PM 5.66 42.188 0.476 7.81 142.6 12.46
12/28/2021 1:30:00 PM 5.69 42.242 0.476 7.82 147.8 12.4
12/28/2021 1:45:00 PM 5.74 42.332 0.477 7.82 148.9 12.47
12/28/2021 2:00:00 PM 5.76 42.368 0.477 7.82 145.1 12.44
12/28/2021 2:15:00 PM 5.78 42.404 0.478 7.82 151.8 12.37
12/28/2021 2:30:00 PM 5.79 42.422 0.478 7.81 145.7 12.31
12/28/2021 2:45:00 PM 5.81 42.458 0.479 7.81 152 12.27
12/28/2021 3:00:00 PM 5.81 42.458 0.479 7.8 148 12.22
12/28/2021 3:15:00 PM 5.81 42.458 0.479 7.8 146.5 12.13
12/28/2021 3:30:00 PM 5.81 42.458 0.478 7.79 142.9 12.05
12/28/2021 3:45:00 PM 5.81 42.458 0.477 7.78 148.3 11.95
12/28/2021 4:00:00 PM 5.82 42.476 0.476 7.78 146 11.87
12/28/2021 4:15:00 PM 5.83 42.494 0.476 7.77 148.1 11.8
12/28/2021 4:30:00 PM 5.83 42.494 0.475 7.76 145.4 11.74
12/28/2021 4:45:00 PM 5.84 42.512 0.475 7.76 150.7 11.69
12/28/2021 5:00:00 PM 5.86 42.548 0.474 7.76 150 11.6
12/28/2021 5:15:00 PM 5.87 42.566 0.474 7.76 149.9 11.53
12/28/2021 5:30:00 PM 5.89 42.602 0.474 7.76 145.4 11.47
12/28/2021 5:45:00 PM 5.91 42.638 0.473 7.75 145.9 11.42
12/28/2021 6:00:00 PM 5.93 42.674 0.473 7.74 147.6 11.36
12/28/2021 6:15:00 PM 5.95 42.71 0.473 7.74 148.6 11.3
12/28/2021 6:30:00 PM 5.97 42.746 0.473 7.74 158.5 11.26
12/28/2021 6:45:00 PM 5.99 42.782 0.474 7.74 149.6 11.21
12/28/2021 7:00:00 PM 6 42.8 0.474 7.74 150.4 11.16
12/28/2021 7:15:00 PM 6.01 42.818 0.475 7.72 159.3 11.12
12/28/2021 7:30:00 PM 6.02 42.836 0.475 7.72 133.2 11.09
12/28/2021 7:45:00 PM 6.03 42.854 0.475 7.72 146.4 11.05
12/28/2021 8:00:00 PM 6.04 42.872 0.475 7.72 152.1 11.04
12/28/2021 8:15:00 PM 6.05 42.89 0.476 7.71 155.7 11.01
12/28/2021 8:30:00 PM 6.05 42.89 0.475 7.71 147.1 10.97
12/28/2021 8:45:00 PM 6.05 42.89 0.475 7.71 148.9 10.95
12/28/2021 9:00:00 PM 6.06 42.908 0.476 7.7 152.1 10.92
12/28/2021 9:15:00 PM 6.05 42.89 0.478 7.69 159.9 10.91
12/28/2021 9:30:00 PM 6.01 42.818 0.49 7.7 154.4 10.91
12/28/2021 9:45:00 PM 5.93 42.674 0.492 7.7 173.5 10.93
12/28/2021 10:00:00 PM 5.96 42.728 0.465 7.7 163.3 10.89
12/28/2021 10:15:00 PM 5.94 42.692 0.471 7.7 163.9 10.89
12/28/2021 10:30:00 PM 5.98 42.764 0.469 7.7 162.5 10.85
12/28/2021 10:45:00 PM 5.98 42.764 0.465 7.7 169 10.86
12/28/2021 11:00:00 PM 5.77 42.386 0.397 7.7 196.2 10.97
12/28/2021 11:15:00 PM 5.77 42.386 0.447 7.69 198 10.97
12/28/2021 11:30:00 PM 5.81 42.458 0.447 7.69 192.7 10.93
12/28/2021 11:45:00 PM 5.85 42.53 0.446 7.69 174.3 10.9
12/29/2021 12:00:00 AM 5.86 42.548 0.447 7.69 165.9 10.89
12/29/2021 12:15:00 AM 5.74 42.332 0.436 7.69 178.1 10.96
12/29/2021 12:30:00 AM 5.76 42.368 0.436 7.69 160.6 10.95
12/29/2021 12:45:00 AM 5.79 42.422 0.433 7.69 140.3 10.9
12/29/2021 1:00:00 AM 5.77 42.386 0.428 7.69 192.3 10.9
12/29/2021 1:15:00 AM 5.81 42.458 0.426 7.68 168.7 10.84
12/29/2021 1:30:00 AM 5.81 42.458 0.423 7.68 182.1 10.82
12/29/2021 1:45:00 AM 5.76 42.368 0.421 7.68 215 10.82
12/29/2021 2:00:00 AM 5.68 42.224 0.412 7.66 219 10.85
12/29/2021 2:15:00 AM 5.57 42.026 0.398 7.65 245.1 10.9
12/29/2021 2:30:00 AM 5.45 41.81 0.377 7.65 241.5 10.98
12/29/2021 2:45:00 AM 5.34 41.612 0.356 7.64 275.9 11.07
12/29/2021 3:00:00 AM 5.26 41.468 0.347 7.64 277.5 11.14
12/29/2021 3:15:00 AM 5.21 41.378 0.347 7.64 239.2 11.15
12/29/2021 3:30:00 AM 5.1 41.18 0.347 7.63 247.8 11.18
12/29/2021 3:45:00 AM 4.84 40.712 0.34 7.64 362.2 11.23
12/29/2021 4:00:00 AM 4.57 40.226 0.327 7.63 424.2 11.34
12/29/2021 4:15:00 AM 4.38 39.884 0.314 7.62 527.3 11.42
12/29/2021 4:30:00 AM 4.27 39.686 0.304 7.62 537 11.47
12/29/2021 4:45:00 AM 4.21 39.578 0.298 7.61 590.5 11.5
12/29/2021 5:00:00 AM 4.18 39.524 0.295 7.6 530.7 11.52
12/29/2021 5:15:00 AM 4.19 39.542 0.292 7.59 534.7 11.52
12/29/2021 5:30:00 AM 4.24 39.632 0.292 7.58 524.1 11.45
12/29/2021 5:45:00 AM 4.33 39.794 0.294 7.57 504 11.4
12/29/2021 6:00:00 AM 4.43 39.974 0.298 7.56 474 11.33
12/29/2021 6:15:00 AM 4.54 40.172 0.303 7.55 438.7 11.26
12/29/2021 6:30:00 AM 4.65 40.37 0.309 7.53 462.3 11.2
12/29/2021 6:45:00 AM 4.75 40.55 0.314 7.53 412.7 11.13
12/29/2021 7:00:00 AM 4.86 40.748 0.319 7.52 389 11.09
12/29/2021 7:15:00 AM 4.95 40.91 0.324 7.51 384.8 11.04
12/29/2021 7:30:00 AM 5.04 41.072 0.327 7.52 396.6 11.02
12/29/2021 7:45:00 AM 5.12 41.216 0.329 7.52 355 11
12/29/2021 8:00:00 AM 5.21 41.378 0.332 7.51 351.1 10.97
12/29/2021 8:15:00 AM 5.29 41.522 0.334 7.51 325.9 10.95
12/29/2021 8:30:00 AM 5.36 41.648 0.335 7.52 358.8 10.93
12/29/2021 8:45:00 AM 5.44 41.792 0.337 7.52 316.6 10.89
12/29/2021 9:00:00 AM 5.51 41.918 0.34 7.51 364.4 10.88
12/29/2021 9:15:00 AM 5.59 42.062 0.342 7.51 371.1 10.85
12/29/2021 9:30:00 AM 5.68 42.224 0.344 7.51 331.5 10.84
12/29/2021 9:45:00 AM 5.76 42.368 0.347 7.51 322.3 10.82
12/29/2021 10:00:00 AM 5.84 42.512 0.35 7.51 301.4 10.81
12/29/2021 10:15:00 AM 5.91 42.638 0.352 7.51 316.4 10.79
12/29/2021 10:30:00 AM 5.98 42.764 0.354 7.53 300.1 10.76
12/29/2021 10:45:00 AM 6.05 42.89 0.355 7.51 294.9 10.76
12/29/2021 11:00:00 AM 6.13 43.034 0.355 7.51 297.5 10.76
12/29/2021 11:15:00 AM 6.21 43.178 0.354 7.51 301.7 10.77
12/29/2021 11:30:00 AM 6.28 43.304 0.353 7.51 300.7 10.81
12/29/2021 11:45:00 AM 6.37 43.466 0.352 7.52 299.5 10.84
12/29/2021 12:00:00 PM 6.47 43.646 0.351 7.51 290.9 10.88
12/29/2021 12:15:00 PM 6.54 43.772 0.351 7.51 273.4 10.9
12/29/2021 12:30:00 PM 6.61 43.898 0.351 7.51 303.9 10.96
12/29/2021 12:45:00 PM 6.7 44.06 0.351 7.52 241.6 10.97
12/29/2021 1:00:00 PM 6.85 44.33 0.353 7.52 281.7 11.07
12/29/2021 1:15:00 PM 6.97 44.546 0.354 7.52 268.5 11.12
12/29/2021 1:30:00 PM 7.09 44.762 0.356 7.54 245.7 11.18
12/29/2021 1:45:00 PM 7.2 44.96 0.358 7.54 256.2 11.23
12/29/2021 2:00:00 PM 7.3 45.14 0.36 7.55 253.3 11.25
12/29/2021 2:15:00 PM 7.41 45.338 0.362 7.55 269.8 11.26
12/29/2021 2:30:00 PM 7.53 45.554 0.364 7.56 313.6 11.29
12/29/2021 2:45:00 PM 7.63 45.734 0.365 7.57 366.9 11.29
12/29/2021 3:00:00 PM 7.73 45.914 0.367 7.59 301.6 11.29
12/29/2021 3:15:00 PM 7.81 46.058 0.369 7.6 281.6 11.27
12/29/2021 3:30:00 PM 7.87 46.166 0.371 7.59 236 11.23
12/29/2021 3:45:00 PM 7.94 46.292 0.372 7.59 227.6 11.25
12/29/2021 4:00:00 PM 7.99 46.382 0.374 7.6 220.3 11.22
12/29/2021 4:15:00 PM 8.03 46.454 0.376 7.6 220.7 11.16
12/29/2021 4:30:00 PM 8.07 46.526 0.377 7.6 184.5 11.11
12/29/2021 4:45:00 PM 8.11 46.598 0.379 7.6 194.1 11.02
12/29/2021 5:00:00 PM 8.15 46.67 0.38 7.6 221.1 10.98
12/29/2021 5:15:00 PM 8.19 46.742 0.382 7.61 203.6 10.92
12/29/2021 5:30:00 PM 8.23 46.814 0.383 7.61 196.3 10.89
12/29/2021 5:45:00 PM 8.27 46.886 0.385 7.61 220.7 10.83
12/29/2021 6:00:00 PM 8.31 46.958 0.386 7.61 227.5 10.75
12/29/2021 6:15:00 PM 8.34 47.012 0.387 7.6 226.7 10.7
12/29/2021 6:30:00 PM 8.37 47.066 0.388 7.6 206.1 10.65
12/29/2021 6:45:00 PM 8.4 47.12 0.389 7.6 218.4 10.6
12/29/2021 7:00:00 PM 8.43 47.174 0.39 7.6 200.2 10.56
12/29/2021 7:15:00 PM 8.45 47.21 0.39 7.6 185.1 10.52
12/29/2021 7:30:00 PM 8.48 47.264 0.39 7.6 262.9 10.47
12/29/2021 7:45:00 PM 8.5 47.3 0.391 7.6 184.4 10.43
12/29/2021 8:00:00 PM 8.52 47.336 0.391 7.6 188.8 10.39
12/29/2021 8:15:00 PM 8.53 47.354 0.391 7.59 243.6 10.36
12/29/2021 8:30:00 PM 8.54 47.372 0.391 7.6 208.1 10.31
12/29/2021 8:45:00 PM 8.55 47.39 0.387 7.59 226.1 10.28
12/29/2021 9:00:00 PM 8.55 47.39 0.393 7.6 229.9 10.25
12/29/2021 9:15:00 PM 8.55 47.39 0.392 7.59 186.9 10.23
12/29/2021 9:30:00 PM 8.55 47.39 0.392 7.58 248.1 10.2
12/29/2021 9:45:00 PM 8.55 47.39 0.393 7.58 265.5 10.17
12/29/2021 10:00:00 PM 8.55 47.39 0.393 7.58 233.6 10.15
12/29/2021 10:15:00 PM 8.54 47.372 0.392 7.58 262.4 10.13
12/29/2021 10:30:00 PM 8.54 47.372 0.392 7.58 217 10.13
12/29/2021 10:45:00 PM 8.54 47.372 0.392 7.58 218.8 10.11
12/29/2021 11:00:00 PM 8.53 47.354 0.393 7.57 233.9 10.1
12/29/2021 11:15:00 PM 8.52 47.336 0.392 7.57 210.7 10.08
12/29/2021 11:30:00 PM 8.52 47.336 0.392 7.58 216.2 10.08
12/29/2021 11:45:00 PM 8.52 47.336 0.393 7.58 233.6 10.07
12/30/2021 12:00:00 AM 8.51 47.318 0.393 7.58 237 10.06
12/30/2021 12:15:00 AM 8.5 47.3 0.393 7.58 211.4 10.05
12/30/2021 12:30:00 AM 8.49 47.282 0.393 7.57 249.8 10.06
12/30/2021 12:45:00 AM 8.48 47.264 0.393 7.56 215.2 10.05
12/30/2021 1:00:00 AM 8.47 47.246 0.393 7.56 200.9 10.05
12/30/2021 1:15:00 AM 8.46 47.228 0.394 7.56 265.5 10.06
12/30/2021 1:30:00 AM 8.45 47.21 0.394 7.56 269.7 10.05
12/30/2021 1:45:00 AM 8.44 47.192 0.394 7.57 234.9 10.06
12/30/2021 2:00:00 AM 8.43 47.174 0.395 7.57 234.5 10.07
12/30/2021 2:15:00 AM 8.41 47.138 0.395 7.57 260.7 10.06
12/30/2021 2:30:00 AM 8.4 47.12 0.396 7.56 256.8 10.07
12/30/2021 2:45:00 AM 8.39 47.102 0.397 7.58 226.7 10.07
12/30/2021 3:00:00 AM 8.37 47.066 0.398 7.59 223.6 10.08
12/30/2021 3:15:00 AM 8.36 47.048 0.398 7.59 260.1 10.09
12/30/2021 3:30:00 AM 8.34 47.012 0.399 7.59 320.1 10.1
12/30/2021 3:45:00 AM 8.33 46.994 0.4 7.58 233.3 10.11
12/30/2021 4:00:00 AM 8.31 46.958 0.401 7.57 264.4 10.11
12/30/2021 4:15:00 AM 8.3 46.94 0.402 7.57 265.6 10.13
12/30/2021 4:30:00 AM 8.28 46.904 0.402 7.58 246.9 10.13
12/30/2021 4:45:00 AM 8.27 46.886 0.403 7.58 251.6 10.13
12/30/2021 5:00:00 AM 8.25 46.85 0.403 7.58 270.8 10.15
12/30/2021 5:15:00 AM 8.24 46.832 0.402 7.59 254.2 10.15
12/30/2021 5:30:00 AM 8.23 46.814 0.403 7.58 265.1 10.16
12/30/2021 5:45:00 AM 8.22 46.796 0.403 7.57 256.2 10.16
12/30/2021 6:00:00 AM 8.21 46.778 0.403 7.57 255.2 10.16
12/30/2021 6:15:00 AM 8.21 46.778 0.403 7.58 284 10.18
12/30/2021 6:30:00 AM 8.2 46.76 0.403 7.58 252.4 10.17
12/30/2021 6:45:00 AM 8.19 46.742 0.403 7.58 261 10.18
12/30/2021 7:00:00 AM 8.19 46.742 0.403 7.58 274.4 10.19
12/30/2021 7:15:00 AM 8.19 46.742 0.403 7.58 239.7 10.19
12/30/2021 7:30:00 AM 8.18 46.724 0.403 7.58 262.4 10.18
12/30/2021 7:45:00 AM 8.18 46.724 0.402 7.57 289 10.19
12/30/2021 8:00:00 AM 8.18 46.724 0.402 7.57 319.3 10.2
12/30/2021 8:15:00 AM 8.18 46.724 0.402 7.58 286.1 10.19
12/30/2021 8:30:00 AM 8.19 46.742 0.401 7.57 266.4 10.22
12/30/2021 8:45:00 AM 8.19 46.742 0.402 7.57 245.9 10.23
12/30/2021 9:00:00 AM 8.21 46.778 0.402 7.58 227.6 10.24
12/30/2021 9:15:00 AM 8.22 46.796 0.404 7.58 245 10.27
12/30/2021 9:30:00 AM 8.24 46.832 0.404 7.58 262.9 10.28
12/30/2021 9:45:00 AM 8.25 46.85 0.404 7.58 273.3 10.28
12/30/2021 10:00:00 AM 8.26 46.868 0.404 7.58 293.1 10.29
12/30/2021 10:15:00 AM 8.27 46.886 0.403 7.58 275.8 10.29
12/30/2021 10:30:00 AM 8.29 46.922 0.404 7.58 263 10.37
12/30/2021 10:45:00 AM 8.31 46.958 0.405 7.58 295.6 10.43
12/30/2021 11:00:00 AM 8.34 47.012 0.404 7.59 225.8 10.46
12/30/2021 11:15:00 AM 8.37 47.066 0.403 7.6 244.5 10.5
12/30/2021 11:30:00 AM 8.39 47.102 0.404 7.6 270 10.51
12/30/2021 11:45:00 AM 8.42 47.156 0.404 7.6 234.1 10.54
12/30/2021 12:00:00 PM 8.45 47.21 0.404 7.61 273.7 10.58
12/30/2021 12:15:00 PM 8.48 47.264 0.403 7.61 278.3 10.62
12/30/2021 12:30:00 PM 8.51 47.318 0.403 7.62 287 10.65
12/30/2021 12:45:00 PM 8.54 47.372 0.404 7.61 257.6 10.65
12/30/2021 1:00:00 PM 8.57 47.426 0.403 7.62 244.5 10.67
12/30/2021 1:15:00 PM 8.6 47.48 0.404 7.62 257 10.68
12/30/2021 1:30:00 PM 8.62 47.516 0.403 7.63 259.7 10.68
12/30/2021 1:45:00 PM 8.64 47.552 0.403 7.62 251.6 10.69
12/30/2021 2:00:00 PM 8.66 47.588 0.402 7.63 247.1 10.7
12/30/2021 2:15:00 PM 8.68 47.624 0.403 7.63 263.9 10.67
12/30/2021 2:30:00 PM 8.7 47.66 0.402 7.62 231.4 10.67
12/30/2021 2:45:00 PM 8.71 47.678 0.403 7.62 299.8 10.65
12/30/2021 3:00:00 PM 8.73 47.714 0.403 7.63 277.9 10.63
12/30/2021 3:15:00 PM 8.75 47.75 0.403 7.63 268.2 10.61
12/30/2021 3:30:00 PM 8.78 47.804 0.403 7.63 284.3 10.62
12/30/2021 3:45:00 PM 8.8 47.84 0.403 7.64 266.1 10.62
12/30/2021 4:00:00 PM 8.82 47.876 0.403 7.64 295.9 10.61
12/30/2021 4:15:00 PM 8.84 47.912 0.404 7.63 269.2 10.61
12/30/2021 4:30:00 PM 8.85 47.93 0.404 7.63 258.4 10.56
12/30/2021 4:45:00 PM 8.85 47.93 0.404 7.63 260.3 10.52
12/30/2021 5:00:00 PM 8.86 47.948 0.404 7.63 328.4 10.47
12/30/2021 5:15:00 PM 8.86 47.948 0.404 7.63 284.7 10.43
12/30/2021 5:30:00 PM 8.86 47.948 0.404 7.63 328.2 10.39
12/30/2021 5:45:00 PM 8.87 47.966 0.404 7.63 256.7 10.37
12/30/2021 6:00:00 PM 8.87 47.966 0.405 7.62 252.3 10.31
12/30/2021 6:15:00 PM 8.88 47.984 0.405 7.62 271.9 10.3
12/30/2021 6:30:00 PM 8.88 47.984 0.405 7.62 255.7 10.27
12/30/2021 6:45:00 PM 8.89 48.002 0.405 7.61 263.5 10.25
12/30/2021 7:00:00 PM 8.9 48.02 0.405 7.62 258.9 10.23
12/30/2021 7:15:00 PM 8.9 48.02 0.405 7.62 258.9 10.16
12/30/2021 7:30:00 PM 8.92 48.056 0.405 7.6 235.9 10.14
12/30/2021 7:45:00 PM 8.92 48.056 0.404 7.6 284.6 10.13
12/30/2021 8:00:00 PM 8.93 48.074 0.405 7.61 265.7 10.11
12/30/2021 8:15:00 PM 8.94 48.092 0.405 7.61 281.3 10.09
12/30/2021 8:30:00 PM 8.94 48.092 0.405 7.6 279.4 10.08
12/30/2021 8:45:00 PM 8.93 48.074 0.405 7.61 269 10.07
12/30/2021 9:00:00 PM 8.93 48.074 0.406 7.6 288.5 10.06
12/30/2021 9:15:00 PM 8.93 48.074 0.406 7.61 302.9 10.04
12/30/2021 9:30:00 PM 8.93 48.074 0.406 7.6 299.3 10.04
12/30/2021 9:45:00 PM 8.93 48.074 0.406 7.6 298.2 10.03
12/30/2021 10:00:00 PM 8.93 48.074 0.407 7.6 270.7 10.02
12/30/2021 10:15:00 PM 8.93 48.074 0.407 7.6 261.1 10
12/30/2021 10:30:00 PM 8.93 48.074 0.407 7.6 305.7 10.01
12/30/2021 10:45:00 PM 8.93 48.074 0.407 7.6 302.4 10.01
12/30/2021 11:00:00 PM 8.93 48.074 0.407 7.6 288.1 9.99
12/30/2021 11:15:00 PM 8.93 48.074 0.407 7.59 304.1 9.98
12/30/2021 11:30:00 PM 8.93 48.074 0.407 7.59 299.9 9.96
12/30/2021 11:45:00 PM 8.92 48.056 0.408 7.6 346.7 9.98
12/31/2021 12:00:00 AM 8.92 48.056 0.408 7.59 320.2 9.98
12/31/2021 12:15:00 AM 8.92 48.056 0.408 7.6 276.2 9.97
12/31/2021 12:30:00 AM 8.92 48.056 0.408 7.61 300.9 9.97
12/31/2021 12:45:00 AM 8.91 48.038 0.409 7.6 304 9.97
12/31/2021 1:00:00 AM 8.9 48.02 0.408 7.6 290.5 9.97
12/31/2021 1:15:00 AM 8.88 47.984 0.408 7.61 314.4 9.97
12/31/2021 1:30:00 AM 8.87 47.966 0.408 7.6 266.3 9.96
12/31/2021 1:45:00 AM 8.87 47.966 0.408 7.6 323 9.97
12/31/2021 2:00:00 AM 8.86 47.948 0.407 7.59 282.8 9.97
12/31/2021 2:15:00 AM 8.85 47.93 0.407 7.59 344.9 9.98
12/31/2021 2:30:00 AM 8.84 47.912 0.407 7.6 378.2 9.98
12/31/2021 2:45:00 AM 8.83 47.894 0.407 7.59 306.9 9.98
12/31/2021 3:00:00 AM 8.82 47.876 0.407 7.59 300.2 9.98
12/31/2021 3:15:00 AM 8.81 47.858 0.407 7.59 304.8 10
12/31/2021 3:30:00 AM 8.8 47.84 0.407 7.59 358.2 9.99
12/31/2021 3:45:00 AM 8.8 47.84 0.404 7.6 339.9 10
12/31/2021 4:00:00 AM 8.79 47.822 0.407 7.6 302.2 10
12/31/2021 4:15:00 AM 8.78 47.804 0.407 7.6 317.2 10.01
12/31/2021 4:30:00 AM 8.78 47.804 0.407 7.6 355.5 10.01
12/31/2021 4:45:00 AM 8.77 47.786 0.407 7.59 315 10.02
12/31/2021 5:00:00 AM 8.76 47.768 0.406 7.59 288.7 10.02
12/31/2021 5:15:00 AM 8.75 47.75 0.407 7.6 340.3 10.03
12/31/2021 5:30:00 AM 8.75 47.75 0.406 7.6 347.8 10.04
12/31/2021 5:45:00 AM 8.74 47.732 0.406 7.6 336.7 10.01
12/31/2021 6:00:00 AM 8.73 47.714 0.406 7.6 368.4 10.03
12/31/2021 6:15:00 AM 8.73 47.714 0.406 7.6 361 10.04
12/31/2021 6:30:00 AM 8.72 47.696 0.406 7.6 288.1 10.05
12/31/2021 6:45:00 AM 8.72 47.696 0.406 7.6 315.9 10.05
12/31/2021 7:00:00 AM 8.71 47.678 0.406 7.6 356.8 10.05
12/31/2021 7:15:00 AM 8.71 47.678 0.405 7.61 348.6 10.05
12/31/2021 7:30:00 AM 8.7 47.66 0.406 7.61 347.5 10.06
12/31/2021 7:45:00 AM 8.7 47.66 0.406 7.6 381.2 10.06
12/31/2021 8:00:00 AM 8.7 47.66 0.406 7.6 308.3 10.08
12/31/2021 8:15:00 AM 8.7 47.66 0.406 7.6 299.8 10.1
12/31/2021 8:30:00 AM 8.7 47.66 0.406 7.6 260 10.13
12/31/2021 8:45:00 AM 8.71 47.678 0.406 7.6 281.4 10.18
12/31/2021 9:00:00 AM 8.73 47.714 0.406 7.61 288.2 10.23
12/31/2021 9:15:00 AM 8.75 47.75 0.405 7.61 309.5 10.3
12/31/2021 9:30:00 AM 8.77 47.786 0.405 7.61 320.9 10.36
12/31/2021 9:45:00 AM 8.8 47.84 0.405 7.63 293.6 10.42
12/31/2021 10:00:00 AM 8.83 47.894 0.405 7.64 338.3 10.48
12/31/2021 10:15:00 AM 8.86 47.948 0.405 7.64 336.9 10.58
12/31/2021 10:30:00 AM 8.9 48.02 0.405 7.65 317.8 10.64
12/31/2021 10:45:00 AM 8.94 48.092 0.405 7.65 328.5 10.71
12/31/2021 11:00:00 AM 8.99 48.182 0.406 7.66 301.3 10.81
12/31/2021 11:15:00 AM 9.04 48.272 0.406 7.67 316.1 10.9
12/31/2021 11:30:00 AM 9.14 48.452 0.404 7.68 334.1 11.05
12/31/2021 11:45:00 AM 9.2 48.56 0.405 7.69 368.1 11.12
12/31/2021 12:00:00 PM 9.25 48.65 0.404 7.69 390.2 11.19
12/31/2021 12:15:00 PM 9.35 48.83 0.404 7.71 387.3 11.32
12/31/2021 12:30:00 PM 9.42 48.956 0.404 7.73 334.9 11.38
12/31/2021 12:45:00 PM 9.54 49.172 0.404 7.73 301.1 11.48
12/31/2021 1:00:00 PM 9.6 49.28 0.404 7.75 344.6 11.43
12/31/2021 1:15:00 PM 9.66 49.388 0.404 7.75 348.4 11.5
12/31/2021 1:30:00 PM 9.71 49.478 0.404 7.76 321.7 11.48
12/31/2021 1:45:00 PM 9.78 49.604 0.404 7.76 337 11.51
12/31/2021 2:00:00 PM 9.83 49.694 0.404 7.76 308.1 11.54
12/31/2021 2:15:00 PM 9.88 49.784 0.404 7.77 401 11.54
12/31/2021 2:30:00 PM 9.92 49.856 0.404 7.78 415.7 11.57
12/31/2021 2:45:00 PM 9.98 49.964 0.405 7.78 389.7 11.59
12/31/2021 3:00:00 PM 10.02 50.036 0.404 7.79 321 11.54
12/31/2021 3:15:00 PM 10.04 50.072 0.404 7.79 363.4 11.46
12/31/2021 3:30:00 PM 10.05 50.09 0.404 7.78 313.5 11.36
12/31/2021 3:45:00 PM 10.06 50.108 0.405 7.77 340.4 11.26
12/31/2021 4:00:00 PM 10.08 50.144 0.405 7.77 334.1 11.21
12/31/2021 4:15:00 PM 10.11 50.198 0.405 7.77 359.3 11.14
12/31/2021 4:30:00 PM 10.14 50.252 0.405 7.77 309.6 11.04
12/31/2021 4:45:00 PM 10.16 50.288 0.405 7.76 366.9 10.94
12/31/2021 5:00:00 PM 10.18 50.324 0.405 7.75 311.1 10.8
12/31/2021 5:15:00 PM 10.19 50.342 0.405 7.74 295.4 10.69
12/31/2021 5:30:00 PM 10.2 50.36 0.405 7.74 345.7 10.6
12/31/2021 5:45:00 PM 10.21 50.378 0.405 7.73 328.7 10.52
12/31/2021 6:00:00 PM 10.21 50.378 0.405 7.72 315.4 10.47
12/31/2021 6:15:00 PM 10.21 50.378 0.405 7.72 292.4 10.4
12/31/2021 6:30:00 PM 10.21 50.378 0.405 7.7 300.9 10.35
12/31/2021 6:45:00 PM 10.2 50.36 0.405 7.7 265.7 10.29
12/31/2021 7:00:00 PM 10.19 50.342 0.405 7.69 301.6 10.22
12/31/2021 7:15:00 PM 10.17 50.306 0.405 7.69 294.4 10.18
12/31/2021 7:30:00 PM 10.16 50.288 0.405 7.68 298.1 10.12
12/31/2021 7:45:00 PM 10.14 50.252 0.405 7.68 317.1 10.08
12/31/2021 8:00:00 PM 10.11 50.198 0.405 7.67 336.4 10.03
12/31/2021 8:15:00 PM 10.09 50.162 0.405 7.67 332.5 9.99
12/31/2021 8:30:00 PM 10.06 50.108 0.405 7.67 343.2 9.94
12/31/2021 8:45:00 PM 10.03 50.054 0.405 7.66 303.4 9.91
12/31/2021 9:00:00 PM 10.01 50.018 0.405 7.66 350.6 9.88
12/31/2021 9:15:00 PM 9.98 49.964 0.405 7.66 294 9.85
12/31/2021 9:30:00 PM 9.96 49.928 0.405 7.66 332.3 9.83
12/31/2021 9:45:00 PM 9.94 49.892 0.405 7.65 333.7 9.82
12/31/2021 10:00:00 PM 9.92 49.856 0.405 7.65 270.9 9.8
12/31/2021 10:15:00 PM 9.9 49.82 0.406 7.64 302.3 9.79
12/31/2021 10:30:00 PM 9.88 49.784 0.406 7.64 328.9 9.78
12/31/2021 10:45:00 PM 9.86 49.748 0.406 7.64 314.9 9.76
12/31/2021 11:00:00 PM 9.84 49.712 0.406 7.64 319 9.75
12/31/2021 11:15:00 PM 9.82 49.676 0.406 7.64 323.2 9.75
12/31/2021 11:30:00 PM 9.79 49.622 0.406 7.63 304.7 9.75
12/31/2021 11:45:00 PM 9.77 49.586 0.406 7.65 280.6 9.74
1/1/2022 12:00:00 AM 9.74 49.532 0.407 7.63 307.1 9.74
1/1/2022 12:15:00 AM 9.71 49.478 0.407 7.63 402.3 9.74
1/1/2022 12:30:00 AM 9.68 49.424 0.408 7.63 334.7 9.73
1/1/2022 12:45:00 AM 9.65 49.37 0.408 7.63 301.9 9.74
1/1/2022 1:00:00 AM 9.62 49.316 0.408 7.63 352.3 9.75
1/1/2022 1:15:00 AM 9.59 49.262 0.408 7.62 302.7 9.74
1/1/2022 1:30:00 AM 9.56 49.208 0.409 7.63 331.2 9.75
1/1/2022 1:45:00 AM 9.54 49.172 0.409 7.62 364.9 9.77
1/1/2022 2:00:00 AM 9.51 49.118 0.409 7.62 299 9.76
1/1/2022 2:15:00 AM 9.48 49.064 0.409 7.62 294.6 9.77
1/1/2022 2:30:00 AM 9.46 49.028 0.409 7.63 279 9.79
1/1/2022 2:45:00 AM 9.43 48.974 0.409 7.62 330.4 9.79
1/1/2022 3:00:00 AM 9.41 48.938 0.409 7.62 331.9 9.8
1/1/2022 3:15:00 AM 9.38 48.884 0.408 7.62 326.6 9.8
1/1/2022 3:30:00 AM 9.36 48.848 0.409 7.62 320.1 9.81
1/1/2022 3:45:00 AM 9.34 48.812 0.408 7.61 358.2 9.83
1/1/2022 4:00:00 AM 9.31 48.758 0.408 7.61 316.4 9.83
1/1/2022 4:15:00 AM 9.29 48.722 0.408 7.62 434.5 9.83
1/1/2022 4:30:00 AM 9.27 48.686 0.408 7.62 341.9 9.84
1/1/2022 4:45:00 AM 9.25 48.65 0.408 7.61 363.4 9.84
1/1/2022 5:00:00 AM 9.23 48.614 0.409 7.61 307.7 9.85
1/1/2022 5:15:00 AM 9.21 48.578 0.409 7.6 285.1 9.87
1/1/2022 5:30:00 AM 9.19 48.542 0.409 7.61 275.4 9.87
1/1/2022 5:45:00 AM 9.16 48.488 0.409 7.61 274 9.88
1/1/2022 6:00:00 AM 9.15 48.47 0.41 7.62 346.2 9.9
1/1/2022 6:15:00 AM 9.13 48.434 0.409 7.62 271.9 9.89
1/1/2022 6:30:00 AM 9.11 48.398 0.409 7.61 320.5 9.91
1/1/2022 6:45:00 AM 9.09 48.362 0.409 7.61 293.5 9.91
1/1/2022 7:00:00 AM 9.08 48.344 0.409 7.61 324.1 9.92
1/1/2022 7:15:00 AM 9.07 48.326 0.408 7.62 329.6 9.93
1/1/2022 7:30:00 AM 9.06 48.308 0.408 7.61 349.6 9.93
1/1/2022 7:45:00 AM 9.05 48.29 0.408 7.61 377.9 9.92
1/1/2022 8:00:00 AM 9.04 48.272 0.409 7.61 442.8 9.95
1/1/2022 8:15:00 AM 9.04 48.272 0.408 7.61 458.8 9.95
1/1/2022 8:30:00 AM 9.04 48.272 0.407 7.61 317.7 9.98
1/1/2022 8:45:00 AM 9.04 48.272 0.407 7.61 345.4 10.01
1/1/2022 9:00:00 AM 9.04 48.272 0.407 7.61 322.8 10.03
1/1/2022 9:15:00 AM 9.05 48.29 0.408 7.62 287.8 10.06
1/1/2022 9:30:00 AM 9.06 48.308 0.407 7.63 294.5 10.1
1/1/2022 9:45:00 AM 9.07 48.326 0.407 7.63 303.7 10.15
1/1/2022 10:00:00 AM 9.09 48.362 0.406 7.63 351.9 10.21
1/1/2022 10:15:00 AM 9.1 48.38 0.406 7.64 287.3 10.24
1/1/2022 10:30:00 AM 9.12 48.416 0.406 7.64 303.4 10.28
1/1/2022 10:45:00 AM 9.13 48.434 0.405 7.64 312.5 10.32
1/1/2022 11:00:00 AM 9.16 48.488 0.405 7.64 309.9 10.37
1/1/2022 11:15:00 AM 9.18 48.524 0.404 7.64 317.9 10.4
1/1/2022 11:30:00 AM 9.2 48.56 0.405 7.65 349.4 10.46
1/1/2022 11:45:00 AM 9.23 48.614 0.405 7.65 297.1 10.5
1/1/2022 12:00:00 PM 9.26 48.668 0.405 7.66 295.9 10.54
1/1/2022 12:15:00 PM 9.29 48.722 0.405 7.66 325.2 10.58
1/1/2022 12:30:00 PM 9.33 48.794 0.404 7.67 335.2 10.66
1/1/2022 12:45:00 PM 9.36 48.848 0.404 7.68 289.4 10.7
1/1/2022 1:00:00 PM 9.4 48.92 0.405 7.68 321.2 10.77
1/1/2022 1:15:00 PM 9.45 49.01 0.404 7.69 325.4 10.83
1/1/2022 1:30:00 PM 9.5 49.1 0.404 7.7 321.6 10.91
1/1/2022 1:45:00 PM 9.53 49.154 0.404 7.7 296.9 10.89
1/1/2022 2:00:00 PM 9.56 49.208 0.403 7.7 322.5 10.87
1/1/2022 2:15:00 PM 9.57 49.226 0.403 7.7 301.8 10.81
1/1/2022 2:30:00 PM 9.58 49.244 0.402 7.7 329.8 10.75
1/1/2022 2:45:00 PM 9.6 49.28 0.402 7.7 318.9 10.71
1/1/2022 3:00:00 PM 9.62 49.316 0.402 7.7 324.4 10.68
1/1/2022 3:15:00 PM 9.64 49.352 0.402 7.7 341.7 10.66
1/1/2022 3:30:00 PM 9.66 49.388 0.402 7.69 310.3 10.6
1/1/2022 3:45:00 PM 9.68 49.424 0.401 7.69 301.4 10.56
1/1/2022 4:00:00 PM 9.69 49.442 0.4 7.69 298.5 10.48
1/1/2022 4:15:00 PM 9.7 49.46 0.398 7.67 345.3 10.42
1/1/2022 4:30:00 PM 9.72 49.496 0.397 7.68 332.8 10.38
1/1/2022 4:45:00 PM 9.73 49.514 0.398 7.68 306 10.31
1/1/2022 5:00:00 PM 9.75 49.55 0.399 7.67 295.5 10.29
1/1/2022 5:15:00 PM 9.76 49.568 0.401 7.68 304.1 10.25
1/1/2022 5:30:00 PM 9.78 49.604 0.4 7.66 311.3 10.19
1/1/2022 5:45:00 PM 9.79 49.622 0.399 7.66 321.9 10.15
1/1/2022 6:00:00 PM 9.8 49.64 0.397 7.66 310.5 10.12
1/1/2022 6:15:00 PM 9.81 49.658 0.396 7.66 327.4 10.09
1/1/2022 6:30:00 PM 9.82 49.676 0.393 7.65 285.4 10.06
1/1/2022 6:45:00 PM 9.83 49.694 0.387 7.65 310.2 10.02
1/1/2022 7:00:00 PM 9.83 49.694 0.382 7.64 309.1 9.98
1/1/2022 7:15:00 PM 9.84 49.712 0.381 7.63 319.3 9.94
1/1/2022 7:30:00 PM 9.84 49.712 0.38 7.65 346 9.88
1/1/2022 7:45:00 PM 9.85 49.73 0.38 7.63 315 9.85
1/1/2022 8:00:00 PM 9.84 49.712 0.379 7.63 313.3 9.83
1/1/2022 8:15:00 PM 9.85 49.73 0.38 7.62 359.7 9.81
1/1/2022 8:30:00 PM 9.85 49.73 0.378 7.62 367.7 9.79
1/1/2022 8:45:00 PM 9.85 49.73 0.374 7.62 311.9 9.76
1/1/2022 9:00:00 PM 9.85 49.73 0.367 7.62 347 9.73
1/1/2022 9:15:00 PM 9.83 49.694 0.36 7.61 377.5 9.72
1/1/2022 9:30:00 PM 9.81 49.658 0.354 7.6 431.4 9.7
1/1/2022 9:45:00 PM 9.79 49.622 0.351 7.6 392.9 9.65
1/1/2022 10:00:00 PM 9.77 49.586 0.351 7.59 484.5 9.61
1/1/2022 10:15:00 PM 9.74 49.532 0.351 7.59 490.9 9.58
1/1/2022 10:30:00 PM 9.71 49.478 0.348 7.59 591.8 9.58
1/1/2022 10:45:00 PM 9.66 49.388 0.345 7.59 467.6 9.57
1/1/2022 11:00:00 PM 9.6 49.28 0.342 7.58 517.5 9.56
1/1/2022 11:15:00 PM 9.52 49.136 0.336 7.57 555.4 9.54
1/1/2022 11:30:00 PM 9.45 49.01 0.33 7.57 529.8 9.55
1/1/2022 11:45:00 PM 9.39 48.902 0.321 7.57 579.9 9.55
1/2/2022 12:00:00 AM 9.36 48.848 0.321 7.55 604.6 9.56
1/2/2022 12:15:00 AM 9.33 48.794 0.319 7.55 580.1 9.54
1/2/2022 12:30:00 AM 9.32 48.776 0.32 7.55 668.1 9.5
1/2/2022 12:45:00 AM 9.32 48.776 0.322 7.54 565.9 9.49
1/2/2022 1:00:00 AM 9.33 48.794 0.325 7.53 591.9 9.47
1/2/2022 1:15:00 AM 9.34 48.812 0.327 7.52 518.7 9.46
1/2/2022 1:30:00 AM 9.36 48.848 0.33 7.52 613 9.46
1/2/2022 1:45:00 AM 9.37 48.866 0.333 7.51 604.6 9.46
1/2/2022 2:00:00 AM 9.38 48.884 0.336 7.52 563.3 9.47
1/2/2022 2:15:00 AM 9.4 48.92 0.338 7.5 568.4 9.47
1/2/2022 2:30:00 AM 9.41 48.938 0.341 7.5 662 9.48
1/2/2022 2:45:00 AM 9.42 48.956 0.314 7.5 623.1 9.48
1/2/2022 3:00:00 AM 9.42 48.956 0.345 7.51 635.8 9.49
1/2/2022 3:15:00 AM 9.43 48.974 0.345 7.5 658.4 9.5
1/2/2022 3:30:00 AM 9.43 48.974 0.336 7.49 620.2 9.51
1/2/2022 3:45:00 AM 9.43 48.974 0.344 7.5 570.8 9.51
1/2/2022 4:00:00 AM 9.43 48.974 0.349 7.49 546.2 9.52
1/2/2022 4:15:00 AM 9.43 48.974 0.35 7.49 563.8 9.52
1/2/2022 4:30:00 AM 9.43 48.974 0.351 7.49 555.3 9.52
1/2/2022 4:45:00 AM 9.43 48.974 0.351 7.5 517.7 9.53
1/2/2022 5:00:00 AM 9.43 48.974 0.351 7.48 552.1 9.53
1/2/2022 5:15:00 AM 9.43 48.974 0.352 7.49 540.3 9.55
1/2/2022 5:30:00 AM 9.43 48.974 0.352 7.49 469.5 9.55
1/2/2022 5:45:00 AM 9.43 48.974 0.354 7.48 587.2 9.57
1/2/2022 6:00:00 AM 9.43 48.974 0.355 7.49 605 9.57
1/2/2022 6:15:00 AM 9.44 48.992 0.357 7.49 520.8 9.57
1/2/2022 6:30:00 AM 9.45 49.01 0.359 7.49 549.7 9.58
1/2/2022 6:45:00 AM 9.45 49.01 0.361 7.5 646.8 9.58
1/2/2022 7:00:00 AM 9.46 49.028 0.364 7.49 588.6 9.59
1/2/2022 7:15:00 AM 9.46 49.028 0.366 7.49 632.7 9.59
1/2/2022 7:30:00 AM 9.46 49.028 0.369 7.51 600 9.6
1/2/2022 7:45:00 AM 9.47 49.046 0.371 7.49 527.3 9.62
1/2/2022 8:00:00 AM 9.48 49.064 0.374 7.5 626.9 9.63
1/2/2022 8:15:00 AM 9.49 49.082 0.376 7.51 620.6 9.62
1/2/2022 8:30:00 AM 9.49 49.082 0.379 7.5 648 9.63
1/2/2022 8:45:00 AM 9.5 49.1 0.381 7.51 652.7 9.64
1/2/2022 9:00:00 AM 9.52 49.136 0.382 7.51 629.1 9.67
1/2/2022 9:15:00 AM 9.53 49.154 0.384 7.51 689.6 9.67
1/2/2022 9:30:00 AM 9.55 49.19 0.385 7.52 588.2 9.72
1/2/2022 9:45:00 AM 9.57 49.226 0.387 7.53 596.8 9.75
1/2/2022 10:00:00 AM 9.59 49.262 0.388 7.54 510.6 9.79
1/2/2022 10:15:00 AM 9.63 49.334 0.389 7.55 624 9.86
1/2/2022 10:30:00 AM 9.67 49.406 0.39 7.55 506.2 9.92
1/2/2022 10:45:00 AM 9.7 49.46 0.39 7.56 605 9.97
1/2/2022 11:00:00 AM 9.73 49.514 0.391 7.56 571.4 9.99
1/2/2022 11:15:00 AM 9.74 49.532 0.392 7.56 540.3 9.99
1/2/2022 11:30:00 AM 9.75 49.55 0.393 7.57 554 10.01
1/2/2022 11:45:00 AM 9.78 49.604 0.393 7.58 562.5 10.05
1/2/2022 12:00:00 PM 9.81 49.658 0.394 7.58 466.3 10.14
1/2/2022 12:15:00 PM 9.86 49.748 0.394 7.59 477.6 10.22
1/2/2022 12:30:00 PM 9.91 49.838 0.394 7.61 457.1 10.28
1/2/2022 12:45:00 PM 9.95 49.91 0.395 7.61 514.6 10.36
1/2/2022 1:00:00 PM 9.99 49.982 0.395 7.62 484.5 10.43
1/2/2022 1:15:00 PM 10.04 50.072 0.395 7.62 561.1 10.5
1/2/2022 1:30:00 PM 10.09 50.162 0.396 7.64 527.6 10.56
1/2/2022 1:45:00 PM 10.13 50.234 0.396 7.64 565.8 10.59
1/2/2022 2:00:00 PM 10.15 50.27 0.396 7.65 567.8 10.61
1/2/2022 2:15:00 PM 10.16 50.288 0.397 7.64 552.7 10.6
1/2/2022 2:30:00 PM 10.17 50.306 0.397 7.65 493.9 10.61
1/2/2022 2:45:00 PM 10.18 50.324 0.397 7.65 617.7 10.6
1/2/2022 3:00:00 PM 10.18 50.324 0.398 7.65 555.4 10.6
1/2/2022 3:15:00 PM 10.18 50.324 0.398 7.65 592 10.57
1/2/2022 3:30:00 PM 10.19 50.342 0.398 7.66 625.4 10.56
1/2/2022 3:45:00 PM 10.19 50.342 0.398 7.65 590.7 10.56
1/2/2022 4:00:00 PM 10.19 50.342 0.399 7.65 633.1 10.51
1/2/2022 4:15:00 PM 10.18 50.324 0.399 7.65 682.1 10.45
1/2/2022 4:30:00 PM 10.17 50.306 0.399 7.65 569.1 10.41
1/2/2022 4:45:00 PM 10.16 50.288 0.399 7.66 583.2 10.39
1/2/2022 5:00:00 PM 10.13 50.234 0.399 7.65 518.3 10.36
1/2/2022 5:15:00 PM 10.11 50.198 0.399 7.65 602.1 10.32
1/2/2022 5:30:00 PM 10.07 50.126 0.398 7.65 649.6 10.28
1/2/2022 5:45:00 PM 10.01 50.018 0.398 7.64 760.9 10.25
1/2/2022 6:00:00 PM 9.97 49.946 0.398 7.64 650.7 10.22
1/2/2022 6:15:00 PM 9.93 49.874 0.398 7.64 787.5 10.21
1/2/2022 6:30:00 PM 9.89 49.802 0.398 7.64 677.7 10.2
1/2/2022 6:45:00 PM 9.83 49.694 0.397 7.63 652.5 10.18
1/2/2022 7:00:00 PM 9.77 49.586 0.396 7.63 673.8 10.16
1/2/2022 7:15:00 PM 9.71 49.478 0.396 7.63 738.6 10.15
1/2/2022 7:30:00 PM 9.65 49.37 0.396 7.62 554.4 10.11
1/2/2022 7:45:00 PM 9.58 49.244 0.396 7.62 591.2 10.11
1/2/2022 8:00:00 PM 9.52 49.136 0.395 7.62 564.6 10.1
1/2/2022 8:15:00 PM 9.44 48.992 0.395 7.62 620.1 10.09
1/2/2022 8:30:00 PM 9.37 48.866 0.395 7.61 623.2 10.08
1/2/2022 8:45:00 PM 9.3 48.74 0.395 7.61 604.2 10.08
1/2/2022 9:00:00 PM 9.22 48.596 0.395 7.61 677.2 10.08
1/2/2022 9:15:00 PM 9.13 48.434 0.395 7.6 624.6 10.09
1/2/2022 9:30:00 PM 9.05 48.29 0.395 7.6 584.8 10.09
1/2/2022 9:45:00 PM 8.97 48.146 0.396 7.6 607.7 10.1
1/2/2022 10:00:00 PM 8.88 47.984 0.396 7.6 627.9 10.11
1/2/2022 10:15:00 PM 8.81 47.858 0.396 7.59 597.4 10.12
1/2/2022 10:30:00 PM 8.74 47.732 0.397 7.6 609.9 10.14
1/2/2022 10:45:00 PM 8.67 47.606 0.397 7.6 538.2 10.14
1/2/2022 11:00:00 PM 8.6 47.48 0.397 7.6 654.3 10.15
1/2/2022 11:15:00 PM 8.52 47.336 0.398 7.59 603.2 10.16
1/2/2022 11:30:00 PM 8.46 47.228 0.398 7.59 588.2 10.19
1/2/2022 11:45:00 PM 8.4 47.12 0.398 7.59 628.8 10.21
1/3/2022 12:00:00 AM 8.32 46.976 0.399 7.59 537.1 10.24
1/3/2022 12:15:00 AM 8.25 46.85 0.399 7.57 570.3 10.26
1/3/2022 12:30:00 AM 8.18 46.724 0.396 7.58 565.4 10.27
1/3/2022 12:45:00 AM 8.11 46.598 0.386 7.59 523.2 10.3
1/3/2022 1:00:00 AM 8.04 46.472 0.364 7.58 478.8 10.32
1/3/2022 1:15:00 AM 7.98 46.364 0.4 7.59 580.4 10.33
1/3/2022 1:30:00 AM 7.91 46.238 0.4 7.59 551.6 10.36
1/3/2022 1:45:00 AM 7.85 46.13 0.4 7.58 550.8 10.39
1/3/2022 2:00:00 AM 7.8 46.04 0.4 7.59 563 10.41
1/3/2022 2:15:00 AM 7.75 45.95 0.401 7.59 603.4 10.42
1/3/2022 2:30:00 AM 7.7 45.86 0.401 7.58 536.3 10.44
1/3/2022 2:45:00 AM 7.65 45.77 0.402 7.59 496.4 10.46
1/3/2022 3:00:00 AM 7.61 45.698 0.402 7.58 513 10.45
1/3/2022 3:15:00 AM 7.57 45.626 0.402 7.58 535.7 10.5
1/3/2022 3:30:00 AM 7.53 45.554 0.403 7.58 511.3 10.5
1/3/2022 3:45:00 AM 7.48 45.464 0.403 7.59 559.4 10.52
1/3/2022 4:00:00 AM 7.44 45.392 0.403 7.58 486.7 10.55
1/3/2022 4:15:00 AM 7.4 45.32 0.404 7.58 569.9 10.55
1/3/2022 4:30:00 AM 7.36 45.248 0.404 7.59 520.6 10.57
1/3/2022 4:45:00 AM 7.32 45.176 0.405 7.59 520.3 10.58
1/3/2022 5:00:00 AM 7.28 45.104 0.405 7.59 570.2 10.6
1/3/2022 5:15:00 AM 7.24 45.032 0.405 7.59 568.7 10.6
1/3/2022 5:30:00 AM 7.2 44.96 0.406 7.59 537.6 10.63
1/3/2022 5:45:00 AM 7.17 44.906 0.406 7.59 593.1 10.64
1/3/2022 6:00:00 AM 7.13 44.834 0.406 7.59 546.8 10.65
1/3/2022 6:15:00 AM 7.09 44.762 0.407 7.59 547.5 10.65
1/3/2022 6:30:00 AM 7.05 44.69 0.407 7.59 569 10.67
1/3/2022 6:45:00 AM 7.01 44.618 0.408 7.59 553.4 10.68
1/3/2022 7:00:00 AM 6.97 44.546 0.408 7.59 547.3 10.7
1/3/2022 7:15:00 AM 6.93 44.474 0.408 7.6 555.7 10.71
1/3/2022 7:30:00 AM 6.89 44.402 0.409 7.6 543.2 10.73
1/3/2022 7:45:00 AM 6.84 44.312 0.409 7.62 540.5 10.75
1/3/2022 8:00:00 AM 6.8 44.24 0.409 7.6 551.1 10.77
1/3/2022 8:15:00 AM 6.77 44.186 0.41 7.6 524.1 10.78
1/3/2022 8:30:00 AM 6.73 44.114 0.41 7.6 563.4 10.81
1/3/2022 8:45:00 AM 6.69 44.042 0.41 7.6 592.6 10.85
1/3/2022 9:00:00 AM 6.65 43.97 0.411 7.61 557 10.89
1/3/2022 9:15:00 AM 6.61 43.898 0.411 7.61 529 10.93
1/3/2022 9:30:00 AM 6.56 43.808 0.411 7.62 520.2 10.98
1/3/2022 9:45:00 AM 6.52 43.736 0.411 7.62 533 11.03
1/3/2022 10:00:00 AM 6.48 43.664 0.412 7.63 502.9 11.1
1/3/2022 10:15:00 AM 6.44 43.592 0.412 7.65 572.1 11.16
1/3/2022 10:30:00 AM 6.42 43.556 0.412 7.65 526.4 11.22
1/3/2022 10:45:00 AM 6.4 43.52 0.413 7.65 557 11.3
1/3/2022 11:00:00 AM 6.38 43.484 0.413 7.65 481.2 11.36
1/3/2022 11:15:00 AM 6.35 43.43 0.413 7.67 532.1 11.41
1/3/2022 11:30:00 AM 6.34 43.412 0.413 7.67 502.1 11.48
1/3/2022 11:45:00 AM 6.33 43.394 0.413 7.69 539.9 11.54
1/3/2022 12:00:00 PM 6.34 43.412 0.413 7.7 495.2 11.61
1/3/2022 12:15:00 PM 6.36 43.448 0.414 7.7 494.2 11.7
1/3/2022 12:30:00 PM 6.38 43.484 0.414 7.71 488.5 11.77
1/3/2022 12:45:00 PM 6.42 43.556 0.414 7.72 524.5 11.85
1/3/2022 1:00:00 PM 6.44 43.592 0.414 7.73 522.4 11.92
1/3/2022 1:15:00 PM 6.45 43.61 0.414 7.74 515.1 11.97
1/3/2022 1:30:00 PM 6.46 43.628 0.414 7.74 464.9 12.05
1/3/2022 1:45:00 PM 6.47 43.646 0.414 7.75 503.4 12.12
1/3/2022 2:00:00 PM 6.5 43.7 0.414 7.75 515.3 12.19
1/3/2022 2:15:00 PM 6.53 43.754 0.414 7.75 502.1 12.24
1/3/2022 2:30:00 PM 6.55 43.79 0.415 7.76 490.1 12.26
1/3/2022 2:45:00 PM 6.56 43.808 0.415 7.75 479.6 12.26
1/3/2022 3:00:00 PM 6.56 43.808 0.415 7.74 501.8 12.24
1/3/2022 3:15:00 PM 6.55 43.79 0.415 7.73 548.7 12.25
1/3/2022 3:30:00 PM 6.55 43.79 0.415 7.75 595.9 12.22
1/3/2022 3:45:00 PM 6.53 43.754 0.415 7.73 555.1 12.2
1/3/2022 4:00:00 PM 6.51 43.718 0.416 7.73 518.2 12.16
1/3/2022 4:15:00 PM 6.49 43.682 0.416 7.72 490.6 12.11
1/3/2022 4:30:00 PM 6.46 43.628 0.416 7.72 532.2 12.04
1/3/2022 4:45:00 PM 6.42 43.556 0.416 7.72 525.5 11.99
1/3/2022 5:00:00 PM 6.4 43.52 0.416 7.71 518.6 11.93
1/3/2022 5:15:00 PM 6.39 43.502 0.416 7.71 535.7 11.87
1/3/2022 5:30:00 PM 6.38 43.484 0.416 7.7 519.5 11.81
1/3/2022 5:45:00 PM 6.37 43.466 0.416 7.69 530.9 11.74
1/3/2022 6:00:00 PM 6.34 43.412 0.416 7.69 499.4 11.71
1/3/2022 6:15:00 PM 6.32 43.376 0.416 7.69 530.2 11.67
1/3/2022 6:30:00 PM 6.29 43.322 0.416 7.69 528.5 11.65
1/3/2022 6:45:00 PM 6.27 43.286 0.417 7.68 595.4 11.61
1/3/2022 7:00:00 PM 6.25 43.25 0.417 7.68 567.3 11.59
1/3/2022 7:15:00 PM 6.23 43.214 0.417 7.67 546.7 11.54
1/3/2022 7:30:00 PM 6.2 43.16 0.417 7.67 485.9 11.52
1/3/2022 7:45:00 PM 6.16 43.088 0.417 7.67 507.6 11.48
1/3/2022 8:00:00 PM 6.12 43.016 0.417 7.68 484.9 11.47
1/3/2022 8:15:00 PM 6.09 42.962 0.418 7.67 595.7 11.45
1/3/2022 8:30:00 PM 6.07 42.926 0.418 7.66 549.9 11.43
1/3/2022 8:45:00 PM 6.04 42.872 0.418 7.66 561.4 11.4
1/3/2022 9:00:00 PM 6.01 42.818 0.418 7.66 573 11.37
1/3/2022 9:15:00 PM 5.96 42.728 0.419 7.66 525.4 11.38
1/3/2022 9:30:00 PM 5.91 42.638 0.419 7.67 474.5 11.38
1/3/2022 9:45:00 PM 5.87 42.566 0.419 7.65 490.3 11.36
1/3/2022 10:00:00 PM 5.82 42.476 0.42 7.65 534.2 11.34
1/3/2022 10:15:00 PM 5.76 42.368 0.42 7.65 508 11.34
1/3/2022 10:30:00 PM 5.71 42.278 0.421 7.64 512.1 11.35
1/3/2022 10:45:00 PM 5.67 42.206 0.421 7.63 504.1 11.34
1/3/2022 11:00:00 PM 5.62 42.116 0.421 7.64 537.9 11.33
1/3/2022 11:15:00 PM 5.57 42.026 0.422 7.63 519.7 11.35
1/3/2022 11:30:00 PM 5.52 41.936 0.422 7.64 503.2 11.35
1/3/2022 11:45:00 PM 5.47 41.846 0.422 7.63 529 11.36
1/4/2022 12:00:00 AM 5.42 41.756 0.422 7.63 546.1 11.38
1/4/2022 12:15:00 AM 5.38 41.684 0.422 7.63 533 11.39
1/4/2022 12:30:00 AM 5.35 41.63 0.423 7.62 505.4 11.4
1/4/2022 12:45:00 AM 5.31 41.558 0.423 7.63 540 11.4
1/4/2022 1:00:00 AM 5.28 41.504 0.424 7.62 556 11.41
1/4/2022 1:15:00 AM 5.24 41.432 0.424 7.62 539.1 11.42
1/4/2022 1:30:00 AM 5.21 41.378 0.425 7.63 542.8 11.44
1/4/2022 1:45:00 AM 5.19 41.342 0.424 7.62 501.8 11.46
1/4/2022 2:00:00 AM 5.17 41.306 0.424 7.62 495.9 11.47
1/4/2022 2:15:00 AM 5.16 41.288 0.424 7.61 526 11.48
1/4/2022 2:30:00 AM 5.13 41.234 0.424 7.61 540.5 11.5
1/4/2022 2:45:00 AM 5.11 41.198 0.424 7.62 505.5 11.5
1/4/2022 3:00:00 AM 5.08 41.144 0.424 7.62 519.5 11.52
1/4/2022 3:15:00 AM 5.06 41.108 0.424 7.62 505.3 11.52
1/4/2022 3:30:00 AM 5.03 41.054 0.424 7.62 509.2 11.53
1/4/2022 3:45:00 AM 5.01 41.018 0.424 7.61 504.8 11.55
1/4/2022 4:00:00 AM 5 41 0.424 7.62 506.4 11.56
1/4/2022 4:15:00 AM 4.98 40.964 0.425 7.63 490.2 11.56
1/4/2022 4:30:00 AM 4.96 40.928 0.425 7.63 497 11.57
1/4/2022 4:45:00 AM 4.95 40.91 0.425 7.62 496 11.57
1/4/2022 5:00:00 AM 4.93 40.874 0.424 7.62 504.3 11.57
1/4/2022 5:15:00 AM 4.93 40.874 0.424 7.62 520.4 11.58
1/4/2022 5:30:00 AM 4.92 40.856 0.425 7.62 523.3 11.58
1/4/2022 5:45:00 AM 4.9 40.82 0.424 7.62 503.7 11.58
1/4/2022 6:00:00 AM 4.89 40.802 0.425 7.62 483.5 11.6
1/4/2022 6:15:00 AM 4.88 40.784 0.425 7.62 553.7 11.59
1/4/2022 6:30:00 AM 4.86 40.748 0.425 7.63 531.9 11.61
1/4/2022 6:45:00 AM 4.85 40.73 0.425 7.62 497.5 11.6
1/4/2022 7:00:00 AM 4.84 40.712 0.425 7.62 508.4 11.61
1/4/2022 7:15:00 AM 4.82 40.676 0.426 7.62 496.2 11.6
1/4/2022 7:30:00 AM 4.81 40.658 0.426 7.62 478.8 11.62
1/4/2022 7:45:00 AM 4.8 40.64 0.426 7.62 490.8 11.64
1/4/2022 8:00:00 AM 4.79 40.622 0.426 7.63 510.3 11.66
1/4/2022 8:15:00 AM 4.78 40.604 0.426 7.62 510.1 11.69
1/4/2022 8:30:00 AM 4.78 40.604 0.426 7.62 501.4 11.74